Provisional Data: Sugar Run near Sugar Run, PA


Please select a monitoring station.
Please select start date.
Please select start date.

Toggle Unit: C/F Toggle Unit: C/F
Sample Time Temperature (C) Temperature (F) Specific Conductivity (mS/cm) pH   Turbidity (NTU+) DO (mg/L)
4/13/2022 12:00:00 AM 11.48 52.664 0.09 7.39 11.61 10.3
4/13/2022 12:15:00 AM 11.45 52.61 0.09 7.39 10.43 10.3
4/13/2022 12:30:00 AM 11.42 52.556 0.09 7.38 10.58 10.31
4/13/2022 12:45:00 AM 11.39 52.502 0.09 7.38 10.67 10.31
4/13/2022 1:00:00 AM 11.36 52.448 0.09 7.38 10.86 10.3
4/13/2022 1:15:00 AM 11.32 52.376 0.09 7.36 10.94 10.3
4/13/2022 1:30:00 AM 11.28 52.304 0.09 7.36 10.08 10.31
4/13/2022 1:45:00 AM 11.24 52.232 0.09 7.36 10.97 10.31
4/13/2022 2:00:00 AM 11.19 52.142 0.09 7.37 10.72 10.32
4/13/2022 2:15:00 AM 11.15 52.07 0.09 7.37 10.91 10.33
4/13/2022 2:30:00 AM 11.1 51.98 0.09 7.36 10.69 10.33
4/13/2022 2:45:00 AM 11.05 51.89 0.09 7.37 10.54 10.34
4/13/2022 3:00:00 AM 11 51.8 0.09 7.36 10.8 10.34
4/13/2022 3:15:00 AM 10.96 51.728 0.09 7.36 10.6 10.35
4/13/2022 3:30:00 AM 10.92 51.656 0.09 7.36 10.25 10.35
4/13/2022 3:45:00 AM 10.89 51.602 0.09 7.36 9.37 10.36
4/13/2022 4:00:00 AM 10.86 51.548 0.09 7.35 10.51 10.37
4/13/2022 4:15:00 AM 10.84 51.512 0.09 7.36 10.32 10.37
4/13/2022 4:30:00 AM 10.82 51.476 0.09 7.36 9.44 10.38
4/13/2022 4:45:00 AM 10.81 51.458 0.091 7.33 9.88 10.39
4/13/2022 5:00:00 AM 10.78 51.404 0.091 7.36 9.63 10.39
4/13/2022 5:15:00 AM 10.76 51.368 0.091 7.36 9.83 10.4
4/13/2022 5:30:00 AM 10.73 51.314 0.091 7.36 8.86 10.41
4/13/2022 5:45:00 AM 10.7 51.26 0.091 7.36 9.37 10.41
4/13/2022 6:00:00 AM 10.66 51.188 0.091 7.35 9.56 10.42
4/13/2022 6:15:00 AM 10.62 51.116 0.091 7.36 9.79 10.43
4/13/2022 6:30:00 AM 10.58 51.044 0.091 7.35 9.49 10.45
4/13/2022 6:45:00 AM 10.54 50.972 0.091 7.35 9.28 10.46
4/13/2022 7:00:00 AM 10.5 50.9 0.092 7.36 8.54 10.48
4/13/2022 7:15:00 AM 10.45 50.81 0.092 7.35 8.25 10.51
4/13/2022 7:30:00 AM 10.41 50.738 0.092 7.37 8.47 10.54
4/13/2022 7:45:00 AM 10.36 50.648 0.092 7.37 8.87 10.59
4/13/2022 8:00:00 AM 10.32 50.576 0.092 7.39 8.8 10.64
4/13/2022 8:15:00 AM 10.27 50.486 0.092 7.4 8.56 10.7
4/13/2022 8:30:00 AM 10.25 50.45 0.092 7.39 8.01 10.76
4/13/2022 8:45:00 AM 10.25 50.45 0.092 7.43 8.36 10.82
4/13/2022 9:00:00 AM 10.27 50.486 0.092 7.44 7.86 10.87
4/13/2022 9:15:00 AM 10.3 50.54 0.093 7.46 8.08 10.91
4/13/2022 9:30:00 AM 10.36 50.648 0.093 7.48 8.23 10.95
4/13/2022 9:45:00 AM 10.43 50.774 0.093 7.5 7.48 10.98
4/13/2022 10:00:00 AM 10.52 50.936 0.093 7.51 7.82 11.01
4/13/2022 10:15:00 AM 10.62 51.116 0.093 7.52 6.91 11.03
4/13/2022 10:30:00 AM 10.77 51.386 0.093 7.55 7.51 11.05
4/13/2022 10:45:00 AM 10.94 51.692 0.093 7.57 8.03 11.06
4/13/2022 11:00:00 AM 11.12 52.016 0.093 7.6 8.43 11.07
4/13/2022 11:15:00 AM 11.12 52.016 0.093 7.61 8.91 11.06
4/13/2022 11:30:00 AM 11.17 52.106 0.094 7.63 7.82 11.07
4/13/2022 11:45:00 AM 11.34 52.412 0.094 7.65 7.78 11.09
4/13/2022 12:00:00 PM 11.46 52.628 0.094 7.67 7.84 11.09
4/13/2022 12:15:00 PM 11.56 52.808 0.094 7.69 7.18 11.1
4/13/2022 12:30:00 PM 11.72 53.096 0.094 7.71 7.3 11.09
4/13/2022 12:45:00 PM 11.68 53.024 0.094 7.71 7.07 11.07
4/13/2022 1:00:00 PM 11.59 52.862 0.094 7.71 7.11 11.04
4/13/2022 1:15:00 PM 11.51 52.718 0.094 7.71 7.12 11.04
4/13/2022 1:30:00 PM 11.51 52.718 0.094 7.71 7.29 11.04
4/13/2022 1:45:00 PM 11.54 52.772 0.094 7.72 7.25 11.04
4/13/2022 2:00:00 PM 11.79 53.222 0.094 7.73 6.99 11.06
4/13/2022 2:15:00 PM 11.84 53.312 0.095 7.75 6.84 11.04
4/13/2022 2:30:00 PM 11.89 53.402 0.095 7.76 7.05 11.03
4/13/2022 2:45:00 PM 11.82 53.276 0.095 7.74 7.54 10.95
4/13/2022 3:00:00 PM 11.74 53.132 0.095 7.72 7.21 10.88
4/13/2022 3:15:00 PM 11.7 53.06 0.095 7.68 7.54 10.8
4/13/2022 3:30:00 PM 11.71 53.078 0.095 7.65 7.01 10.73
4/13/2022 3:45:00 PM 11.72 53.096 0.095 7.63 6.92 10.69
4/13/2022 4:00:00 PM 11.78 53.204 0.095 7.64 6.92 10.75
4/13/2022 4:15:00 PM 11.84 53.312 0.095 7.66 7.44 10.8
4/13/2022 4:30:00 PM 11.85 53.33 0.095 7.68 6.93 10.81
4/13/2022 4:45:00 PM 11.86 53.348 0.095 7.69 7 10.82
4/13/2022 5:00:00 PM 11.89 53.402 0.095 7.69 6.42 10.8
4/13/2022 5:15:00 PM 11.93 53.474 0.095 7.69 6.34 10.8
4/13/2022 5:30:00 PM 11.97 53.546 0.095 7.69 6.93 10.75
4/13/2022 5:45:00 PM 12.01 53.618 0.095 7.67 6.8 10.68
4/13/2022 6:00:00 PM 12.04 53.672 0.095 7.66 6.85 10.63
4/13/2022 6:15:00 PM 12.09 53.762 0.095 7.62 6.98 10.55
4/13/2022 6:30:00 PM 12.14 53.852 0.095 7.61 6.75 10.5
4/13/2022 6:45:00 PM 12.18 53.924 0.095 7.57 6.66 10.41
4/13/2022 7:00:00 PM 12.22 53.996 0.096 7.55 6.35 10.33
4/13/2022 7:15:00 PM 12.26 54.068 0.096 7.52 6.8 10.25
4/13/2022 7:30:00 PM 12.29 54.122 0.096 7.5 6.82 10.19
4/13/2022 7:45:00 PM 12.33 54.194 0.096 7.47 6.94 10.15
4/13/2022 8:00:00 PM 12.36 54.248 0.096 7.46 6.88 10.12
4/13/2022 8:15:00 PM 12.38 54.284 0.096 7.45 6.52 10.09
4/13/2022 8:30:00 PM 12.4 54.32 0.096 7.43 6.95 10.07
4/13/2022 8:45:00 PM 12.41 54.338 0.096 7.43 7.15 10.05
4/13/2022 9:00:00 PM 12.43 54.374 0.096 7.43 6.97 10.03
4/13/2022 9:15:00 PM 12.44 54.392 0.096 7.42 6.78 10.02
4/13/2022 9:30:00 PM 12.47 54.446 0.096 7.42 6.53 10.01
4/13/2022 9:45:00 PM 12.49 54.482 0.096 7.41 6.85 9.99
4/13/2022 10:00:00 PM 12.51 54.518 0.096 7.41 6.8 9.98
4/13/2022 10:15:00 PM 12.55 54.59 0.096 7.41 6.7 9.96
4/13/2022 10:30:00 PM 12.58 54.644 0.096 7.41 7.25 9.95
4/13/2022 10:45:00 PM 12.6 54.68 0.096 7.41 7.28 9.94
4/13/2022 11:00:00 PM 12.62 54.716 0.096 7.4 7.57 9.93
4/13/2022 11:15:00 PM 12.62 54.716 0.095 7.38 7.51 9.93
4/13/2022 11:30:00 PM 12.62 54.716 0.095 7.41 7.82 9.92
4/13/2022 11:45:00 PM 12.6 54.68 0.095 7.4 7.37 9.91
4/14/2022 12:00:00 AM 12.6 54.68 0.095 7.4 7.17 9.9
4/14/2022 12:15:00 AM 12.59 54.662 0.095 7.4 6.58 9.9
4/14/2022 12:30:00 AM 12.58 54.644 0.095 7.4 6.9 9.89
4/14/2022 12:45:00 AM 12.57 54.626 0.095 7.4 7.51 9.89
4/14/2022 1:00:00 AM 12.56 54.608 0.095 7.41 6.93 9.88
4/14/2022 1:15:00 AM 12.55 54.59 0.095 7.41 7.19 9.88
4/14/2022 1:30:00 AM 12.55 54.59 0.095 7.39 6.55 9.88
4/14/2022 1:45:00 AM 12.55 54.59 0.095 7.4 7.22 9.87
4/14/2022 2:00:00 AM 12.56 54.608 0.095 7.4 7.5 9.86
4/14/2022 2:15:00 AM 12.58 54.644 0.095 7.39 6.87 9.86
4/14/2022 2:30:00 AM 12.59 54.662 0.095 7.39 6.99 9.85
4/14/2022 2:45:00 AM 12.61 54.698 0.095 7.39 7.37 9.85
4/14/2022 3:00:00 AM 12.61 54.698 0.095 7.38 7.43 9.84
4/14/2022 3:15:00 AM 12.62 54.716 0.095 7.38 7.3 9.84
4/14/2022 3:30:00 AM 12.63 54.734 0.096 7.38 7.46 9.83
4/14/2022 3:45:00 AM 12.64 54.752 0.096 7.37 7.54 9.82
4/14/2022 4:00:00 AM 12.65 54.77 0.096 7.37 7.15 9.82
4/14/2022 4:15:00 AM 12.64 54.752 0.096 7.37 7.51 9.81
4/14/2022 4:30:00 AM 12.63 54.734 0.096 7.36 7.36 9.8
4/14/2022 4:45:00 AM 12.61 54.698 0.096 7.36 6.99 9.81
4/14/2022 5:00:00 AM 12.59 54.662 0.096 7.33 7.29 9.81
4/14/2022 5:15:00 AM 12.56 54.608 0.096 7.36 7.07 9.8
4/14/2022 5:30:00 AM 12.54 54.572 0.096 7.36 7.02 9.81
4/14/2022 5:45:00 AM 12.51 54.518 0.096 7.36 7.2 9.81
4/14/2022 6:00:00 AM 12.48 54.464 0.096 7.36 7.39 9.81
4/14/2022 6:15:00 AM 12.44 54.392 0.096 7.36 7.28 9.82
4/14/2022 6:30:00 AM 12.41 54.338 0.096 7.34 7.66 9.82
4/14/2022 6:45:00 AM 12.37 54.266 0.097 7.37 6.93 9.86
4/14/2022 7:00:00 AM 12.33 54.194 0.097 7.37 6.95 9.89
4/14/2022 7:15:00 AM 12.3 54.14 0.097 7.38 7.58 9.92
4/14/2022 7:30:00 AM 12.28 54.104 0.097 7.39 7.14 9.96
4/14/2022 7:45:00 AM 12.25 54.05 0.097 7.38 6.64 9.99
4/14/2022 8:00:00 AM 12.23 54.014 0.097 7.4 7.2 10.03
4/14/2022 8:15:00 AM 12.22 53.996 0.097 7.41 6.31 10.06
4/14/2022 8:30:00 AM 12.24 54.032 0.097 7.43 6.63 10.12
4/14/2022 8:45:00 AM 12.3 54.14 0.097 7.44 6.46 10.2
4/14/2022 9:00:00 AM 12.38 54.284 0.097 7.48 6.35 10.27
4/14/2022 9:15:00 AM 12.48 54.464 0.097 7.51 6.62 10.33
4/14/2022 9:30:00 AM 12.6 54.68 0.097 7.54 6.59 10.39
4/14/2022 9:45:00 AM 12.71 54.878 0.097 7.58 6.64 10.43
4/14/2022 10:00:00 AM 12.85 55.13 0.097 7.61 6.82 10.48
4/14/2022 10:15:00 AM 12.94 55.292 0.097 7.63 6.63 10.52
4/14/2022 10:30:00 AM 12.96 55.328 0.097 7.67 7.12 10.56
4/14/2022 10:45:00 AM 13 55.4 0.097 7.7 7 10.58
4/14/2022 11:00:00 AM 13.04 55.472 0.097 7.72 6.85 10.6
4/14/2022 11:15:00 AM 13.28 55.904 0.097 7.73 6.77 10.63
4/14/2022 11:30:00 AM 13.52 56.336 0.097 7.8 7.14 10.65
4/14/2022 11:45:00 AM 13.54 56.372 0.097 7.82 6.67 10.59
4/14/2022 12:00:00 PM 13.5 56.3 0.097 7.81 6.65 10.58
4/14/2022 12:15:00 PM 13.39 56.102 0.098 7.79 6.51 10.49
4/14/2022 12:30:00 PM 13.32 55.976 0.098 7.76 6.41 10.47
4/14/2022 12:45:00 PM 13.31 55.958 0.098 7.77 6.73 10.48
4/14/2022 1:00:00 PM 13.26 55.868 0.098 7.73 6.82 10.37
4/14/2022 1:15:00 PM 13.22 55.796 0.098 7.7 6.45 10.29
4/14/2022 1:30:00 PM 13.19 55.742 0.098 7.69 6.02 10.33
4/14/2022 1:45:00 PM 13.17 55.706 0.098 7.69 6.55 10.36
4/14/2022 2:00:00 PM 13.21 55.778 0.098 7.74 6.63 10.47
4/14/2022 2:15:00 PM 13.19 55.742 0.098 7.75 6.72 10.46
4/14/2022 2:30:00 PM 13.14 55.652 0.098 7.71 6.58 10.32
4/14/2022 2:45:00 PM 13.08 55.544 0.098 7.68 6.63 10.3
4/14/2022 3:00:00 PM 13.04 55.472 0.098 7.68 7.36 10.34
4/14/2022 3:15:00 PM 12.99 55.382 0.098 7.66 7.15 10.29
4/14/2022 3:30:00 PM 12.95 55.31 0.098 7.65 6.46 10.28
4/14/2022 3:45:00 PM 12.94 55.292 0.098 7.65 6.48 10.29
4/14/2022 4:00:00 PM 12.94 55.292 0.098 7.64 7.12 10.32
4/14/2022 4:15:00 PM 12.93 55.274 0.098 7.66 6.37 10.34
4/14/2022 4:30:00 PM 12.92 55.256 0.098 7.67 6.59 10.35
4/14/2022 4:45:00 PM 12.92 55.256 0.098 7.68 6.32 10.39
4/14/2022 5:00:00 PM 12.92 55.256 0.098 7.69 6.51 10.4
4/14/2022 5:15:00 PM 12.91 55.238 0.098 7.69 6.86 10.39
4/14/2022 5:30:00 PM 12.92 55.256 0.098 7.7 6.62 10.42
4/14/2022 5:45:00 PM 12.93 55.274 0.098 7.68 6.58 10.4
4/14/2022 6:00:00 PM 12.92 55.256 0.098 7.68 6.56 10.34
4/14/2022 6:15:00 PM 12.93 55.274 0.098 7.69 6.17 10.37
4/14/2022 6:30:00 PM 12.92 55.256 0.098 7.67 6.7 10.31
4/14/2022 6:45:00 PM 12.9 55.22 0.099 7.64 6.57 10.23
4/14/2022 7:00:00 PM 12.89 55.202 0.099 7.61 6.82 10.15
4/14/2022 7:15:00 PM 12.87 55.166 0.099 7.59 6.26 10.1
4/14/2022 7:30:00 PM 12.83 55.094 0.099 7.55 6.49 10.07
4/14/2022 7:45:00 PM 12.79 55.022 0.099 7.55 6.31 10.02
4/14/2022 8:00:00 PM 12.74 54.932 0.099 7.53 6.61 9.99
4/14/2022 8:15:00 PM 12.69 54.842 0.099 7.51 6.82 9.97
4/14/2022 8:30:00 PM 12.64 54.752 0.099 7.5 6.73 9.96
4/14/2022 8:45:00 PM 12.6 54.68 0.099 7.5 6.39 9.95
4/14/2022 9:00:00 PM 12.55 54.59 0.099 7.49 7.01 9.95
4/14/2022 9:15:00 PM 12.49 54.482 0.099 7.48 6.63 9.97
4/14/2022 9:30:00 PM 12.43 54.374 0.099 7.48 6.8 9.98
4/14/2022 9:45:00 PM 12.37 54.266 0.099 7.48 6.96 9.99
4/14/2022 10:00:00 PM 12.32 54.176 0.099 7.47 6.57 10
4/14/2022 10:15:00 PM 12.26 54.068 0.099 7.47 6.83 10.01
4/14/2022 10:30:00 PM 12.2 53.96 0.099 7.47 6.95 10.02
4/14/2022 10:45:00 PM 12.15 53.87 0.099 7.47 6.92 10.03
4/14/2022 11:00:00 PM 12.09 53.762 0.099 7.46 6.89 10.04
4/14/2022 11:15:00 PM 12.02 53.636 0.099 7.45 7.1 10.05
4/14/2022 11:30:00 PM 11.96 53.528 0.099 7.46 6.65 10.07
4/14/2022 11:45:00 PM 11.9 53.42 0.099 7.46 6.62 10.09
4/15/2022 12:00:00 AM 11.83 53.294 0.098 7.45 6.86 10.1
4/15/2022 12:15:00 AM 11.76 53.168 0.098 7.45 7.02 10.11
4/15/2022 12:30:00 AM 11.7 53.06 0.098 7.42 6.78 10.12
4/15/2022 12:45:00 AM 11.63 52.934 0.098 7.45 6.8 10.13
4/15/2022 1:00:00 AM 11.56 52.808 0.098 7.44 6.92 10.15
4/15/2022 1:15:00 AM 11.49 52.682 0.098 7.44 6.83 10.17
4/15/2022 1:30:00 AM 11.41 52.538 0.098 7.44 6.82 10.18
4/15/2022 1:45:00 AM 11.34 52.412 0.098 7.44 7.51 10.2
4/15/2022 2:00:00 AM 11.28 52.304 0.098 7.42 6.9 10.2
4/15/2022 2:15:00 AM 11.22 52.196 0.098 7.44 6.56 10.21
4/15/2022 2:30:00 AM 11.16 52.088 0.098 7.43 6.74 10.23
4/15/2022 2:45:00 AM 11.11 51.998 0.098 7.43 7.08 10.24
4/15/2022 3:00:00 AM 11.04 51.872 0.098 7.42 7.22 10.26
4/15/2022 3:15:00 AM 10.98 51.764 0.098 7.43 6.28 10.26
4/15/2022 3:30:00 AM 10.92 51.656 0.098 7.42 7.41 10.27
4/15/2022 3:45:00 AM 10.86 51.548 0.098 7.42 7 10.29
4/15/2022 4:00:00 AM 10.8 51.44 0.099 7.42 6.93 10.3
4/15/2022 4:15:00 AM 10.73 51.314 0.099 7.4 6.58 10.32
4/15/2022 4:30:00 AM 10.67 51.206 0.099 7.41 6.59 10.34
4/15/2022 4:45:00 AM 10.6 51.08 0.099 7.41 6.53 10.35
4/15/2022 5:00:00 AM 10.53 50.954 0.099 7.42 7.47 10.37
4/15/2022 5:15:00 AM 10.46 50.828 0.099 7.41 6.85 10.39
4/15/2022 5:30:00 AM 10.39 50.702 0.099 7.41 6.37 10.41
4/15/2022 5:45:00 AM 10.31 50.558 0.099 7.41 6.47 10.43
4/15/2022 6:00:00 AM 10.24 50.432 0.099 7.41 6.33 10.44
4/15/2022 6:15:00 AM 10.16 50.288 0.099 7.41 6.14 10.46
4/15/2022 6:30:00 AM 10.08 50.144 0.099 7.41 6.44 10.49
4/15/2022 6:45:00 AM 10.01 50.018 0.099 7.41 7.38 10.53
4/15/2022 7:00:00 AM 9.93 49.874 0.099 7.42 6.18 10.58
4/15/2022 7:15:00 AM 9.86 49.748 0.099 7.42 6.2 10.63
4/15/2022 7:30:00 AM 9.8 49.64 0.099 7.41 6.55 10.68
4/15/2022 7:45:00 AM 9.72 49.496 0.099 7.44 6.59 10.74
4/15/2022 8:00:00 AM 9.66 49.388 0.099 7.45 6.47 10.79
4/15/2022 8:15:00 AM 9.62 49.316 0.099 7.46 6.44 10.85
4/15/2022 8:30:00 AM 9.59 49.262 0.099 7.47 6.34 10.92
4/15/2022 8:45:00 AM 9.6 49.28 0.099 7.48 6.19 11.02
4/15/2022 9:00:00 AM 9.64 49.352 0.099 7.52 6.51 11.1
4/15/2022 9:15:00 AM 9.71 49.478 0.099 7.55 5.9 11.17
4/15/2022 9:30:00 AM 9.79 49.622 0.099 7.58 5.54 11.23
4/15/2022 9:45:00 AM 9.88 49.784 0.099 7.61 6.17 11.28
4/15/2022 10:00:00 AM 9.98 49.964 0.098 7.64 5.6 11.32
4/15/2022 10:15:00 AM 10.09 50.162 0.098 7.67 5.65 11.35
4/15/2022 10:30:00 AM 10.22 50.396 0.098 7.68 5.78 11.38
4/15/2022 10:45:00 AM 10.36 50.648 0.098 7.73 6.07 11.41
4/15/2022 11:00:00 AM 10.52 50.936 0.098 7.77 5.74 11.43
4/15/2022 11:15:00 AM 10.68 51.224 0.098 7.8 6.53 11.44
4/15/2022 11:30:00 AM 10.85 51.53 0.098 7.82 6.25 11.45
4/15/2022 11:45:00 AM 11 51.8 0.099 7.86 6.35 11.44
4/15/2022 12:00:00 PM 11.18 52.124 0.099 7.89 6.18 11.45
4/15/2022 12:15:00 PM 11.33 52.394 0.099 7.92 6.18 11.44
4/15/2022 12:30:00 PM 11.48 52.664 0.099 7.95 6.02 11.43
4/15/2022 12:45:00 PM 11.61 52.898 0.099 7.97 5.88 11.42
4/15/2022 1:00:00 PM 11.72 53.096 0.099 7.98 5.97 11.4
4/15/2022 1:15:00 PM 11.82 53.276 0.099 8.01 6.17 11.38
4/15/2022 1:30:00 PM 11.89 53.402 0.099 8.02 5.93 11.36
4/15/2022 1:45:00 PM 11.95 53.51 0.099 8 5.41 11.34
4/15/2022 2:00:00 PM 11.99 53.582 0.099 8.03 5.69 11.34
4/15/2022 2:15:00 PM 12.01 53.618 0.099 8.04 5.12 11.33
4/15/2022 2:30:00 PM 11.91 53.438 0.099 8.03 5.5 11.27
4/15/2022 2:45:00 PM 11.93 53.474 0.099 8.03 5.35 11.28
4/15/2022 3:00:00 PM 11.79 53.222 0.1 8 5.6 11.19
4/15/2022 3:15:00 PM 11.75 53.15 0.099 7.99 5.54 11.24
4/15/2022 3:30:00 PM 11.81 53.258 0.1 8.01 5.09 11.24
4/15/2022 3:45:00 PM 11.83 53.294 0.1 8.02 5.75 11.24
4/15/2022 4:00:00 PM 11.84 53.312 0.1 8.02 5.18 11.24
4/15/2022 4:15:00 PM 11.85 53.33 0.1 8.01 5.67 11.2
4/15/2022 4:30:00 PM 11.78 53.204 0.1 8 5.36 11.14
4/15/2022 4:45:00 PM 11.74 53.132 0.1 7.99 5.85 11.15
4/15/2022 5:00:00 PM 11.72 53.096 0.1 7.98 5.35 11.12
4/15/2022 5:15:00 PM 11.64 52.952 0.1 7.93 5.33 11
4/15/2022 5:30:00 PM 11.59 52.862 0.1 7.87 5.29 10.93
4/15/2022 5:45:00 PM 11.62 52.916 0.1 7.86 5.58 10.94
4/15/2022 6:00:00 PM 11.67 53.006 0.1 7.83 5.49 10.93
4/15/2022 6:15:00 PM 11.68 53.024 0.1 7.85 5.39 10.91
4/15/2022 6:30:00 PM 11.68 53.024 0.1 7.82 5.45 10.84
4/15/2022 6:45:00 PM 11.66 52.988 0.1 7.78 5.11 10.75
4/15/2022 7:00:00 PM 11.62 52.916 0.1 7.74 5.6 10.65
4/15/2022 7:15:00 PM 11.58 52.844 0.1 7.67 5.59 10.55
4/15/2022 7:30:00 PM 11.57 52.826 0.1 7.66 5.64 10.46
4/15/2022 7:45:00 PM 11.58 52.844 0.1 7.62 5.65 10.39
4/15/2022 8:00:00 PM 11.6 52.88 0.1 7.59 5.43 10.32
4/15/2022 8:15:00 PM 11.61 52.898 0.1 7.57 5.54 10.27
4/15/2022 8:30:00 PM 11.62 52.916 0.1 7.56 5.67 10.25
4/15/2022 8:45:00 PM 11.63 52.934 0.101 7.54 5.62 10.22
4/15/2022 9:00:00 PM 11.62 52.916 0.101 7.53 5.71 10.21
4/15/2022 9:15:00 PM 11.61 52.898 0.101 7.53 5.94 10.2
4/15/2022 9:30:00 PM 11.6 52.88 0.101 7.5 5.42 10.19
4/15/2022 9:45:00 PM 11.6 52.88 0.101 7.52 5.35 10.18
4/15/2022 10:00:00 PM 11.6 52.88 0.101 7.51 5.67 10.18
4/15/2022 10:15:00 PM 11.61 52.898 0.101 7.51 5.9 10.16
4/15/2022 10:30:00 PM 11.62 52.916 0.101 7.51 5.52 10.15
4/15/2022 10:45:00 PM 11.62 52.916 0.101 7.5 5.28 10.15
4/15/2022 11:00:00 PM 11.62 52.916 0.1 7.5 5.44 10.13
4/15/2022 11:15:00 PM 11.64 52.952 0.1 7.49 5.59 10.13
4/15/2022 11:30:00 PM 11.64 52.952 0.1 7.5 6.02 10.12
4/15/2022 11:45:00 PM 11.64 52.952 0.1 7.49 5.59 10.11
4/16/2022 12:00:00 AM 11.62 52.916 0.1 7.46 5.36 10.11
4/16/2022 12:15:00 AM 11.61 52.898 0.1 7.48 5.47 10.1
4/16/2022 12:30:00 AM 11.6 52.88 0.1 7.48 5.72 10.1
4/16/2022 12:45:00 AM 11.58 52.844 0.1 7.47 5.54 10.1
4/16/2022 1:00:00 AM 11.56 52.808 0.1 7.48 5.49 10.1
4/16/2022 1:15:00 AM 11.54 52.772 0.1 7.47 5.87 10.09
4/16/2022 1:30:00 AM 11.53 52.754 0.1 7.47 5.76 10.1
4/16/2022 1:45:00 AM 11.52 52.736 0.1 7.46 5.58 10.1
4/16/2022 2:00:00 AM 11.51 52.718 0.1 7.47 5.77 10.09
4/16/2022 2:15:00 AM 11.48 52.664 0.1 7.46 5.66 10.09
4/16/2022 2:30:00 AM 11.46 52.628 0.1 7.46 5.87 10.09
4/16/2022 2:45:00 AM 11.44 52.592 0.1 7.45 5.68 10.1
4/16/2022 3:00:00 AM 11.41 52.538 0.1 7.46 5.98 10.1
4/16/2022 3:15:00 AM 11.38 52.484 0.1 7.45 5.32 10.08
4/16/2022 3:30:00 AM 11.36 52.448 0.1 7.42 4.99 10.09
4/16/2022 3:45:00 AM 11.33 52.394 0.1 7.45 5.18 10.11
4/16/2022 4:00:00 AM 11.31 52.358 0.1 7.44 5.6 10.1
4/16/2022 4:15:00 AM 11.28 52.304 0.1 7.44 5.22 10.1
4/16/2022 4:30:00 AM 11.26 52.268 0.1 7.44 5.49 10.1
4/16/2022 4:45:00 AM 11.22 52.196 0.1 7.44 5.32 10.13
4/16/2022 5:00:00 AM 11.18 52.124 0.1 7.44 5.26 10.13
4/16/2022 5:15:00 AM 11.13 52.034 0.1 7.42 5.34 10.14
4/16/2022 5:30:00 AM 11.09 51.962 0.1 7.43 5.38 10.15
4/16/2022 5:45:00 AM 11.06 51.908 0.1 7.43 5.5 10.16
4/16/2022 6:00:00 AM 11.03 51.854 0.1 7.4 5.46 10.16
4/16/2022 6:15:00 AM 10.99 51.782 0.101 7.42 5.3 10.18
4/16/2022 6:30:00 AM 10.97 51.746 0.101 7.42 5.39 10.18
4/16/2022 6:45:00 AM 10.93 51.674 0.101 7.42 5.24 10.19
4/16/2022 7:00:00 AM 10.9 51.62 0.101 7.42 5.32 10.21
4/16/2022 7:15:00 AM 10.88 51.584 0.101 7.4 4.85 10.23
4/16/2022 7:30:00 AM 10.85 51.53 0.101 7.43 5.75 10.25
4/16/2022 7:45:00 AM 10.83 51.494 0.101 7.44 5.58 10.3
4/16/2022 8:00:00 AM 10.81 51.458 0.101 7.45 5.56 10.35
4/16/2022 8:15:00 AM 10.82 51.476 0.101 7.44 5.36 10.48
4/16/2022 8:30:00 AM 10.83 51.494 0.101 7.5 5 10.54
4/16/2022 8:45:00 AM 10.87 51.566 0.101 7.53 5.06 10.71
4/16/2022 9:00:00 AM 10.9 51.62 0.101 7.57 4.99 10.79
4/16/2022 9:15:00 AM 10.94 51.692 0.101 7.62 5.27 10.87
4/16/2022 9:30:00 AM 10.97 51.746 0.101 7.65 4.81 10.93
4/16/2022 9:45:00 AM 11.02 51.836 0.101 7.69 5.18 11.01
4/16/2022 10:00:00 AM 11.07 51.926 0.101 7.72 4.84 11.06
4/16/2022 10:15:00 AM 11.08 51.944 0.101 7.73 4.8 11.03
4/16/2022 10:30:00 AM 11.1 51.98 0.101 7.77 5.17 11.09
4/16/2022 10:45:00 AM 11.12 52.016 0.101 7.79 5.18 11.08
4/16/2022 11:00:00 AM 11.11 51.998 0.101 7.78 4.96 11.05
4/16/2022 11:15:00 AM 11.09 51.962 0.101 7.78 5.12 10.99
4/16/2022 11:30:00 AM 11.07 51.926 0.101 7.75 4.82 10.9
4/16/2022 11:45:00 AM 11.06 51.908 0.101 7.74 4.97 10.9
4/16/2022 12:00:00 PM 11.08 51.944 0.101 7.75 4.83 10.97
4/16/2022 12:15:00 PM 11.08 51.944 0.101 7.76 4.81 10.98
4/16/2022 12:30:00 PM 11.09 51.962 0.101 7.77 5.01 11.02
4/16/2022 12:45:00 PM 11.07 51.926 0.102 7.78 5.3 10.93
4/16/2022 1:00:00 PM 11.04 51.872 0.102 7.75 4.99 10.88
4/16/2022 1:15:00 PM 11 51.8 0.102 7.73 4.82 10.82
4/16/2022 1:30:00 PM 10.91 51.638 0.102 7.68 4.89 10.73
4/16/2022 1:45:00 PM 10.8 51.44 0.101 7.68 5.24 10.81
4/16/2022 2:00:00 PM 10.73 51.314 0.101 7.69 5.31 10.86
4/16/2022 2:15:00 PM 10.67 51.206 0.101 7.69 6.17 10.89
4/16/2022 2:30:00 PM 10.61 51.098 0.101 7.68 7.01 10.87
4/16/2022 2:45:00 PM 10.55 50.99 0.101 7.65 6.47 10.79
4/16/2022 3:00:00 PM 10.49 50.882 0.101 7.63 6.8 10.73
4/16/2022 3:15:00 PM 10.42 50.756 0.101 7.6 8.6 10.76
4/16/2022 3:30:00 PM 10.38 50.684 0.101 7.62 9.45 10.79
4/16/2022 3:45:00 PM 10.35 50.63 0.101 7.63 10.89 10.83
4/16/2022 4:00:00 PM 10.31 50.558 0.101 7.62 10.44 10.81
4/16/2022 4:15:00 PM 10.28 50.504 0.101 7.62 12.67 10.83
4/16/2022 4:30:00 PM 10.28 50.504 0.101 7.64 11.64 10.9
4/16/2022 4:45:00 PM 10.26 50.468 0.101 7.63 13.19 10.9
4/16/2022 5:00:00 PM 10.24 50.432 0.101 7.64 12.65 10.88
4/16/2022 5:15:00 PM 10.22 50.396 0.101 7.61 11.05 10.87
4/16/2022 5:30:00 PM 10.19 50.342 0.101 7.62 10.79 10.87
4/16/2022 5:45:00 PM 10.17 50.306 0.101 7.62 11.42 10.87
4/16/2022 6:00:00 PM 10.14 50.252 0.101 7.6 11.06 10.82
4/16/2022 6:15:00 PM 10.09 50.162 0.101 7.57 10.92 10.74
4/16/2022 6:30:00 PM 10.04 50.072 0.101 7.55 10.73 10.75
4/16/2022 6:45:00 PM 10.01 50.018 0.101 7.55 10.96 10.73
4/16/2022 7:00:00 PM 9.99 49.982 0.101 7.54 10.86 10.71
4/16/2022 7:15:00 PM 9.96 49.928 0.102 7.54 11.33 10.7
4/16/2022 7:30:00 PM 9.93 49.874 0.102 7.52 10.07 10.69
4/16/2022 7:45:00 PM 9.89 49.802 0.102 7.5 9.86 10.69
4/16/2022 8:00:00 PM 9.87 49.766 0.102 7.5 10.19 10.68
4/16/2022 8:15:00 PM 9.84 49.712 0.102 7.49 10.32 10.67
4/16/2022 8:30:00 PM 9.8 49.64 0.102 7.48 10.33 10.69
4/16/2022 8:45:00 PM 9.76 49.568 0.101 7.48 10.42 10.69
4/16/2022 9:00:00 PM 9.73 49.514 0.101 7.47 10.84 10.71
4/16/2022 9:15:00 PM 9.69 49.442 0.101 7.47 11.01 10.72
4/16/2022 9:30:00 PM 9.65 49.37 0.101 7.47 10.85 10.73
4/16/2022 9:45:00 PM 9.59 49.262 0.101 7.45 11.25 10.75
4/16/2022 10:00:00 PM 9.54 49.172 0.101 7.45 12.68 10.76
4/16/2022 10:15:00 PM 9.47 49.046 0.102 7.43 12.75 10.78
4/16/2022 10:30:00 PM 9.39 48.902 0.102 7.44 12.6 10.79
4/16/2022 10:45:00 PM 9.32 48.776 0.102 7.44 12.81 10.81
4/16/2022 11:00:00 PM 9.26 48.668 0.102 7.44 9.87 10.82
4/16/2022 11:15:00 PM 9.21 48.578 0.102 7.42 13.06 10.84
4/16/2022 11:30:00 PM 9.16 48.488 0.102 7.44 13.24 10.85
4/16/2022 11:45:00 PM 9.1 48.38 0.102 7.45 13.84 10.86
4/17/2022 12:00:00 AM 9.03 48.254 0.101 7.45 14.34 10.88
4/17/2022 12:15:00 AM 8.97 48.146 0.101 7.43 15.73 10.9
4/17/2022 12:30:00 AM 8.93 48.074 0.101 7.41 15.5 10.9
4/17/2022 12:45:00 AM 8.89 48.002 0.101 7.42 15.67 10.91
4/17/2022 1:00:00 AM 8.86 47.948 0.101 7.42 16.83 10.92
4/17/2022 1:15:00 AM 8.81 47.858 0.101 7.42 16.24 10.93
4/17/2022 1:30:00 AM 8.77 47.786 0.101 7.41 16.28 10.94
4/17/2022 1:45:00 AM 8.72 47.696 0.1 7.42 16.59 10.95
4/17/2022 2:00:00 AM 8.66 47.588 0.1 7.41 16.46 10.97
4/17/2022 2:15:00 AM 8.6 47.48 0.1 7.41 15.45 10.99
4/17/2022 2:30:00 AM 8.56 47.408 0.099 7.42 16.31 11
4/17/2022 2:45:00 AM 8.5 47.3 0.099 7.41 15.97 11.01
4/17/2022 3:00:00 AM 8.45 47.21 0.099 7.41 15.36 11.03
4/17/2022 3:15:00 AM 8.4 47.12 0.098 7.41 15.02 11.04
4/17/2022 3:30:00 AM 8.35 47.03 0.098 7.4 15.13 11.05
4/17/2022 3:45:00 AM 8.3 46.94 0.098 7.4 14.98 11.06
4/17/2022 4:00:00 AM 8.26 46.868 0.098 7.41 15.92 11.07
4/17/2022 4:15:00 AM 8.22 46.796 0.097 7.4 13.97 11.08
4/17/2022 4:30:00 AM 8.19 46.742 0.097 7.4 14.9 11.09
4/17/2022 4:45:00 AM 8.15 46.67 0.097 7.41 14.82 11.1
4/17/2022 5:00:00 AM 8.11 46.598 0.097 7.4 14.08 11.11
4/17/2022 5:15:00 AM 8.06 46.508 0.097 7.4 14.02 11.13
4/17/2022 5:30:00 AM 8.02 46.436 0.097 7.4 14.52 11.14
4/17/2022 5:45:00 AM 7.98 46.364 0.097 7.4 14.15 11.15
4/17/2022 6:00:00 AM 7.92 46.256 0.097 7.41 14.78 11.17
4/17/2022 6:15:00 AM 7.88 46.184 0.096 7.4 13.83 11.18
4/17/2022 6:30:00 AM 7.82 46.076 0.096 7.4 13.42 11.19
4/17/2022 6:45:00 AM 7.77 45.986 0.096 7.4 13.3 11.22
4/17/2022 7:00:00 AM 7.73 45.914 0.096 7.4 13.3 11.25
4/17/2022 7:15:00 AM 7.69 45.842 0.096 7.41 13.33 11.28
4/17/2022 7:30:00 AM 7.65 45.77 0.096 7.42 13.03 11.31
4/17/2022 7:45:00 AM 7.61 45.698 0.095 7.42 12.07 11.35
4/17/2022 8:00:00 AM 7.59 45.662 0.095 7.44 12.49 11.46
4/17/2022 8:15:00 AM 7.56 45.608 0.095 7.46 12.69 11.52
4/17/2022 8:30:00 AM 7.54 45.572 0.095 7.47 12.96 11.62
4/17/2022 8:45:00 AM 7.53 45.554 0.095 7.5 11.43 11.67
4/17/2022 9:00:00 AM 7.51 45.518 0.095 7.52 11.85 11.74
4/17/2022 9:15:00 AM 7.51 45.518 0.095 7.54 11.6 11.8
4/17/2022 9:30:00 AM 7.5 45.5 0.095 7.56 11.54 11.88
4/17/2022 9:45:00 AM 7.52 45.536 0.095 7.6 10.91 11.95
4/17/2022 10:00:00 AM 7.49 45.482 0.095 7.61 10.52 11.96
4/17/2022 10:15:00 AM 7.47 45.446 0.095 7.63 11.03 11.98
4/17/2022 10:30:00 AM 7.45 45.41 0.095 7.64 10.61 12.01
4/17/2022 10:45:00 AM 7.43 45.374 0.095 7.65 10.52 12.02
4/17/2022 11:00:00 AM 7.43 45.374 0.095 7.65 10.4 12.03
4/17/2022 11:15:00 AM 7.47 45.446 0.095 7.68 9.06 12.11
4/17/2022 11:30:00 AM 7.53 45.554 0.095 7.72 10.15 12.18
4/17/2022 11:45:00 AM 7.5 45.5 0.095 7.74 9.33 12.2
4/17/2022 12:00:00 PM 7.71 45.878 0.095 7.77 9.69 12.23
4/17/2022 12:15:00 PM 7.73 45.914 0.095 7.79 9.35 12.23
4/17/2022 12:30:00 PM 7.67 45.806 0.095 7.79 9.53 12.21
4/17/2022 12:45:00 PM 7.68 45.824 0.095 7.8 8.65 12.22
4/17/2022 1:00:00 PM 7.74 45.932 0.095 7.81 9.14 12.24
4/17/2022 1:15:00 PM 7.96 46.328 0.095 7.84 8.6 12.27
4/17/2022 1:30:00 PM 8.02 46.436 0.095 7.85 8.5 12.25
4/17/2022 1:45:00 PM 8.13 46.634 0.095 7.89 8.34 12.25
4/17/2022 2:00:00 PM 8.07 46.526 0.096 7.9 8.37 12.25
4/17/2022 2:15:00 PM 8.14 46.652 0.096 7.91 8.18 12.27
4/17/2022 2:30:00 PM 8.26 46.868 0.096 7.94 7.73 12.28
4/17/2022 2:45:00 PM 8.38 47.084 0.096 7.96 8.03 12.25
4/17/2022 3:00:00 PM 8.54 47.372 0.096 7.96 7.47 12.25
4/17/2022 3:15:00 PM 8.61 47.498 0.096 8 7.28 12.24
4/17/2022 3:30:00 PM 8.51 47.318 0.096 7.96 7.18 12.16
4/17/2022 3:45:00 PM 8.35 47.03 0.096 7.91 7.13 12.08
4/17/2022 4:00:00 PM 8.4 47.12 0.096 7.92 7.56 12.12
4/17/2022 4:15:00 PM 8.38 47.084 0.096 7.92 7.22 12.11
4/17/2022 4:30:00 PM 8.3 46.94 0.097 7.9 7.01 12.06
4/17/2022 4:45:00 PM 8.24 46.832 0.097 7.86 6.94 11.97
4/17/2022 5:00:00 PM 8.2 46.76 0.097 7.81 7.67 11.93
4/17/2022 5:15:00 PM 8.2 46.76 0.097 7.81 6.56 11.92
4/17/2022 5:30:00 PM 8.2 46.76 0.097 7.78 6.93 11.88
4/17/2022 5:45:00 PM 8.21 46.778 0.097 7.77 7.01 11.85
4/17/2022 6:00:00 PM 8.2 46.76 0.097 7.75 6.51 11.82
4/17/2022 6:15:00 PM 8.15 46.67 0.097 7.73 6.25 11.76
4/17/2022 6:30:00 PM 8.14 46.652 0.098 7.71 6.49 11.74
4/17/2022 6:45:00 PM 8.11 46.598 0.098 7.68 6.65 11.7
4/17/2022 7:00:00 PM 8.08 46.544 0.098 7.66 6.14 11.65
4/17/2022 7:15:00 PM 8.06 46.508 0.098 7.64 6.31 11.57
4/17/2022 7:30:00 PM 8.06 46.508 0.098 7.61 6.59 11.52
4/17/2022 7:45:00 PM 8.06 46.508 0.098 7.59 6.74 11.47
4/17/2022 8:00:00 PM 8.05 46.49 0.098 7.56 6.55 11.42
4/17/2022 8:15:00 PM 8.04 46.472 0.098 7.54 6.41 11.39
4/17/2022 8:30:00 PM 8.03 46.454 0.098 7.54 6.19 11.37
4/17/2022 8:45:00 PM 8 46.4 0.098 7.53 6.19 11.36
4/17/2022 9:00:00 PM 7.98 46.364 0.098 7.52 6.51 11.35
4/17/2022 9:15:00 PM 7.95 46.31 0.098 7.52 6.42 11.35
4/17/2022 9:30:00 PM 7.92 46.256 0.098 7.51 6.14 11.35
4/17/2022 9:45:00 PM 7.89 46.202 0.098 7.5 6.28 11.34
4/17/2022 10:00:00 PM 7.87 46.166 0.098 7.5 6.16 11.35
4/17/2022 10:15:00 PM 7.83 46.094 0.098 7.5 6.18 11.34
4/17/2022 10:30:00 PM 7.8 46.04 0.098 7.49 6.42 11.35
4/17/2022 10:45:00 PM 7.76 45.968 0.098 7.49 6.22 11.35
4/17/2022 11:00:00 PM 7.73 45.914 0.098 7.49 6.16 11.36
4/17/2022 11:15:00 PM 7.69 45.842 0.098 7.48 6.05 11.37
4/17/2022 11:30:00 PM 7.66 45.788 0.098 7.48 6.32 11.37
4/17/2022 11:45:00 PM 7.63 45.734 0.098 7.48 6.01 11.38
4/18/2022 12:00:00 AM 7.59 45.662 0.098 7.47 5.72 11.37
4/18/2022 12:15:00 AM 7.55 45.59 0.098 7.45 6.1 11.37
4/18/2022 12:30:00 AM 7.52 45.536 0.098 7.47 5.87 11.39
4/18/2022 12:45:00 AM 7.48 45.464 0.098 7.47 6.2 11.39
4/18/2022 1:00:00 AM 7.44 45.392 0.098 7.46 5.6 11.4
4/18/2022 1:15:00 AM 7.4 45.32 0.098 7.43 6.09 11.4
4/18/2022 1:30:00 AM 7.36 45.248 0.098 7.46 5.66 11.4
4/18/2022 1:45:00 AM 7.31 45.158 0.098 7.43 5.96 11.41
4/18/2022 2:00:00 AM 7.26 45.068 0.098 7.44 5.65 11.42
4/18/2022 2:15:00 AM 7.22 44.996 0.098 7.44 5.36 11.43
4/18/2022 2:30:00 AM 7.16 44.888 0.098 7.44 5.75 11.44
4/18/2022 2:45:00 AM 7.11 44.798 0.098 7.44 5.81 11.46
4/18/2022 3:00:00 AM 7.06 44.708 0.098 7.41 5.69 11.47
4/18/2022 3:15:00 AM 6.99 44.582 0.098 7.44 5.54 11.49
4/18/2022 3:30:00 AM 6.94 44.492 0.098 7.43 5.83 11.5
4/18/2022 3:45:00 AM 6.87 44.366 0.098 7.42 6.08 11.52
4/18/2022 4:00:00 AM 6.81 44.258 0.098 7.42 5.45 11.53
4/18/2022 4:15:00 AM 6.74 44.132 0.098 7.41 5.61 11.55
4/18/2022 4:30:00 AM 6.68 44.024 0.099 7.41 5.51 11.56
4/18/2022 4:45:00 AM 6.61 43.898 0.099 7.41 5.77 11.58
4/18/2022 5:00:00 AM 6.55 43.79 0.099 7.41 5.47 11.59
4/18/2022 5:15:00 AM 6.48 43.664 0.099 7.4 5.26 11.6
4/18/2022 5:30:00 AM 6.41 43.538 0.099 7.4 5.14 11.62
4/18/2022 5:45:00 AM 6.34 43.412 0.099 7.4 5.88 11.64
4/18/2022 6:00:00 AM 6.28 43.304 0.099 7.39 5.46 11.65
4/18/2022 6:15:00 AM 6.22 43.196 0.099 7.39 5.52 11.68
4/18/2022 6:30:00 AM 6.17 43.106 0.099 7.39 5.91 11.69
4/18/2022 6:45:00 AM 6.11 42.998 0.099 7.4 5.7 11.74
4/18/2022 7:00:00 AM 6.06 42.908 0.099 7.38 5.46 11.79
4/18/2022 7:15:00 AM 6.02 42.836 0.099 7.41 5.84 11.85
4/18/2022 7:30:00 AM 5.99 42.782 0.099 7.42 6.02 11.89
4/18/2022 7:45:00 AM 5.97 42.746 0.099 7.44 5.88 11.98
4/18/2022 8:00:00 AM 5.96 42.728 0.099 7.45 5.61 12.07
4/18/2022 8:15:00 AM 5.96 42.728 0.099 7.46 5.53 12.16
4/18/2022 8:30:00 AM 5.96 42.728 0.099 7.5 5.7 12.23
4/18/2022 8:45:00 AM 6.01 42.818 0.099 7.53 5.55 12.31
4/18/2022 9:00:00 AM 6.07 42.926 0.099 7.56 6.17 12.39
4/18/2022 9:15:00 AM 6.14 43.052 0.099 7.59 5.64 12.47
4/18/2022 9:30:00 AM 6.22 43.196 0.099 7.63 5.45 12.52
4/18/2022 9:45:00 AM 6.27 43.286 0.099 7.63 5.25 12.56
4/18/2022 10:00:00 AM 6.41 43.538 0.099 7.7 5.65 12.61
4/18/2022 10:15:00 AM 6.54 43.772 0.099 7.73 5.41 12.64
4/18/2022 10:30:00 AM 6.61 43.898 0.099 7.77 5.11 12.66
4/18/2022 10:45:00 AM 6.65 43.97 0.099 7.79 4.96 12.68
4/18/2022 11:00:00 AM 6.72 44.096 0.099 7.83 5.22 12.7
4/18/2022 11:15:00 AM 6.8 44.24 0.099 7.87 5.99 12.72
4/18/2022 11:30:00 AM 6.82 44.276 0.099 7.9 5.51 12.72
4/18/2022 11:45:00 AM 6.82 44.276 0.099 7.9 5.74 12.72
4/18/2022 12:00:00 PM 6.83 44.294 0.099 7.93 5.55 12.72
4/18/2022 12:15:00 PM 6.82 44.276 0.099 7.95 5.21 12.71
4/18/2022 12:30:00 PM 6.82 44.276 0.1 7.96 5.83 12.71
4/18/2022 12:45:00 PM 6.8 44.24 0.1 7.96 5.14 12.72
4/18/2022 1:00:00 PM 6.8 44.24 0.1 7.97 5.37 12.73
4/18/2022 1:15:00 PM 6.78 44.204 0.1 7.97 5.16 12.72
4/18/2022 1:30:00 PM 6.74 44.132 0.1 7.97 5.31 12.73
4/18/2022 1:45:00 PM 6.72 44.096 0.1 7.99 5.13 12.73
4/18/2022 2:00:00 PM 6.7 44.06 0.1 7.98 5.27 12.73
4/18/2022 2:15:00 PM 6.65 43.97 0.1 7.98 5.09 12.73
4/18/2022 2:30:00 PM 6.61 43.898 0.1 7.96 4.8 12.72
4/18/2022 2:45:00 PM 6.57 43.826 0.1 7.95 4.69 12.7
4/18/2022 3:00:00 PM 6.54 43.772 0.101 7.95 4.42 12.68
4/18/2022 3:15:00 PM 6.49 43.682 0.101 7.92 4.54 12.64
4/18/2022 3:30:00 PM 6.48 43.664 0.101 7.9 4.83 12.62
4/18/2022 3:45:00 PM 6.47 43.646 0.101 7.89 4.65 12.6
4/18/2022 4:00:00 PM 6.45 43.61 0.101 7.88 4.55 12.58
4/18/2022 4:15:00 PM 6.43 43.574 0.101 7.86 4.13 12.54
4/18/2022 4:30:00 PM 6.39 43.502 0.101 7.83 4.54 12.47
4/18/2022 4:45:00 PM 6.35 43.43 0.101 7.78 4.3 12.35
4/18/2022 5:00:00 PM 6.32 43.376 0.101 7.73 4.51 12.28
4/18/2022 5:15:00 PM 6.27 43.286 0.101 7.68 4.19 12.2
4/18/2022 5:30:00 PM 6.22 43.196 0.101 7.66 4.56 12.14
4/18/2022 5:45:00 PM 6.16 43.088 0.101 7.64 4.45 12.1
4/18/2022 6:00:00 PM 6.09 42.962 0.101 7.62 4.86 12.09
4/18/2022 6:15:00 PM 6.04 42.872 0.101 7.59 4.86 12.07
4/18/2022 6:30:00 PM 5.99 42.782 0.101 7.58 4.84 12.04
4/18/2022 6:45:00 PM 5.98 42.764 0.101 7.58 4.66 12.01
4/18/2022 7:00:00 PM 5.96 42.728 0.101 7.56 5.05 11.98
4/18/2022 7:15:00 PM 5.93 42.674 0.101 7.55 4.93 11.96
4/18/2022 7:30:00 PM 5.89 42.602 0.101 7.54 5.39 11.94
4/18/2022 7:45:00 PM 5.87 42.566 0.101 7.52 5.18 11.91
4/18/2022 8:00:00 PM 5.87 42.566 0.101 7.52 5.14 11.89
4/18/2022 8:15:00 PM 5.88 42.584 0.101 7.5 5.24 11.87
4/18/2022 8:30:00 PM 5.89 42.602 0.101 7.51 5.77 11.86
4/18/2022 8:45:00 PM 5.89 42.602 0.101 7.5 5.4 11.85
4/18/2022 9:00:00 PM 5.89 42.602 0.101 7.5 5.54 11.84
4/18/2022 9:15:00 PM 5.9 42.62 0.101 7.47 5.23 11.83
4/18/2022 9:30:00 PM 5.9 42.62 0.101 7.49 5.27 11.83
4/18/2022 9:45:00 PM 5.89 42.602 0.101 7.49 5.24 11.82
4/18/2022 10:00:00 PM 5.84 42.512 0.101 7.49 5.13 11.81
4/18/2022 10:15:00 PM 5.73 42.314 0.101 7.49 4.71 11.82
4/18/2022 10:30:00 PM 5.62 42.116 0.101 7.47 5.18 11.83
4/18/2022 10:45:00 PM 5.52 41.936 0.101 7.47 5.74 11.85
4/18/2022 11:00:00 PM 5.44 41.792 0.101 7.47 5.46 11.87
4/18/2022 11:15:00 PM 5.4 41.72 0.101 7.46 5.75 11.88
4/18/2022 11:30:00 PM 5.3 41.54 0.1 7.46 5.65 11.89
4/18/2022 11:45:00 PM 4.97 40.946 0.1 7.42 5.94 11.91
4/19/2022 12:00:00 AM 4.59 40.262 0.1 7.44 5.64 11.96
4/19/2022 12:15:00 AM 4.4 39.92 0.099 7.41 5.57 12.03
4/19/2022 12:30:00 AM 4.28 39.704 0.099 7.42 5.6 12.07
4/19/2022 12:45:00 AM 4.15 39.47 0.099 7.42 6.46 12.1
4/19/2022 1:00:00 AM 3.96 39.128 0.099 7.41 5.62 12.16
4/19/2022 1:15:00 AM 3.68 38.624 0.099 7.39 6.27 12.24
4/19/2022 1:30:00 AM 3.54 38.372 0.099 7.39 6.05 12.29
4/19/2022 1:45:00 AM 3.49 38.282 0.099 7.38 6.15 12.32
4/19/2022 2:00:00 AM 3.52 38.336 0.099 7.4 5.95 12.34
4/19/2022 2:15:00 AM 3.54 38.372 0.099 7.41 5.73 12.34
4/19/2022 2:30:00 AM 3.53 38.354 0.098 7.41 5.89 12.33
4/19/2022 2:45:00 AM 3.49 38.282 0.098 7.42 6.12 12.34
4/19/2022 3:00:00 AM 3.44 38.192 0.098 7.41 6.19 12.35
4/19/2022 3:15:00 AM 3.3 37.94 0.098 7.41 6.05 12.36
4/19/2022 3:30:00 AM 3.23 37.814 0.098 7.4 6.35 12.37
4/19/2022 3:45:00 AM 3.22 37.796 0.099 7.4 6.44 12.39
4/19/2022 4:00:00 AM 3.23 37.814 0.099 7.4 6.69 12.4
4/19/2022 4:15:00 AM 3.25 37.85 0.099 7.4 6.73 12.41
4/19/2022 4:30:00 AM 3.25 37.85 0.099 7.41 6.73 12.43
4/19/2022 4:45:00 AM 3.22 37.796 0.099 7.41 7.05 12.44
4/19/2022 5:00:00 AM 3.2 37.76 0.099 7.4 6.67 12.45
4/19/2022 5:15:00 AM 3.18 37.724 0.099 7.39 7.09 12.46
4/19/2022 5:30:00 AM 3.17 37.706 0.098 7.4 7.41 12.47
4/19/2022 5:45:00 AM 3.14 37.652 0.098 7.41 7.95 12.48
4/19/2022 6:00:00 AM 3.06 37.508 0.098 7.4 7.49 12.51
4/19/2022 6:15:00 AM 2.98 37.364 0.098 7.4 7.59 12.54
4/19/2022 6:30:00 AM 2.9 37.22 0.098 7.4 7.37 12.57
4/19/2022 6:45:00 AM 2.81 37.058 0.098 7.4 7.78 12.62
4/19/2022 7:00:00 AM 2.75 36.95 0.098 7.4 7.36 12.68
4/19/2022 7:15:00 AM 2.7 36.86 0.098 7.41 7.99 12.75
4/19/2022 7:30:00 AM 2.64 36.752 0.097 7.4 8.17 12.81
4/19/2022 7:45:00 AM 2.56 36.608 0.097 7.42 7.32 12.88
4/19/2022 8:00:00 AM 2.48 36.464 0.097 7.43 7.88 12.94
4/19/2022 8:15:00 AM 2.41 36.338 0.097 7.43 7.99 13.01
4/19/2022 8:30:00 AM 2.37 36.266 0.097 7.42 8.07 13.09
4/19/2022 8:45:00 AM 2.37 36.266 0.097 7.45 8.32 13.19
4/19/2022 9:00:00 AM 2.35 36.23 0.097 7.47 7.79 13.23
4/19/2022 9:15:00 AM 2.36 36.248 0.097 7.49 8.2 13.27
4/19/2022 9:30:00 AM 2.44 36.392 0.097 7.5 8.29 13.32
4/19/2022 9:45:00 AM 2.42 36.356 0.097 7.52 8.92 13.35
4/19/2022 10:00:00 AM 2.4 36.32 0.097 7.52 9.19 13.33
4/19/2022 10:15:00 AM 2.4 36.32 0.097 7.52 9.9 13.33
4/19/2022 10:30:00 AM 2.44 36.392 0.097 7.53 9.76 13.33
4/19/2022 10:45:00 AM 2.55 36.59 0.097 7.54 9.64 13.35
4/19/2022 11:00:00 AM 2.66 36.788 0.097 7.54 9.8 13.36
4/19/2022 11:15:00 AM 2.69 36.842 0.097 7.55 10.33 13.39
4/19/2022 11:30:00 AM 2.69 36.842 0.097 7.56 10.89 13.39
4/19/2022 11:45:00 AM 2.67 36.806 0.097 7.56 10.87 13.37
4/19/2022 12:00:00 PM 2.69 36.842 0.097 7.54 11.24 13.38
4/19/2022 12:15:00 PM 2.8 37.04 0.097 7.56 11.47 13.4
4/19/2022 12:30:00 PM 2.82 37.076 0.097 7.56 11.8 13.41
4/19/2022 12:45:00 PM 2.78 37.004 0.097 7.56 12.12 13.39
4/19/2022 1:00:00 PM 2.74 36.932 0.097 7.56 13.52 13.35
4/19/2022 1:15:00 PM 2.74 36.932 0.096 7.55 13.47 13.35
4/19/2022 1:30:00 PM 2.79 37.022 0.096 7.55 14.45 13.36
4/19/2022 1:45:00 PM 2.83 37.094 0.096 7.56 15.49 13.39
4/19/2022 2:00:00 PM 2.89 37.202 0.096 7.56 15.53 13.39
4/19/2022 2:15:00 PM 2.99 37.382 0.095 7.57 15.77 13.39
4/19/2022 2:30:00 PM 3.08 37.544 0.095 7.56 16.07 13.37
4/19/2022 2:45:00 PM 3.16 37.688 0.095 7.55 16.44 13.35
4/19/2022 3:00:00 PM 3.25 37.85 0.095 7.54 16.82 13.32
4/19/2022 3:15:00 PM 3.31 37.958 0.095 7.55 16.06 13.26
4/19/2022 3:30:00 PM 3.44 38.192 0.094 7.54 13.52 13.25
4/19/2022 3:45:00 PM 3.46 38.228 0.094 7.54 18.4 13.21
4/19/2022 4:00:00 PM 3.52 38.336 0.094 7.53 18.94 13.17
4/19/2022 4:15:00 PM 3.61 38.498 0.094 7.52 18.95 13.14
4/19/2022 4:30:00 PM 3.65 38.57 0.093 7.52 19.15 13.08
4/19/2022 4:45:00 PM 3.73 38.714 0.093 7.51 19.94 13.05
4/19/2022 5:00:00 PM 3.8 38.84 0.093 7.47 20.41 13
4/19/2022 5:15:00 PM 3.87 38.966 0.092 7.47 20.27 12.94
4/19/2022 5:30:00 PM 3.92 39.056 0.092 7.47 22 12.89
4/19/2022 5:45:00 PM 3.97 39.146 0.092 7.45 25.36 12.85
4/19/2022 6:00:00 PM 4.01 39.218 0.092 7.43 23.22 12.79
4/19/2022 6:15:00 PM 4.04 39.272 0.092 7.41 23.35 12.73
4/19/2022 6:30:00 PM 4.07 39.326 0.092 7.39 24.15 12.69
4/19/2022 6:45:00 PM 4.09 39.362 0.092 7.38 24.51 12.65
4/19/2022 7:00:00 PM 4.13 39.434 0.091 7.4 25.73 12.62
4/19/2022 7:15:00 PM 4.16 39.488 0.091 7.37 25.3 12.6
4/19/2022 7:30:00 PM 4.18 39.524 0.091 7.37 25.54 12.57
4/19/2022 7:45:00 PM 4.2 39.56 0.091 7.37 25.04 12.55
4/19/2022 8:00:00 PM 4.22 39.596 0.09 7.34 26.23 12.52
4/19/2022 8:15:00 PM 4.23 39.614 0.09 7.34 27.42 12.51
4/19/2022 8:30:00 PM 4.26 39.668 0.09 7.34 27.64 12.49
4/19/2022 8:45:00 PM 4.27 39.686 0.09 7.34 28.46 12.48
4/19/2022 9:00:00 PM 4.29 39.722 0.089 7.33 28.29 12.47
4/19/2022 9:15:00 PM 4.3 39.74 0.089 7.3 29.81 12.46
4/19/2022 9:30:00 PM 4.31 39.758 0.089 7.33 30.21 12.45
4/19/2022 9:45:00 PM 4.32 39.776 0.088 7.3 32.5 12.45
4/19/2022 10:00:00 PM 4.32 39.776 0.088 7.32 31.81 12.44
4/19/2022 10:15:00 PM 4.31 39.758 0.087 7.31 30.9 12.43
4/19/2022 10:30:00 PM 4.31 39.758 0.087 7.31 32.33 12.42
4/19/2022 10:45:00 PM 4.31 39.758 0.087 7.31 32.45 12.42
4/19/2022 11:00:00 PM 4.3 39.74 0.087 7.31 32.28 12.42
4/19/2022 11:15:00 PM 4.31 39.758 0.086 7.3 33.08 12.41
4/19/2022 11:30:00 PM 4.31 39.758 0.086 7.3 31.81 12.42
4/19/2022 11:45:00 PM 4.3 39.74 0.086 7.3 32.6 12.41
4/20/2022 12:00:00 AM 4.3 39.74 0.086 7.29 30.24 12.41
4/20/2022 12:15:00 AM 4.28 39.704 0.086 7.3 31.97 12.42
4/20/2022 12:30:00 AM 4.26 39.668 0.085 7.29 30.67 12.42
4/20/2022 12:45:00 AM 4.24 39.632 0.085 7.28 29.21 12.43
4/20/2022 1:00:00 AM 4.2 39.56 0.085 7.29 29.78 12.44
4/20/2022 1:15:00 AM 4.17 39.506 0.085 7.28 32.59 12.45
4/20/2022 1:30:00 AM 4.13 39.434 0.085 7.27 27.36 12.47
4/20/2022 1:45:00 AM 4.09 39.362 0.085 7.27 24.7 12.48
4/20/2022 2:00:00 AM 4.05 39.29 0.085 7.28 25.99 12.49
4/20/2022 2:15:00 AM 4 39.2 0.085 7.29 25.9 12.51
4/20/2022 2:30:00 AM 3.96 39.128 0.085 7.27 25.06 12.52
4/20/2022 2:45:00 AM 3.92 39.056 0.085 7.27 25.33 12.54
4/20/2022 3:00:00 AM 3.88 38.984 0.085 7.26 23.95 12.56
4/20/2022 3:15:00 AM 3.84 38.912 0.085 7.28 22.87 12.57
4/20/2022 3:30:00 AM 3.8 38.84 0.085 7.28 22.13 12.58
4/20/2022 3:45:00 AM 3.76 38.768 0.085 7.28 21.95 12.6
4/20/2022 4:00:00 AM 3.73 38.714 0.085 7.27 21.6 12.62
4/20/2022 4:15:00 AM 3.69 38.642 0.086 7.29 20.47 12.63
4/20/2022 4:30:00 AM 3.65 38.57 0.086 7.26 20.33 12.65
4/20/2022 4:45:00 AM 3.61 38.498 0.086 7.28 18.9 12.66
4/20/2022 5:00:00 AM 3.58 38.444 0.086 7.28 19.43 12.68
4/20/2022 5:15:00 AM 3.55 38.39 0.086 7.28 18.41 12.69
4/20/2022 5:30:00 AM 3.53 38.354 0.086 7.27 17.83 12.71
4/20/2022 5:45:00 AM 3.51 38.318 0.086 7.26 19.03 12.72
4/20/2022 6:00:00 AM 3.49 38.282 0.086 7.28 17.42 12.73
4/20/2022 6:15:00 AM 3.47 38.246 0.086 7.27 16.73 12.74
4/20/2022 6:30:00 AM 3.46 38.228 0.086 7.28 24.1 12.75
4/20/2022 6:45:00 AM 3.44 38.192 0.086 7.28 16.49 12.76
4/20/2022 7:00:00 AM 3.43 38.174 0.087 7.29 15.59 12.79
4/20/2022 7:15:00 AM 3.42 38.156 0.087 7.29 15.36 12.82
4/20/2022 7:30:00 AM 3.41 38.138 0.087 7.29 15.18 12.85
4/20/2022 7:45:00 AM 3.42 38.156 0.087 7.3 14.72 12.88
4/20/2022 8:00:00 AM 3.43 38.174 0.087 7.32 14.5 12.92
4/20/2022 8:15:00 AM 3.45 38.21 0.087 7.33 14.46 12.94
4/20/2022 8:30:00 AM 3.46 38.228 0.087 7.33 13.55 12.97
4/20/2022 8:45:00 AM 3.49 38.282 0.087 7.33 13.73 12.99
4/20/2022 9:00:00 AM 3.56 38.408 0.087 7.33 14.03 13.02
4/20/2022 9:15:00 AM 3.58 38.444 0.087 7.36 13.21 13.04
4/20/2022 9:30:00 AM 3.66 38.588 0.088 7.36 13.36 13.04
4/20/2022 9:45:00 AM 3.76 38.768 0.088 7.37 12.41 13.05
4/20/2022 10:00:00 AM 3.86 38.948 0.088 7.38 12.13 13.05
4/20/2022 10:15:00 AM 3.93 39.074 0.088 7.38 11.98 13.05
4/20/2022 10:30:00 AM 4.08 39.344 0.088 7.39 12.03 13.06
4/20/2022 10:45:00 AM 4.23 39.614 0.088 7.41 12.1 13.07
4/20/2022 11:00:00 AM 4.37 39.866 0.088 7.39 12.17 13.06
4/20/2022 11:15:00 AM 4.54 40.172 0.088 7.43 12.19 13.04
4/20/2022 11:30:00 AM 4.72 40.496 0.088 7.42 12 13.02
4/20/2022 11:45:00 AM 4.9 40.82 0.088 7.44 12.2 13
4/20/2022 12:00:00 PM 5.08 41.144 0.088 7.44 12.39 12.98
4/20/2022 12:15:00 PM 5.24 41.432 0.087 7.44 99.45 12.8
4/20/2022 12:30:00 PM 5.41 41.738 0.087 7.43 27.11 12.87
4/20/2022 12:45:00 PM 5.57 42.026 0.087 7.46 25.52 12.84
4/20/2022 1:00:00 PM 5.73 42.314 0.087 7.47 24.69 12.8
4/20/2022 1:15:00 PM 5.89 42.602 0.086 7.47 24.16 12.77
4/20/2022 1:30:00 PM 6.06 42.908 0.086 7.47 23.54 12.72
4/20/2022 1:45:00 PM 6.24 43.232 0.086 7.47 23.65 12.66
4/20/2022 2:00:00 PM 6.39 43.502 0.086 7.46 24.13 12.61
4/20/2022 2:15:00 PM 6.55 43.79 0.086 7.46 25.01 12.56
4/20/2022 2:30:00 PM 6.71 44.078 0.086 7.45 25.99 12.5
4/20/2022 2:45:00 PM 6.87 44.366 0.087 7.45 25.38 12.44
4/20/2022 3:00:00 PM 7.01 44.618 0.087 7.45 24.24 12.38
4/20/2022 3:15:00 PM 7.17 44.906 0.088 7.44 24.7 12.32
4/20/2022 3:30:00 PM 7.32 45.176 0.088 7.43 24.39 12.26
4/20/2022 3:45:00 PM 7.47 45.446 0.088 7.42 24.21 12.19
4/20/2022 4:00:00 PM 7.61 45.698 0.088 7.41 23.76 12.12
4/20/2022 4:15:00 PM 7.77 45.986 0.088 7.38 24.32 12.04
4/20/2022 4:30:00 PM 7.95 46.31 0.088 7.37 27.47 11.95
4/20/2022 4:45:00 PM 8.11 46.598 0.088 7.38 31.28 11.85
4/20/2022 5:00:00 PM 8.27 46.886 0.088 7.36 34.36 11.77
4/20/2022 5:15:00 PM 8.42 47.156 0.088 7.34 39.22 11.68
4/20/2022 5:30:00 PM 8.52 47.336 0.087 7.32 48.32 11.6
4/20/2022 5:45:00 PM 8.63 47.534 0.086 7.32 50.92 11.53
4/20/2022 6:00:00 PM 8.78 47.804 0.085 7.31 64.24 11.44
4/20/2022 6:15:00 PM 8.94 48.092 0.084 7.31 71.87 11.35
4/20/2022 6:30:00 PM 9.08 48.344 0.082 7.27 80.01 11.29
4/20/2022 6:45:00 PM 9.21 48.578 0.081 7.28 85.22 11.23
4/20/2022 7:00:00 PM 9.31 48.758 0.079 7.25 96.86 11.17
4/20/2022 7:15:00 PM 9.39 48.902 0.078 7.26 103.03 11.13
4/20/2022 7:30:00 PM 9.45 49.01 0.077 7.25 103.43 11.1
4/20/2022 7:45:00 PM 9.49 49.082 0.076 7.23 103.47 11.07
4/20/2022 8:00:00 PM 9.51 49.118 0.075 7.2 104.01 11.05
4/20/2022 8:15:00 PM 9.52 49.136 0.075 7.23 102.06 11.04
4/20/2022 8:30:00 PM 9.53 49.154 0.074 7.23 102.05 11.03
4/20/2022 8:45:00 PM 9.52 49.136 0.074 7.21 98.94 11.02
4/20/2022 9:00:00 PM 9.49 49.082 0.073 7.22 97.17 11.02
4/20/2022 9:15:00 PM 9.44 48.992 0.073 7.2 96.28 11.03
4/20/2022 9:30:00 PM 9.38 48.884 0.072 7.21 91.79 11.04
4/20/2022 9:45:00 PM 9.31 48.758 0.072 7.19 93.77 11.05
4/20/2022 10:00:00 PM 9.23 48.614 0.071 7.2 90.43 11.06
4/20/2022 10:15:00 PM 9.14 48.452 0.071 7.19 85.97 11.08
4/20/2022 10:30:00 PM 9.05 48.29 0.071 7.2 81.61 11.1
4/20/2022 10:45:00 PM 8.96 48.128 0.071 7.19 78.82 11.13
4/20/2022 11:00:00 PM 8.86 47.948 0.071 7.18 76.16 11.15
4/20/2022 11:15:00 PM 8.75 47.75 0.071 7.18 71.32 11.17
4/20/2022 11:30:00 PM 8.64 47.552 0.071 7.18 69.1 11.19
4/20/2022 11:45:00 PM 8.53 47.354 0.071 7.18 85.39 11.22
4/21/2022 12:00:00 AM 8.42 47.156 0.072 7.18 63.84 11.25
4/21/2022 12:15:00 AM 8.31 46.958 0.072 7.18 60.79 11.27
4/21/2022 12:30:00 AM 8.2 46.76 0.072 7.16 58.92 11.3
4/21/2022 12:45:00 AM 8.11 46.598 0.072 7.15 55.62 11.32
4/21/2022 1:00:00 AM 8.01 46.418 0.072 7.17 52.66 11.35
4/21/2022 1:15:00 AM 7.93 46.274 0.073 7.16 50.34 11.38
4/21/2022 1:30:00 AM 7.84 46.112 0.073 7.16 48.06 11.4
4/21/2022 1:45:00 AM 7.76 45.968 0.073 7.17 45.75 11.41
4/21/2022 2:00:00 AM 7.68 45.824 0.073 7.16 45.14 11.43
4/21/2022 2:15:00 AM 7.59 45.662 0.073 7.16 43.65 11.47
4/21/2022 2:30:00 AM 7.49 45.482 0.074 7.14 41.3 11.5
4/21/2022 2:45:00 AM 7.4 45.32 0.074 7.15 39.9 11.52
4/21/2022 3:00:00 AM 7.3 45.14 0.074 7.15 39.22 11.54
4/21/2022 3:15:00 AM 7.21 44.978 0.074 7.16 37.15 11.56
4/21/2022 3:30:00 AM 7.13 44.834 0.075 7.16 36.12 11.59
4/21/2022 3:45:00 AM 7.05 44.69 0.075 7.16 35.78 11.61
4/21/2022 4:00:00 AM 6.96 44.528 0.075 7.15 32.57 11.64
4/21/2022 4:15:00 AM 6.88 44.384 0.075 7.17 31.99 11.67
4/21/2022 4:30:00 AM 6.81 44.258 0.076 7.17 31.3 11.69
4/21/2022 4:45:00 AM 6.74 44.132 0.076 7.16 30.38 11.71
4/21/2022 5:00:00 AM 6.67 44.006 0.076 7.17 29.44 11.73
4/21/2022 5:15:00 AM 6.62 43.916 0.076 7.18 29.47 11.75
4/21/2022 5:30:00 AM 6.56 43.808 0.076 7.17 27.59 11.77
4/21/2022 5:45:00 AM 6.51 43.718 0.077 7.18 26.59 11.79
4/21/2022 6:00:00 AM 6.46 43.628 0.077 7.17 26.07 11.81
4/21/2022 6:15:00 AM 6.41 43.538 0.077 7.19 25.33 11.83
4/21/2022 6:30:00 AM 6.36 43.448 0.077 7.19 24.59 11.84
4/21/2022 6:45:00 AM 6.31 43.358 0.077 7.2 24.76 11.87
4/21/2022 7:00:00 AM 6.26 43.268 0.078 7.19 24.08 11.89
4/21/2022 7:15:00 AM 6.22 43.196 0.078 7.21 22.55 11.93
4/21/2022 7:30:00 AM 6.18 43.124 0.078 7.21 22.29 11.95
4/21/2022 7:45:00 AM 6.16 43.088 0.078 7.22 22.95 11.97
4/21/2022 8:00:00 AM 6.14 43.052 0.078 7.22 22.46 12.01
4/21/2022 8:15:00 AM 6.14 43.052 0.078 7.23 21.12 12.04
4/21/2022 8:30:00 AM 6.16 43.088 0.078 7.24 20.69 12.07
4/21/2022 8:45:00 AM 6.21 43.178 0.079 7.25 20.23 12.11
4/21/2022 9:00:00 AM 6.22 43.196 0.079 7.26 20.09 12.12
4/21/2022 9:15:00 AM 6.21 43.178 0.079 7.26 19.05 12.11
4/21/2022 9:30:00 AM 6.22 43.196 0.079 7.28 19.34 12.13
4/21/2022 9:45:00 AM 6.22 43.196 0.079 7.27 17.58 12.12
4/21/2022 10:00:00 AM 6.21 43.178 0.079 7.27 17.06 12.11
4/21/2022 10:15:00 AM 6.19 43.142 0.079 7.27 16.66 12.1
4/21/2022 10:30:00 AM 6.2 43.16 0.08 7.28 16.5 12.13
4/21/2022 10:45:00 AM 6.22 43.196 0.08 7.28 16 12.17
4/21/2022 11:00:00 AM 6.27 43.286 0.08 7.3 16.41 12.2
4/21/2022 11:15:00 AM 6.31 43.358 0.08 7.31 16.24 12.2
4/21/2022 11:30:00 AM 6.37 43.466 0.08 7.33 15.15 12.21
4/21/2022 11:45:00 AM 6.39 43.502 0.08 7.33 14.75 12.2
4/21/2022 12:00:00 PM 6.41 43.538 0.08 7.31 14.73 12.18
4/21/2022 12:15:00 PM 6.43 43.574 0.08 7.34 14.36 12.15
4/21/2022 12:30:00 PM 6.47 43.646 0.08 7.34 14.12 12.15
4/21/2022 12:45:00 PM 6.5 43.7 0.08 7.34 14.1 12.13
4/21/2022 1:00:00 PM 6.53 43.754 0.08 7.34 14.03 12.11
4/21/2022 1:15:00 PM 6.59 43.862 0.081 7.34 13.34 12.11
4/21/2022 1:30:00 PM 6.63 43.934 0.081 7.35 13.95 12.11
4/21/2022 1:45:00 PM 6.67 44.006 0.081 7.35 13.7 12.07
4/21/2022 2:00:00 PM 6.72 44.096 0.081 7.36 12.95 12.08
4/21/2022 2:15:00 PM 6.79 44.222 0.081 7.37 13.12 12.1
4/21/2022 2:30:00 PM 6.83 44.294 0.081 7.35 12.96 12.09
4/21/2022 2:45:00 PM 6.87 44.366 0.081 7.38 12.45 12.07
4/21/2022 3:00:00 PM 6.9 44.42 0.08 7.38 12.04 12.04
4/21/2022 3:15:00 PM 6.94 44.492 0.08 7.37 12.07 11.99
4/21/2022 3:30:00 PM 6.97 44.546 0.08 7.37 12.05 11.96
4/21/2022 3:45:00 PM 7.04 44.672 0.08 7.34 11.73 11.95
4/21/2022 4:00:00 PM 7.11 44.798 0.08 7.37 12.36 11.97
4/21/2022 4:15:00 PM 7.18 44.924 0.08 7.39 11.58 11.96
4/21/2022 4:30:00 PM 7.26 45.068 0.08 7.4 11.89 11.95
4/21/2022 4:45:00 PM 7.31 45.158 0.08 7.38 11.55 11.91
4/21/2022 5:00:00 PM 7.39 45.302 0.08 7.4 11.63 11.9
4/21/2022 5:15:00 PM 7.46 45.428 0.08 7.39 11.81 11.89
4/21/2022 5:30:00 PM 7.52 45.536 0.08 7.39 12.14 11.84
4/21/2022 5:45:00 PM 7.56 45.608 0.08 7.38 12.08 11.79
4/21/2022 6:00:00 PM 7.59 45.662 0.08 7.37 12.29 11.72
4/21/2022 6:15:00 PM 7.64 45.752 0.08 7.37 11.93 11.7
4/21/2022 6:30:00 PM 7.68 45.824 0.08 7.37 11.49 11.68
4/21/2022 6:45:00 PM 7.73 45.914 0.08 7.37 12.13 11.68
4/21/2022 7:00:00 PM 7.77 45.986 0.08 7.37 11.91 11.67
4/21/2022 7:15:00 PM 7.81 46.058 0.08 7.37 11.97 11.63
4/21/2022 7:30:00 PM 7.85 46.13 0.081 7.35 12.58 11.58
4/21/2022 7:45:00 PM 7.87 46.166 0.081 7.35 13 11.54
4/21/2022 8:00:00 PM 7.9 46.22 0.081 7.33 12.85 11.5
4/21/2022 8:15:00 PM 7.93 46.274 0.081 7.35 13.12 11.48
4/21/2022 8:30:00 PM 7.98 46.364 0.081 7.33 13.96 11.46
4/21/2022 8:45:00 PM 8.01 46.418 0.081 7.31 13.46 11.44
4/21/2022 9:00:00 PM 8.03 46.454 0.081 7.33 13.13 11.43
4/21/2022 9:15:00 PM 8.04 46.472 0.081 7.32 13.29 11.42
4/21/2022 9:30:00 PM 8.04 46.472 0.081 7.32 13.37 11.41
4/21/2022 9:45:00 PM 8.04 46.472 0.081 7.32 13.74 11.41
4/21/2022 10:00:00 PM 8.04 46.472 0.081 7.31 13.57 11.4
4/21/2022 10:15:00 PM 8.04 46.472 0.081 7.3 13.81 11.4
4/21/2022 10:30:00 PM 8.03 46.454 0.08 7.32 13.48 11.4
4/21/2022 10:45:00 PM 8.01 46.418 0.08 7.27 13.78 11.4
4/21/2022 11:00:00 PM 8 46.4 0.08 7.3 13.47 11.39
4/21/2022 11:15:00 PM 7.98 46.364 0.08 7.31 13.58 11.39
4/21/2022 11:30:00 PM 7.97 46.346 0.08 7.3 13.73 11.39
4/21/2022 11:45:00 PM 7.95 46.31 0.08 7.29 13.79 11.39
4/22/2022 12:00:00 AM 7.93 46.274 0.08 7.29 13.87 11.39
4/22/2022 12:15:00 AM 7.91 46.238 0.08 7.27 13.92 11.39
4/22/2022 12:30:00 AM 7.88 46.184 0.08 7.29 13.48 11.4
4/22/2022 12:45:00 AM 7.86 46.148 0.08 7.29 14.06 11.4
4/22/2022 1:00:00 AM 7.83 46.094 0.08 7.28 14.37 11.4
4/22/2022 1:15:00 AM 7.8 46.04 0.08 7.28 14.18 11.41
4/22/2022 1:30:00 AM 7.78 46.004 0.08 7.27 13.93 11.42
4/22/2022 1:45:00 AM 7.75 45.95 0.08 7.28 14.27 11.41
4/22/2022 2:00:00 AM 7.71 45.878 0.08 7.28 13.86 11.42
4/22/2022 2:15:00 AM 7.68 45.824 0.08 7.27 13.8 11.42
4/22/2022 2:30:00 AM 7.64 45.752 0.08 7.27 14.08 11.43
4/22/2022 2:45:00 AM 7.61 45.698 0.08 7.26 13.7 11.43
4/22/2022 3:00:00 AM 7.57 45.626 0.08 7.26 13.79 11.45
4/22/2022 3:15:00 AM 7.54 45.572 0.08 7.27 14.08 11.46
4/22/2022 3:30:00 AM 7.51 45.518 0.08 7.27 13.63 11.46
4/22/2022 3:45:00 AM 7.48 45.464 0.08 7.26 14.03 11.48
4/22/2022 4:00:00 AM 7.44 45.392 0.08 7.24 13.82 11.49
4/22/2022 4:15:00 AM 7.41 45.338 0.081 7.27 13.85 11.5
4/22/2022 4:30:00 AM 7.37 45.266 0.081 7.27 13.73 11.51
4/22/2022 4:45:00 AM 7.34 45.212 0.081 7.26 13.2 11.52
4/22/2022 5:00:00 AM 7.32 45.176 0.081 7.27 13.85 11.52
4/22/2022 5:15:00 AM 7.32 45.176 0.081 7.27 13.1 11.53
4/22/2022 5:30:00 AM 7.31 45.158 0.081 7.26 13.46 11.54
4/22/2022 5:45:00 AM 7.29 45.122 0.081 7.27 12.92 11.55
4/22/2022 6:00:00 AM 7.26 45.068 0.081 7.27 12.5 11.57
4/22/2022 6:15:00 AM 7.23 45.014 0.081 7.28 13.27 11.58
4/22/2022 6:30:00 AM 7.2 44.96 0.082 7.27 13.11 11.6
4/22/2022 6:45:00 AM 7.17 44.906 0.082 7.28 13.57 11.62
4/22/2022 7:00:00 AM 7.13 44.834 0.082 7.27 13.61 11.65
4/22/2022 7:15:00 AM 7.09 44.762 0.082 7.28 13.35 11.68
4/22/2022 7:30:00 AM 7.05 44.69 0.082 7.3 13.11 11.71
4/22/2022 7:45:00 AM 7.03 44.654 0.082 7.29 12.87 11.73
4/22/2022 8:00:00 AM 7 44.6 0.082 7.3 12.33 11.76
4/22/2022 8:15:00 AM 6.99 44.582 0.082 7.31 12.32 11.8
4/22/2022 8:30:00 AM 6.99 44.582 0.082 7.32 11.93 11.84
4/22/2022 8:45:00 AM 7.01 44.618 0.082 7.34 11.6 11.89
4/22/2022 9:00:00 AM 7.05 44.69 0.082 7.36 11.35 11.93
4/22/2022 9:15:00 AM 7.09 44.762 0.082 7.37 10.97 11.97
4/22/2022 9:30:00 AM 7.15 44.87 0.082 7.38 10.67 12
4/22/2022 9:45:00 AM 7.23 45.014 0.082 7.4 10.92 12.03
4/22/2022 10:00:00 AM 7.32 45.176 0.082 7.4 10.79 12.05
4/22/2022 10:15:00 AM 7.43 45.374 0.082 7.41 10.54 12.06
4/22/2022 10:30:00 AM 7.54 45.572 0.082 7.44 10.54 12.07
4/22/2022 10:45:00 AM 7.67 45.806 0.082 7.45 10.62 12.07
4/22/2022 11:00:00 AM 7.8 46.04 0.082 7.47 10.55 12.07
4/22/2022 11:15:00 AM 7.95 46.31 0.082 7.48 10.41 12.07
4/22/2022 11:30:00 AM 8.09 46.562 0.082 7.49 10.62 12.06
4/22/2022 11:45:00 AM 8.24 46.832 0.082 7.5 10.79 12.05
4/22/2022 12:00:00 PM 8.39 47.102 0.082 7.51 11.07 12.04
4/22/2022 12:15:00 PM 8.53 47.354 0.082 7.52 10.36 12.02
4/22/2022 12:30:00 PM 8.67 47.606 0.082 7.55 10.35 12.01
4/22/2022 12:45:00 PM 8.81 47.858 0.083 7.56 10.09 11.99
4/22/2022 1:00:00 PM 8.94 48.092 0.083 7.57 10.41 11.98
4/22/2022 1:15:00 PM 9.07 48.326 0.083 7.58 10.3 11.95
4/22/2022 1:30:00 PM 9.2 48.56 0.083 7.6 9.84 11.93
4/22/2022 1:45:00 PM 9.32 48.776 0.083 7.6 10.22 11.91
4/22/2022 2:00:00 PM 9.46 49.028 0.083 7.61 9.77 11.88
4/22/2022 2:15:00 PM 9.57 49.226 0.083 7.63 9.92 11.85
4/22/2022 2:30:00 PM 9.69 49.442 0.083 7.63 9.86 11.82
4/22/2022 2:45:00 PM 9.81 49.658 0.082 7.64 9.46 11.78
4/22/2022 3:00:00 PM 9.92 49.856 0.082 7.64 9.9 11.74
4/22/2022 3:15:00 PM 10.03 50.054 0.082 7.65 9.93 11.7
4/22/2022 3:30:00 PM 10.14 50.252 0.082 7.65 9.86 11.67
4/22/2022 3:45:00 PM 10.24 50.432 0.082 7.65 9.25 11.62
4/22/2022 4:00:00 PM 10.33 50.594 0.082 7.65 9.16 11.58
4/22/2022 4:15:00 PM 10.43 50.774 0.082 7.65 9.55 11.54
4/22/2022 4:30:00 PM 10.52 50.936 0.082 7.65 9.1 11.49
4/22/2022 4:45:00 PM 10.61 51.098 0.082 7.64 9.33 11.44
4/22/2022 5:00:00 PM 10.68 51.224 0.082 7.64 9.63 11.39
4/22/2022 5:15:00 PM 10.76 51.368 0.082 7.64 9.67 11.35
4/22/2022 5:30:00 PM 10.85 51.53 0.082 7.62 9.28 11.31
4/22/2022 5:45:00 PM 10.91 51.638 0.082 7.62 9.21 11.26
4/22/2022 6:00:00 PM 10.95 51.71 0.082 7.6 9.22 11.18
4/22/2022 6:15:00 PM 11.01 51.818 0.082 7.58 8.79 11.11
4/22/2022 6:30:00 PM 11.08 51.944 0.082 7.56 9.04 11.06
4/22/2022 6:45:00 PM 11.14 52.052 0.082 7.54 9.42 11
4/22/2022 7:00:00 PM 11.19 52.142 0.082 7.53 9.33 10.94
4/22/2022 7:15:00 PM 11.23 52.214 0.082 7.5 9.44 10.87
4/22/2022 7:30:00 PM 11.27 52.286 0.082 7.48 9.03 10.8
4/22/2022 7:45:00 PM 11.28 52.304 0.082 7.46 9.13 10.74
4/22/2022 8:00:00 PM 11.3 52.34 0.082 7.44 9.33 10.69
4/22/2022 8:15:00 PM 11.3 52.34 0.082 7.42 9.22 10.65
4/22/2022 8:30:00 PM 11.3 52.34 0.082 7.41 9.67 10.62
4/22/2022 8:45:00 PM 11.3 52.34 0.082 7.4 9.86 10.6
4/22/2022 9:00:00 PM 11.31 52.358 0.082 7.4 9.41 10.59
4/22/2022 9:15:00 PM 11.31 52.358 0.082 7.36 9.6 10.57
4/22/2022 9:30:00 PM 11.3 52.34 0.082 7.38 9.95 10.57
4/22/2022 9:45:00 PM 11.29 52.322 0.082 7.38 9.73 10.55
4/22/2022 10:00:00 PM 11.29 52.322 0.082 7.38 9.62 10.54
4/22/2022 10:15:00 PM 11.28 52.304 0.082 7.34 9.59 10.54
4/22/2022 10:30:00 PM 11.26 52.268 0.082 7.38 9.76 10.53
4/22/2022 10:45:00 PM 11.24 52.232 0.082 7.36 10.1 10.52
4/22/2022 11:00:00 PM 11.22 52.196 0.082 7.36 9.72 10.52
4/22/2022 11:15:00 PM 11.2 52.16 0.082 7.35 9.87 10.52
4/22/2022 11:30:00 PM 11.17 52.106 0.082 7.35 9.45 10.52
4/22/2022 11:45:00 PM 11.14 52.052 0.082 7.35 9.58 10.52
4/23/2022 12:00:00 AM 11.1 51.98 0.082 7.35 9.78 10.52
4/23/2022 12:15:00 AM 11.07 51.926 0.082 7.34 9.72 10.52
4/23/2022 12:30:00 AM 11.03 51.854 0.082 7.31 9.41 10.52
4/23/2022 12:45:00 AM 11 51.8 0.082 7.34 9.26 10.52
4/23/2022 1:00:00 AM 10.97 51.746 0.082 7.33 9.32 10.52
4/23/2022 1:15:00 AM 10.93 51.674 0.083 7.33 9.67 10.52
4/23/2022 1:30:00 AM 10.91 51.638 0.083 7.33 9.32 10.52
4/23/2022 1:45:00 AM 10.88 51.584 0.083 7.32 9.52 10.52
4/23/2022 2:00:00 AM 10.85 51.53 0.083 7.32 9.54 10.52
4/23/2022 2:15:00 AM 10.82 51.476 0.083 7.32 9.6 10.53
4/23/2022 2:30:00 AM 10.78 51.404 0.083 7.31 9.52 10.53
4/23/2022 2:45:00 AM 10.74 51.332 0.083 7.31 9.39 10.54
4/23/2022 3:00:00 AM 10.69 51.242 0.083 7.3 9.35 10.55
4/23/2022 3:15:00 AM 10.64 51.152 0.083 7.32 9.55 10.56
4/23/2022 3:30:00 AM 10.59 51.062 0.084 7.32 9.47 10.57
4/23/2022 3:45:00 AM 10.53 50.954 0.084 7.31 9.9 10.58
4/23/2022 4:00:00 AM 10.46 50.828 0.084 7.32 8.88 10.6
4/23/2022 4:15:00 AM 10.39 50.702 0.084 7.31 9.14 10.61
4/23/2022 4:30:00 AM 10.32 50.576 0.084 7.31 9.05 10.64
4/23/2022 4:45:00 AM 10.25 50.45 0.084 7.28 8.85 10.66
4/23/2022 5:00:00 AM 10.17 50.306 0.084 7.31 8.84 10.67
4/23/2022 5:15:00 AM 10.09 50.162 0.085 7.31 9.21 10.69
4/23/2022 5:30:00 AM 10.02 50.036 0.085 7.31 8.78 10.71
4/23/2022 5:45:00 AM 9.94 49.892 0.085 7.3 9.04 10.73
4/23/2022 6:00:00 AM 9.86 49.748 0.085 7.31 9.04 10.77
4/23/2022 6:15:00 AM 9.79 49.622 0.085 7.31 9.47 10.78
4/23/2022 6:30:00 AM 9.71 49.478 0.085 7.29 9.01 10.81
4/23/2022 6:45:00 AM 9.64 49.352 0.085 7.32 8.85 10.84
4/23/2022 7:00:00 AM 9.58 49.244 0.086 7.32 8.72 10.87
4/23/2022 7:15:00 AM 9.51 49.118 0.086 7.33 8.61 10.91
4/23/2022 7:30:00 AM 9.45 49.01 0.086 7.34 8.45 10.99
4/23/2022 7:45:00 AM 9.42 48.956 0.086 7.36 8.51 11.11
4/23/2022 8:00:00 AM 9.38 48.884 0.086 7.38 7.97 11.17
4/23/2022 8:15:00 AM 9.32 48.776 0.086 7.36 8.23 11.19
4/23/2022 8:30:00 AM 9.29 48.722 0.086 7.39 8 11.25
4/23/2022 8:45:00 AM 9.26 48.668 0.086 7.43 8.36 11.33
4/23/2022 9:00:00 AM 9.23 48.614 0.086 7.44 7.92 11.4
4/23/2022 9:15:00 AM 9.2 48.56 0.086 7.46 7.94 11.44
4/23/2022 9:30:00 AM 9.18 48.524 0.087 7.49 7.66 11.5
4/23/2022 9:45:00 AM 9.17 48.506 0.087 7.51 7.92 11.56
4/23/2022 10:00:00 AM 9.22 48.596 0.087 7.52 7.34 11.64
4/23/2022 10:15:00 AM 9.21 48.578 0.087 7.56 7.5 11.66
4/23/2022 10:30:00 AM 9.19 48.542 0.087 7.58 7.49 11.68
4/23/2022 10:45:00 AM 9.22 48.596 0.087 7.6 7.5 11.73
4/23/2022 11:00:00 AM 9.23 48.614 0.087 7.62 7.38 11.76
4/23/2022 11:15:00 AM 9.29 48.722 0.087 7.65 7.29 11.79
4/23/2022 11:30:00 AM 9.38 48.884 0.087 7.67 7.21 11.83
4/23/2022 11:45:00 AM 9.49 49.082 0.087 7.71 7 11.86
4/23/2022 12:00:00 PM 9.57 49.226 0.087 7.73 7.32 11.86
4/23/2022 12:15:00 PM 9.67 49.406 0.087 7.76 7.03 11.86
4/23/2022 12:30:00 PM 9.85 49.73 0.087 7.79 7.02 11.87
4/23/2022 12:45:00 PM 9.95 49.91 0.087 7.81 6.76 11.85
4/23/2022 1:00:00 PM 10.13 50.234 0.087 7.82 7.23 11.83
4/23/2022 1:15:00 PM 10.33 50.594 0.087 7.84 6.71 11.81
4/23/2022 1:30:00 PM 10.34 50.612 0.087 7.82 6.86 11.76
4/23/2022 1:45:00 PM 10.42 50.756 0.087 7.85 6.61 11.76
4/23/2022 2:00:00 PM 10.41 50.738 0.087 7.87 6.7 11.74
4/23/2022 2:15:00 PM 10.44 50.792 0.087 7.87 6.81 11.72
4/23/2022 2:30:00 PM 10.35 50.63 0.087 7.82 6.98 11.63
4/23/2022 2:45:00 PM 10.34 50.612 0.087 7.82 6.83 11.61
4/23/2022 3:00:00 PM 10.33 50.594 0.087 7.78 6.51 11.55
4/23/2022 3:15:00 PM 10.31 50.558 0.087 7.75 6.6 11.46
4/23/2022 3:30:00 PM 10.31 50.558 0.087 7.73 6.56 11.43
4/23/2022 3:45:00 PM 10.29 50.522 0.088 7.68 6.52 11.34
4/23/2022 4:00:00 PM 10.28 50.504 0.088 7.65 6.78 11.24
4/23/2022 4:15:00 PM 10.29 50.522 0.088 7.61 6.28 11.19
4/23/2022 4:30:00 PM 10.33 50.594 0.088 7.61 6.65 11.19
4/23/2022 4:45:00 PM 10.38 50.684 0.088 7.61 6.7 11.22
4/23/2022 5:00:00 PM 10.46 50.828 0.087 7.64 6.74 11.28
4/23/2022 5:15:00 PM 10.56 51.008 0.087 7.69 6.71 11.34
4/23/2022 5:30:00 PM 10.65 51.17 0.087 7.71 6.49 11.35
4/23/2022 5:45:00 PM 10.7 51.26 0.087 7.72 6.47 11.32
4/23/2022 6:00:00 PM 10.72 51.296 0.087 7.7 6.7 11.25
4/23/2022 6:15:00 PM 10.76 51.368 0.087 7.69 6.39 11.23
4/23/2022 6:30:00 PM 10.82 51.476 0.087 7.7 6.49 11.21
4/23/2022 6:45:00 PM 10.84 51.512 0.087 7.68 6.71 11.15
4/23/2022 7:00:00 PM 10.86 51.548 0.087 7.64 6.61 11.03
4/23/2022 7:15:00 PM 10.88 51.584 0.087 7.61 6.57 10.94
4/23/2022 7:30:00 PM 10.89 51.602 0.087 7.57 6.61 10.86
4/23/2022 7:45:00 PM 10.91 51.638 0.087 7.54 6.65 10.78
4/23/2022 8:00:00 PM 10.91 51.638 0.087 7.5 6.56 10.72
4/23/2022 8:15:00 PM 10.9 51.62 0.087 7.46 6.57 10.66
4/23/2022 8:30:00 PM 10.91 51.638 0.087 7.46 6.81 10.63
4/23/2022 8:45:00 PM 10.92 51.656 0.087 7.44 6.8 10.61
4/23/2022 9:00:00 PM 10.9 51.62 0.087 7.44 7.02 10.6
4/23/2022 9:15:00 PM 10.88 51.584 0.087 7.43 6.93 10.59
4/23/2022 9:30:00 PM 10.86 51.548 0.087 7.42 6.77 10.58
4/23/2022 9:45:00 PM 10.83 51.494 0.087 7.42 6.85 10.58
4/23/2022 10:00:00 PM 10.8 51.44 0.087 7.41 7.37 10.58
4/23/2022 10:15:00 PM 10.77 51.386 0.087 7.41 7.09 10.57
4/23/2022 10:30:00 PM 10.75 51.35 0.087 7.4 6.92 10.57
4/23/2022 10:45:00 PM 10.73 51.314 0.087 7.39 6.8 10.57
4/23/2022 11:00:00 PM 10.71 51.278 0.087 7.39 6.81 10.56
4/23/2022 11:15:00 PM 10.7 51.26 0.087 7.39 7.16 10.56
4/23/2022 11:30:00 PM 10.69 51.242 0.087 7.39 6.91 10.55
4/23/2022 11:45:00 PM 10.69 51.242 0.086 7.37 7 10.54
4/24/2022 12:00:00 AM 10.69 51.242 0.086 7.36 6.93 10.54
4/24/2022 12:15:00 AM 10.69 51.242 0.086 7.38 6.87 10.53
4/24/2022 12:30:00 AM 10.69 51.242 0.086 7.37 7.08 10.52
4/24/2022 12:45:00 AM 10.69 51.242 0.086 7.37 7.17 10.51
4/24/2022 1:00:00 AM 10.68 51.224 0.087 7.37 7.04 10.51
4/24/2022 1:15:00 AM 10.67 51.206 0.087 7.36 7.08 10.5
4/24/2022 1:30:00 AM 10.66 51.188 0.087 7.36 7.09 10.5
4/24/2022 1:45:00 AM 10.63 51.134 0.087 7.36 6.92 10.5
4/24/2022 2:00:00 AM 10.6 51.08 0.087 7.36 7.18 10.5
4/24/2022 2:15:00 AM 10.57 51.026 0.087 7.32 7.24 10.5
4/24/2022 2:30:00 AM 10.54 50.972 0.087 7.35 7.05 10.5
4/24/2022 2:45:00 AM 10.5 50.9 0.087 7.35 7.13 10.51
4/24/2022 3:00:00 AM 10.45 50.81 0.087 7.34 7.61 10.51
4/24/2022 3:15:00 AM 10.4 50.72 0.087 7.35 7.43 10.51
4/24/2022 3:30:00 AM 10.35 50.63 0.087 7.33 7.32 10.52
4/24/2022 3:45:00 AM 10.31 50.558 0.087 7.34 6.95 10.53
4/24/2022 4:00:00 AM 10.25 50.45 0.087 7.34 6.98 10.55
4/24/2022 4:15:00 AM 10.2 50.36 0.088 7.33 7.11 10.56
4/24/2022 4:30:00 AM 10.14 50.252 0.088 7.33 6.65 10.58
4/24/2022 4:45:00 AM 10.09 50.162 0.088 7.33 6.78 10.59
4/24/2022 5:00:00 AM 10.03 50.054 0.088 7.32 6.72 10.59
4/24/2022 5:15:00 AM 9.98 49.964 0.088 7.33 6.84 10.61
4/24/2022 5:30:00 AM 9.92 49.856 0.088 7.33 6.78 10.63
4/24/2022 5:45:00 AM 9.87 49.766 0.088 7.33 6.43 10.64
4/24/2022 6:00:00 AM 9.83 49.694 0.088 7.33 6.68 10.65
4/24/2022 6:15:00 AM 9.78 49.604 0.088 7.33 6.48 10.67
4/24/2022 6:30:00 AM 9.74 49.532 0.088 7.33 6.31 10.71
4/24/2022 6:45:00 AM 9.7 49.46 0.088 7.34 6.48 10.76
4/24/2022 7:00:00 AM 9.66 49.388 0.088 7.35 6.75 10.8
4/24/2022 7:15:00 AM 9.62 49.316 0.089 7.36 6.49 10.86
4/24/2022 7:30:00 AM 9.59 49.262 0.089 7.37 6.35 10.92
4/24/2022 7:45:00 AM 9.57 49.226 0.089 7.38 6.19 11
4/24/2022 8:00:00 AM 9.56 49.208 0.089 7.41 6.53 11.09
4/24/2022 8:15:00 AM 9.56 49.208 0.089 7.45 6.09 11.16
4/24/2022 8:30:00 AM 9.57 49.226 0.089 7.46 5.83 11.24
4/24/2022 8:45:00 AM 9.61 49.298 0.089 7.5 6.04 11.32
4/24/2022 9:00:00 AM 9.65 49.37 0.089 7.54 5.9 11.4
4/24/2022 9:15:00 AM 9.67 49.406 0.089 7.53 5.63 11.44
4/24/2022 9:30:00 AM 9.77 49.586 0.089 7.6 5.81 11.5
4/24/2022 9:45:00 AM 9.83 49.694 0.089 7.62 5.81 11.54
4/24/2022 10:00:00 AM 9.93 49.874 0.09 7.66 6.51 11.58
4/24/2022 10:15:00 AM 10.03 50.054 0.09 7.7 5.6 11.61
4/24/2022 10:30:00 AM 10.09 50.162 0.09 7.72 5.7 11.63
4/24/2022 10:45:00 AM 10.25 50.45 0.09 7.76 5.82 11.66
4/24/2022 11:00:00 AM 10.4 50.72 0.09 7.78 5.78 11.67
4/24/2022 11:15:00 AM 10.57 51.026 0.09 7.84 5.98 11.7
4/24/2022 11:30:00 AM 10.73 51.314 0.09 7.86 5.88 11.69
4/24/2022 11:45:00 AM 10.88 51.584 0.09 7.91 5.46 11.69
4/24/2022 12:00:00 PM 11.05 51.89 0.09 7.91 5.48 11.7
4/24/2022 12:15:00 PM 11.23 52.214 0.09 7.98 5.63 11.68
4/24/2022 12:30:00 PM 11.39 52.502 0.09 8.01 5.49 11.68
4/24/2022 12:45:00 PM 11.55 52.79 0.09 8.04 5.54 11.66
4/24/2022 1:00:00 PM 11.7 53.06 0.09 8.07 5.57 11.64
4/24/2022 1:15:00 PM 11.83 53.294 0.091 8.09 5.38 11.62
4/24/2022 1:30:00 PM 11.95 53.51 0.091 8.11 5.59 11.6
4/24/2022 1:45:00 PM 12.06 53.708 0.091 8.12 5.39 11.58
4/24/2022 2:00:00 PM 12.16 53.888 0.091 8.14 5.63 11.55
4/24/2022 2:15:00 PM 12.26 54.068 0.091 8.15 5.53 11.53
4/24/2022 2:30:00 PM 12.36 54.248 0.091 8.15 5.32 11.5
4/24/2022 2:45:00 PM 12.45 54.41 0.091 8.16 5.54 11.46
4/24/2022 3:00:00 PM 12.53 54.554 0.091 8.17 5.51 11.43
4/24/2022 3:15:00 PM 12.62 54.716 0.091 8.16 5.52 11.38
4/24/2022 3:30:00 PM 12.66 54.788 0.091 8.13 5.15 11.29
4/24/2022 3:45:00 PM 12.77 54.986 0.091 8.11 5.41 11.28
4/24/2022 4:00:00 PM 12.87 55.166 0.091 8.13 5.43 11.24
4/24/2022 4:15:00 PM 12.94 55.292 0.091 8.12 5.2 11.19
4/24/2022 4:30:00 PM 13.02 55.436 0.091 8.1 5.53 11.13
4/24/2022 4:45:00 PM 13.1 55.58 0.091 8.08 5.31 11.07
4/24/2022 5:00:00 PM 13.19 55.742 0.091 8.06 5.4 11.01
4/24/2022 5:15:00 PM 13.28 55.904 0.091 8.04 5.36 10.95
4/24/2022 5:30:00 PM 13.35 56.03 0.091 8 5.17 10.86
4/24/2022 5:45:00 PM 13.42 56.156 0.091 7.96 5.28 10.77
4/24/2022 6:00:00 PM 13.5 56.3 0.091 7.91 5.02 10.68
4/24/2022 6:15:00 PM 13.56 56.408 0.091 7.86 5.11 10.59
4/24/2022 6:30:00 PM 13.62 56.516 0.091 7.81 5.19 10.5
4/24/2022 6:45:00 PM 13.68 56.624 0.091 7.76 5.21 10.39
4/24/2022 7:00:00 PM 13.73 56.714 0.091 7.72 5.16 10.29
4/24/2022 7:15:00 PM 13.77 56.786 0.091 7.67 5.48 10.18
4/24/2022 7:30:00 PM 13.82 56.876 0.092 7.63 5.68 10.08
4/24/2022 7:45:00 PM 13.86 56.948 0.092 7.59 5.36 10
4/24/2022 8:00:00 PM 13.9 57.02 0.092 7.56 5.37 9.94
4/24/2022 8:15:00 PM 13.93 57.074 0.092 7.5 5.44 9.87
4/24/2022 8:30:00 PM 13.96 57.128 0.092 7.51 5.3 9.84
4/24/2022 8:45:00 PM 14 57.2 0.092 7.5 5.45 9.8
4/24/2022 9:00:00 PM 14.02 57.236 0.092 7.49 5.45 9.77
4/24/2022 9:15:00 PM 14.05 57.29 0.091 7.48 5.33 9.76
4/24/2022 9:30:00 PM 14.08 57.344 0.091 7.47 5.53 9.73
4/24/2022 9:45:00 PM 14.11 57.398 0.091 7.46 5.7 9.72
4/24/2022 10:00:00 PM 14.13 57.434 0.091 7.46 5.58 9.7
4/24/2022 10:15:00 PM 14.15 57.47 0.091 7.46 5.7 9.68
4/24/2022 10:30:00 PM 14.17 57.506 0.091 7.45 5.65 9.67
4/24/2022 10:45:00 PM 14.18 57.524 0.091 7.41 5.8 9.65
4/24/2022 11:00:00 PM 14.2 57.56 0.091 7.44 6.09 9.64
4/24/2022 11:15:00 PM 14.21 57.578 0.091 7.43 5.55 9.63
4/24/2022 11:30:00 PM 14.21 57.578 0.091 7.42 5.73 9.61
4/24/2022 11:45:00 PM 14.22 57.596 0.091 7.4 5.5 9.6
4/25/2022 12:00:00 AM 14.23 57.614 0.091 7.41 5.63 9.59
4/25/2022 12:15:00 AM 14.23 57.614 0.091 7.41 5.42 9.59
4/25/2022 12:30:00 AM 14.23 57.614 0.091 7.4 5.66 9.57
4/25/2022 12:45:00 AM 14.22 57.596 0.091 7.39 5.78 9.56
4/25/2022 1:00:00 AM 14.22 57.596 0.091 7.4 6.03 9.56
4/25/2022 1:15:00 AM 14.2 57.56 0.091 7.38 5.77 9.55
4/25/2022 1:30:00 AM 14.19 57.542 0.091 7.38 5.77 9.55
4/25/2022 1:45:00 AM 14.17 57.506 0.091 7.38 6.57 9.54
4/25/2022 2:00:00 AM 14.14 57.452 0.091 7.37 5.67 9.54
4/25/2022 2:15:00 AM 14.11 57.398 0.091 7.36 5.61 9.53
4/25/2022 2:30:00 AM 14.08 57.344 0.091 7.37 5.63 9.54
4/25/2022 2:45:00 AM 14.04 57.272 0.091 7.37 5.91 9.54
4/25/2022 3:00:00 AM 14 57.2 0.091 7.35 5.66 9.54
4/25/2022 3:15:00 AM 13.96 57.128 0.091 7.37 5.85 9.55
4/25/2022 3:30:00 AM 13.93 57.074 0.091 7.37 5.85 9.55
4/25/2022 3:45:00 AM 13.89 57.002 0.091 7.37 5.84 9.54
4/25/2022 4:00:00 AM 13.85 56.93 0.092 7.36 5.63 9.55
4/25/2022 4:15:00 AM 13.82 56.876 0.092 7.36 5.99 9.56
4/25/2022 4:30:00 AM 13.78 56.804 0.092 7.36 5.74 9.56
4/25/2022 4:45:00 AM 13.74 56.732 0.092 7.36 5.98 9.57
4/25/2022 5:00:00 AM 13.71 56.678 0.092 7.36 5.52 9.57
4/25/2022 5:15:00 AM 13.67 56.606 0.092 7.34 5.66 9.59
4/25/2022 5:30:00 AM 13.63 56.534 0.092 7.36 6.04 9.59
4/25/2022 5:45:00 AM 13.58 56.444 0.092 7.35 6.16 9.6
4/25/2022 6:00:00 AM 13.54 56.372 0.092 7.36 5.94 9.61
4/25/2022 6:15:00 AM 13.49 56.282 0.092 7.36 5.82 9.63
4/25/2022 6:30:00 AM 13.44 56.192 0.092 7.36 5.51 9.66
4/25/2022 6:45:00 AM 13.41 56.138 0.092 7.37 5.88 9.71
4/25/2022 7:00:00 AM 13.37 56.066 0.092 7.38 5.71 9.79
4/25/2022 7:15:00 AM 13.34 56.012 0.093 7.41 5.76 9.89
4/25/2022 7:30:00 AM 13.32 55.976 0.093 7.44 5.14 9.99
4/25/2022 7:45:00 AM 13.31 55.958 0.093 7.47 5.45 10.1
4/25/2022 8:00:00 AM 13.3 55.94 0.093 7.5 5.58 10.21
4/25/2022 8:15:00 AM 13.29 55.922 0.093 7.55 5.54 10.29
4/25/2022 8:30:00 AM 13.29 55.922 0.093 7.59 5.52 10.39
4/25/2022 8:45:00 AM 13.32 55.976 0.093 7.64 5.22 10.51
4/25/2022 9:00:00 AM 13.33 55.994 0.093 7.69 5.38 10.59
4/25/2022 9:15:00 AM 13.34 56.012 0.093 7.74 5.17 10.65
4/25/2022 9:30:00 AM 13.38 56.084 0.093 7.79 5.34 10.75
4/25/2022 9:45:00 AM 13.47 56.246 0.093 7.87 5.62 10.84
4/25/2022 10:00:00 AM 13.56 56.408 0.093 7.94 5.45 10.91
4/25/2022 10:15:00 AM 13.61 56.498 0.093 7.99 5.58 10.94
4/25/2022 10:30:00 AM 13.68 56.624 0.093 8.03 5.88 10.98
4/25/2022 10:45:00 AM 13.81 56.858 0.093 8.09 5.44 11.02
4/25/2022 11:00:00 AM 13.94 57.092 0.094 8.17 5.59 11.06
4/25/2022 11:15:00 AM 14.09 57.362 0.094 8.23 5.51 11.09
4/25/2022 11:30:00 AM 14.23 57.614 0.094 8.29 5.43 11.12
4/25/2022 11:45:00 AM 14.37 57.866 0.094 8.34 5.5 11.13
4/25/2022 12:00:00 PM 14.5 58.1 0.094 8.39 4.97 11.14
4/25/2022 12:15:00 PM 14.61 58.298 0.094 8.43 5.43 11.16
4/25/2022 12:30:00 PM 14.74 58.532 0.094 8.47 5.09 11.16
4/25/2022 12:45:00 PM 14.88 58.784 0.094 8.51 5.1 11.15
4/25/2022 1:00:00 PM 15.01 59.018 0.094 8.54 5.2 11.15
4/25/2022 1:15:00 PM 15.12 59.216 0.095 8.55 4.84 11.13
4/25/2022 1:30:00 PM 15.21 59.378 0.095 8.57 5.29 11.11
4/25/2022 1:45:00 PM 15.3 59.54 0.095 8.58 5.08 11.1
4/25/2022 2:00:00 PM 15.38 59.684 0.095 8.56 4.8 11.07
4/25/2022 2:15:00 PM 15.43 59.774 0.095 8.59 4.85 11.05
4/25/2022 2:30:00 PM 15.47 59.846 0.095 8.58 5.07 11.01
4/25/2022 2:45:00 PM 15.51 59.918 0.095 8.57 5.07 10.98
4/25/2022 3:00:00 PM 15.53 59.954 0.095 8.56 5.13 10.94
4/25/2022 3:15:00 PM 15.56 60.008 0.095 8.54 4.87 10.9
4/25/2022 3:30:00 PM 15.58 60.044 0.095 8.52 4.67 10.85
4/25/2022 3:45:00 PM 15.59 60.062 0.095 8.48 4.95 10.79
4/25/2022 4:00:00 PM 15.59 60.062 0.095 8.45 5.01 10.74
4/25/2022 4:15:00 PM 15.6 60.08 0.095 8.4 4.84 10.68
4/25/2022 4:30:00 PM 15.6 60.08 0.095 8.36 4.85 10.62
4/25/2022 4:45:00 PM 15.61 60.098 0.095 8.32 4.91 10.56
4/25/2022 5:00:00 PM 15.61 60.098 0.095 8.28 4.68 10.5
4/25/2022 5:15:00 PM 15.62 60.116 0.095 8.23 4.97 10.45
4/25/2022 5:30:00 PM 15.63 60.134 0.095 8.2 5.2 10.4
4/25/2022 5:45:00 PM 15.63 60.134 0.095 8.14 4.71 10.32
4/25/2022 6:00:00 PM 15.62 60.116 0.095 8.08 4.84 10.25
4/25/2022 6:15:00 PM 15.62 60.116 0.095 8.02 4.69 10.17
4/25/2022 6:30:00 PM 15.6 60.08 0.095 7.93 4.77 10.01
4/25/2022 6:45:00 PM 15.57 60.026 0.095 7.84 4.62 9.87
4/25/2022 7:00:00 PM 15.57 60.026 0.095 7.8 4.95 9.82
4/25/2022 7:15:00 PM 15.58 60.044 0.095 7.75 5.08 9.76
4/25/2022 7:30:00 PM 15.58 60.044 0.095 7.69 5.12 9.67
4/25/2022 7:45:00 PM 15.59 60.062 0.096 7.67 4.93 9.58
4/25/2022 8:00:00 PM 15.6 60.08 0.096 7.61 5.18 9.49
4/25/2022 8:15:00 PM 15.57 60.026 0.096 7.6 5.09 9.42
4/25/2022 8:30:00 PM 15.57 60.026 0.096 7.57 5.22 9.38
4/25/2022 8:45:00 PM 15.57 60.026 0.096 7.55 5.08 9.35
4/25/2022 9:00:00 PM 15.55 59.99 0.096 7.54 4.85 9.33
4/25/2022 9:15:00 PM 15.55 59.99 0.096 7.53 5.36 9.32
4/25/2022 9:30:00 PM 15.54 59.972 0.096 7.52 5.26 9.31
4/25/2022 9:45:00 PM 15.53 59.954 0.096 7.51 5.09 9.3
4/25/2022 10:00:00 PM 15.52 59.936 0.095 7.5 5.18 9.29
4/25/2022 10:15:00 PM 15.52 59.936 0.095 7.5 5.31 9.28
4/25/2022 10:30:00 PM 15.52 59.936 0.095 7.46 5.78 9.27
4/25/2022 10:45:00 PM 15.51 59.918 0.095 7.48 5.57 9.26
4/25/2022 11:00:00 PM 15.51 59.918 0.095 7.48 5.17 9.26
4/25/2022 11:15:00 PM 15.5 59.9 0.095 7.45 4.78 9.25
4/25/2022 11:30:00 PM 15.48 59.864 0.095 7.45 5.06 9.24
4/25/2022 11:45:00 PM 15.46 59.828 0.095 7.45 5.2 9.23
4/26/2022 12:00:00 AM 15.46 59.828 0.095 7.46 5.22 9.23
4/26/2022 12:15:00 AM 15.44 59.792 0.095 7.44 5.25 9.23
4/26/2022 12:30:00 AM 15.41 59.738 0.095 7.45 5.4 9.23
4/26/2022 12:45:00 AM 15.38 59.684 0.095 7.45 5.22 9.22
4/26/2022 1:00:00 AM 15.35 59.63 0.095 7.44 5.29 9.22
4/26/2022 1:15:00 AM 15.35 59.63 0.095 7.43 5.06 9.22
4/26/2022 1:30:00 AM 15.32 59.576 0.095 7.43 5.43 9.22
4/26/2022 1:45:00 AM 15.27 59.486 0.095 7.43 5.18 9.22
4/26/2022 2:00:00 AM 15.24 59.432 0.095 7.43 5.37 9.23
4/26/2022 2:15:00 AM 15.21 59.378 0.095 7.39 5.5 9.22
4/26/2022 2:30:00 AM 15.18 59.324 0.095 7.42 5.15 9.23
4/26/2022 2:45:00 AM 15.14 59.252 0.095 7.41 5.62 9.22
4/26/2022 3:00:00 AM 15.1 59.18 0.095 7.41 5.46 9.23
4/26/2022 3:15:00 AM 15.06 59.108 0.095 7.4 5.17 9.24
4/26/2022 3:30:00 AM 15.01 59.018 0.095 7.41 5.23 9.24
4/26/2022 3:45:00 AM 14.97 58.946 0.095 7.4 5.24 9.25
4/26/2022 4:00:00 AM 14.94 58.892 0.095 7.4 5.55 9.25
4/26/2022 4:15:00 AM 14.9 58.82 0.095 7.4 5.64 9.25
4/26/2022 4:30:00 AM 14.85 58.73 0.095 7.39 5.49 9.26
4/26/2022 4:45:00 AM 14.81 58.658 0.095 7.39 5.41 9.26
4/26/2022 5:00:00 AM 14.77 58.586 0.095 7.38 5.3 9.27
4/26/2022 5:15:00 AM 14.73 58.514 0.096 7.39 4.75 9.28
4/26/2022 5:30:00 AM 14.69 58.442 0.096 7.38 5.26 9.29
4/26/2022 5:45:00 AM 14.65 58.37 0.096 7.39 5.05 9.29
4/26/2022 6:00:00 AM 14.61 58.298 0.096 7.36 5.3 9.3
4/26/2022 6:15:00 AM 14.57 58.226 0.096 7.39 5.47 9.3
4/26/2022 6:30:00 AM 14.54 58.172 0.096 7.39 5.53 9.32
4/26/2022 6:45:00 AM 14.5 58.1 0.096 7.37 5.38 9.34
4/26/2022 7:00:00 AM 14.47 58.046 0.096 7.39 5.53 9.37
4/26/2022 7:15:00 AM 14.43 57.974 0.096 7.4 5.01 9.4
4/26/2022 7:30:00 AM 14.39 57.902 0.096 7.4 5.59 9.43
4/26/2022 7:45:00 AM 14.36 57.848 0.096 7.41 5.1 9.49
4/26/2022 8:00:00 AM 14.32 57.776 0.096 7.43 5.08 9.53
4/26/2022 8:15:00 AM 14.27 57.686 0.096 7.44 4.91 9.57
4/26/2022 8:30:00 AM 14.26 57.668 0.096 7.48 4.93 9.8
4/26/2022 8:45:00 AM 14.25 57.65 0.096 7.52 5.03 9.91
4/26/2022 9:00:00 AM 14.23 57.614 0.096 7.55 5.5 10.03
4/26/2022 9:15:00 AM 14.21 57.578 0.096 7.58 5.11 10.04
4/26/2022 9:30:00 AM 14.19 57.542 0.096 7.61 5.25 10.11
4/26/2022 9:45:00 AM 14.16 57.488 0.096 7.62 5.2 10.11
4/26/2022 10:00:00 AM 14.15 57.47 0.096 7.64 5.42 10.14
4/26/2022 10:15:00 AM 14.14 57.452 0.096 7.67 5.03 10.22
4/26/2022 10:30:00 AM 14.13 57.434 0.096 7.71 5.33 10.3
4/26/2022 10:45:00 AM 14.12 57.416 0.096 7.74 5.17 10.34
4/26/2022 11:00:00 AM 14.11 57.398 0.096 7.78 4.98 10.42
4/26/2022 11:15:00 AM 14.11 57.398 0.096 7.83 5.12 10.5
4/26/2022 11:30:00 AM 14.1 57.38 0.096 7.87 4.9 10.55
4/26/2022 11:45:00 AM 14.08 57.344 0.096 7.88 5.19 10.55
4/26/2022 12:00:00 PM 14.04 57.272 0.097 7.86 4.87 10.44
4/26/2022 12:15:00 PM 14.02 57.236 0.097 7.87 4.99 10.52
4/26/2022 12:30:00 PM 14.03 57.254 0.097 7.93 4.81 10.62
4/26/2022 12:45:00 PM 14.05 57.29 0.097 8.01 4.94 10.75
4/26/2022 1:00:00 PM 14.06 57.308 0.097 8.12 4.96 10.83
4/26/2022 1:15:00 PM 14.07 57.326 0.097 8.19 5.24 10.88
4/26/2022 1:30:00 PM 14.06 57.308 0.097 8.22 5.13 10.85
4/26/2022 1:45:00 PM 13.99 57.182 0.097 8.07 4.96 10.59
4/26/2022 2:00:00 PM 13.96 57.128 0.098 8.03 5.03 10.62
4/26/2022 2:15:00 PM 13.93 57.074 0.098 7.99 5.01 10.55
4/26/2022 2:30:00 PM 13.9 57.02 0.098 7.95 4.83 10.5
4/26/2022 2:45:00 PM 13.87 56.966 0.098 7.93 4.68 10.46
4/26/2022 3:00:00 PM 13.84 56.912 0.098 7.91 4.52 10.48
4/26/2022 3:15:00 PM 13.82 56.876 0.098 7.92 4.79 10.52
4/26/2022 3:30:00 PM 13.8 56.84 0.098 7.95 4.71 10.54
4/26/2022 3:45:00 PM 13.74 56.732 0.098 7.87 4.65 10.38
4/26/2022 4:00:00 PM 13.7 56.66 0.099 7.82 4.74 10.31
4/26/2022 4:15:00 PM 13.66 56.588 0.099 7.79 4.77 10.3
4/26/2022 4:30:00 PM 13.62 56.516 0.098 7.78 4.77 10.32
4/26/2022 4:45:00 PM 13.61 56.498 0.098 7.79 4.81 10.34
4/26/2022 5:00:00 PM 13.58 56.444 0.099 7.75 5.12 10.27
4/26/2022 5:15:00 PM 13.56 56.408 0.098 7.73 4.91 10.23
4/26/2022 5:30:00 PM 13.53 56.354 0.099 7.69 4.92 10.17
4/26/2022 5:45:00 PM 13.51 56.318 0.098 7.7 5.09 10.19
4/26/2022 6:00:00 PM 13.49 56.282 0.098 7.69 4.95 10.2
4/26/2022 6:15:00 PM 13.47 56.246 0.098 7.66 5.34 10.14
4/26/2022 6:30:00 PM 13.45 56.21 0.098 7.64 4.99 10.07
4/26/2022 6:45:00 PM 13.42 56.156 0.099 7.61 5.22 9.98
4/26/2022 7:00:00 PM 13.39 56.102 0.099 7.56 5.07 9.9
4/26/2022 7:15:00 PM 13.34 56.012 0.099 7.56 5.06 9.87
4/26/2022 7:30:00 PM 13.3 55.94 0.099 7.54 5.43 9.86
4/26/2022 7:45:00 PM 13.25 55.85 0.099 7.52 5.47 9.85
4/26/2022 8:00:00 PM 13.22 55.796 0.099 7.51 5.55 9.83
4/26/2022 8:15:00 PM 13.18 55.724 0.099 7.51 5.71 9.83
4/26/2022 8:30:00 PM 13.13 55.634 0.098 7.5 5.71 9.82
4/26/2022 8:45:00 PM 13.09 55.562 0.098 7.5 5.98 9.82
4/26/2022 9:00:00 PM 13.05 55.49 0.098 7.49 5.78 9.83
4/26/2022 9:15:00 PM 13.01 55.418 0.098 7.49 5.55 9.84
4/26/2022 9:30:00 PM 12.97 55.346 0.098 7.49 5.52 9.84
4/26/2022 9:45:00 PM 12.92 55.256 0.098 7.49 5.56 9.85
4/26/2022 10:00:00 PM 12.88 55.184 0.098 7.49 5.79 9.86
4/26/2022 10:15:00 PM 12.84 55.112 0.098 7.46 5.68 9.87
4/26/2022 10:30:00 PM 12.81 55.058 0.098 7.48 5.15 9.87
4/26/2022 10:45:00 PM 12.77 54.986 0.098 7.48 5.69 9.88
4/26/2022 11:00:00 PM 12.73 54.914 0.098 7.47 5.99 9.88
4/26/2022 11:15:00 PM 12.7 54.86 0.098 7.47 5.49 9.89
4/26/2022 11:30:00 PM 12.66 54.788 0.098 7.47 5.54 9.89
4/26/2022 11:45:00 PM 12.63 54.734 0.098 7.47 5.29 9.89
4/27/2022 12:00:00 AM 12.6 54.68 0.098 7.45 6.41 9.9
4/27/2022 12:15:00 AM 12.56 54.608 0.098 7.46 6.01 9.9
4/27/2022 12:30:00 AM 12.51 54.518 0.098 7.46 5.81 9.92
4/27/2022 12:45:00 AM 12.46 54.428 0.098 7.45 5.64 9.92
4/27/2022 1:00:00 AM 12.41 54.338 0.098 7.46 6.29 9.92
4/27/2022 1:15:00 AM 12.34 54.212 0.098 7.46 5.68 9.93
4/27/2022 1:30:00 AM 12.27 54.086 0.098 7.45 5.89 9.94
4/27/2022 1:45:00 AM 12.19 53.942 0.098 7.42 5.97 9.95
4/27/2022 2:00:00 AM 12.13 53.834 0.098 7.45 5.68 9.97
4/27/2022 2:15:00 AM 12.08 53.744 0.098 7.45 5.99 9.98
4/27/2022 2:30:00 AM 12.03 53.654 0.098 7.44 5.65 9.98
4/27/2022 2:45:00 AM 11.98 53.564 0.098 7.44 6.14 9.99
4/27/2022 3:00:00 AM 11.92 53.456 0.098 7.44 5.73 10
4/27/2022 3:15:00 AM 11.86 53.348 0.098 7.44 5.51 10.01
4/27/2022 3:30:00 AM 11.81 53.258 0.098 7.43 5.71 10.02
4/27/2022 3:45:00 AM 11.76 53.168 0.098 7.44 5.98 10.03
4/27/2022 4:00:00 AM 11.71 53.078 0.098 7.44 6.11 10.04
4/27/2022 4:15:00 AM 11.64 52.952 0.098 7.43 5.96 10.05
4/27/2022 4:30:00 AM 11.58 52.844 0.098 7.43 5.79 10.06
4/27/2022 4:45:00 AM 11.5 52.7 0.098 7.43 5.6 10.06
4/27/2022 5:00:00 AM 11.43 52.574 0.098 7.43 6.06 10.08
4/27/2022 5:15:00 AM 11.36 52.448 0.098 7.42 5.85 10.1
4/27/2022 5:30:00 AM 11.29 52.322 0.098 7.41 5.68 10.11
4/27/2022 5:45:00 AM 11.21 52.178 0.098 7.42 6.18 10.13
4/27/2022 6:00:00 AM 11.13 52.034 0.098 7.41 5.89 10.14
4/27/2022 6:15:00 AM 11.07 51.926 0.098 7.4 5.9 10.17
4/27/2022 6:30:00 AM 11.01 51.818 0.098 7.41 5.96 10.22
4/27/2022 6:45:00 AM 10.97 51.746 0.098 7.42 5.18 10.27
4/27/2022 7:00:00 AM 10.92 51.656 0.098 7.43 5.85 10.34
4/27/2022 7:15:00 AM 10.87 51.566 0.098 7.45 5.72 10.4
4/27/2022 7:30:00 AM 10.83 51.494 0.098 7.45 5.7 10.51
4/27/2022 7:45:00 AM 10.78 51.404 0.098 7.49 5.81 10.54
4/27/2022 8:00:00 AM 10.73 51.314 0.098 7.5 5.66 10.62
4/27/2022 8:15:00 AM 10.68 51.224 0.098 7.52 5.38 10.71
4/27/2022 8:30:00 AM 10.68 51.224 0.098 7.58 5.6 10.88
4/27/2022 8:45:00 AM 10.7 51.26 0.098 7.62 5.34 11.01
4/27/2022 9:00:00 AM 10.7 51.26 0.098 7.67 4.96 11.11
4/27/2022 9:15:00 AM 10.73 51.314 0.098 7.73 5.08 11.2
4/27/2022 9:30:00 AM 10.67 51.206 0.098 7.75 4.68 11.21
4/27/2022 9:45:00 AM 10.61 51.098 0.098 7.74 5.39 11.13
4/27/2022 10:00:00 AM 10.54 50.972 0.098 7.73 5.22 11.12
4/27/2022 10:15:00 AM 10.51 50.918 0.098 7.72 5.44 11.08
4/27/2022 10:30:00 AM 10.46 50.828 0.098 7.71 5.38 11.1
4/27/2022 10:45:00 AM 10.43 50.774 0.098 7.75 5.13 11.21
4/27/2022 11:00:00 AM 10.4 50.72 0.098 7.78 5.23 11.23
4/27/2022 11:15:00 AM 10.34 50.612 0.098 7.77 4.5 11.23
4/27/2022 11:30:00 AM 10.3 50.54 0.098 7.79 5.1 11.25
4/27/2022 11:45:00 AM 10.26 50.468 0.098 7.78 4.94 11.28
4/27/2022 12:00:00 PM 10.29 50.522 0.098 7.86 5.02 11.45
4/27/2022 12:15:00 PM 10.35 50.63 0.098 7.94 4.71 11.54
4/27/2022 12:30:00 PM 10.3 50.54 0.098 7.91 4.85 11.4
4/27/2022 12:45:00 PM 10.21 50.378 0.098 7.86 5.29 11.33
4/27/2022 1:00:00 PM 10.19 50.342 0.098 7.89 5.38 11.43
4/27/2022 1:15:00 PM 10.13 50.234 0.098 7.87 5.26 11.4
4/27/2022 1:30:00 PM 10.08 50.144 0.098 7.9 5.07 11.45
4/27/2022 1:45:00 PM 10.05 50.09 0.098 7.89 5.06 11.41
4/27/2022 2:00:00 PM 10 50 0.098 7.88 4.75 11.42
4/27/2022 2:15:00 PM 9.99 49.982 0.098 7.93 5.2 11.51
4/27/2022 2:30:00 PM 9.98 49.964 0.098 7.97 5.08 11.58
4/27/2022 2:45:00 PM 10 50 0.098 8.04 4.99 11.67
4/27/2022 3:00:00 PM 9.92 49.856 0.098 7.99 4.66 11.56
4/27/2022 3:15:00 PM 9.88 49.784 0.098 8 5.12 11.6
4/27/2022 3:30:00 PM 9.83 49.694 0.099 8 4.89 11.59
4/27/2022 3:45:00 PM 9.76 49.568 0.099 7.92 4.85 11.45
4/27/2022 4:00:00 PM 9.75 49.55 0.099 7.93 4.84 11.54
4/27/2022 4:15:00 PM 9.74 49.532 0.099 7.96 4.59 11.63
4/27/2022 4:30:00 PM 9.69 49.442 0.099 7.94 4.52 11.53
4/27/2022 4:45:00 PM 9.7 49.46 0.099 7.97 4.51 11.63
4/27/2022 5:00:00 PM 9.7 49.46 0.099 7.99 4.77 11.68
4/27/2022 5:15:00 PM 9.66 49.388 0.098 8.01 4.7 11.72
4/27/2022 5:30:00 PM 9.63 49.334 0.098 8.04 4.66 11.71
4/27/2022 5:45:00 PM 9.57 49.226 0.099 7.99 4.83 11.6
4/27/2022 6:00:00 PM 9.5 49.1 0.099 7.87 4.62 11.46
4/27/2022 6:15:00 PM 9.44 48.992 0.099 7.81 4.59 11.28
4/27/2022 6:30:00 PM 9.39 48.902 0.099 7.74 4.42 11.2
4/27/2022 6:45:00 PM 9.35 48.83 0.099 7.7 4.86 11.14
4/27/2022 7:00:00 PM 9.29 48.722 0.099 7.64 4.76 11.06
4/27/2022 7:15:00 PM 9.23 48.614 0.099 7.62 5.06 11.02
4/27/2022 7:30:00 PM 9.16 48.488 0.099 7.59 4.85 11
4/27/2022 7:45:00 PM 9.06 48.308 0.099 7.57 4.98 10.98
4/27/2022 8:00:00 PM 8.99 48.182 0.1 7.56 4.69 10.96
4/27/2022 8:15:00 PM 8.91 48.038 0.1 7.54 4.7 10.94
4/27/2022 8:30:00 PM 8.84 47.912 0.1 7.53 4.68 10.94
4/27/2022 8:45:00 PM 8.78 47.804 0.1 7.51 4.95 10.95
4/27/2022 9:00:00 PM 8.73 47.714 0.099 7.5 4.86 10.95
4/27/2022 9:15:00 PM 8.67 47.606 0.099 7.5 4.69 10.97
4/27/2022 9:30:00 PM 8.6 47.48 0.099 7.5 4.8 10.98
4/27/2022 9:45:00 PM 8.56 47.408 0.099 7.49 5.1 10.98
4/27/2022 10:00:00 PM 8.52 47.336 0.099 7.48 4.61 10.99
4/27/2022 10:15:00 PM 8.48 47.264 0.099 7.49 4.69 11
4/27/2022 10:30:00 PM 8.45 47.21 0.099 7.47 5.3 11.01
4/27/2022 10:45:00 PM 8.4 47.12 0.099 7.48 5.16 11.02
4/27/2022 11:00:00 PM 8.36 47.048 0.099 7.45 5.1 11.02
4/27/2022 11:15:00 PM 8.34 47.012 0.099 7.48 4.99 11.03
4/27/2022 11:30:00 PM 8.29 46.922 0.099 7.45 4.73 11.05
4/27/2022 11:45:00 PM 8.26 46.868 0.099 7.47 4.9 11.04
4/28/2022 12:00:00 AM 8.23 46.814 0.099 7.47 4.99 11.05
4/28/2022 12:15:00 AM 8.19 46.742 0.099 7.47 4.98 11.06
4/28/2022 12:30:00 AM 8.14 46.652 0.099 7.47 4.74 11.07
4/28/2022 12:45:00 AM 8.11 46.598 0.099 7.47 4.93 11.07
4/28/2022 1:00:00 AM 8.06 46.508 0.099 7.45 4.73 11.09
4/28/2022 1:15:00 AM 8.03 46.454 0.099 7.45 4.77 11.09
4/28/2022 1:30:00 AM 7.98 46.364 0.099 7.46 4.57 11.1
4/28/2022 1:45:00 AM 7.92 46.256 0.099 7.43 4.53 11.11
4/28/2022 2:00:00 AM 7.88 46.184 0.099 7.45 4.61 11.12
4/28/2022 2:15:00 AM 7.83 46.094 0.099 7.45 4.67 11.12
4/28/2022 2:30:00 AM 7.77 45.986 0.099 7.44 4.89 11.14
4/28/2022 2:45:00 AM 7.72 45.896 0.099 7.45 4.81 11.14
4/28/2022 3:00:00 AM 7.66 45.788 0.099 7.44 4.68 11.18
4/28/2022 3:15:00 AM 7.62 45.716 0.099 7.44 5.01 11.18
4/28/2022 3:30:00 AM 7.58 45.644 0.099 7.44 4.61 11.18
4/28/2022 3:45:00 AM 7.54 45.572 0.099 7.44 4.5 11.19
4/28/2022 4:00:00 AM 7.47 45.446 0.099 7.42 4.64 11.21
4/28/2022 4:15:00 AM 7.42 45.356 0.099 7.44 4.79 11.22
4/28/2022 4:30:00 AM 7.39 45.302 0.099 7.43 4.78 11.23
4/28/2022 4:45:00 AM 7.34 45.212 0.099 7.41 4.69 11.24
4/28/2022 5:00:00 AM 7.31 45.158 0.099 7.43 4.76 11.25
4/28/2022 5:15:00 AM 7.27 45.086 0.099 7.43 4.57 11.26
4/28/2022 5:30:00 AM 7.23 45.014 0.099 7.43 4.6 11.26
4/28/2022 5:45:00 AM 7.19 44.942 0.099 7.43 4.61 11.27
4/28/2022 6:00:00 AM 7.15 44.87 0.099 7.43 5.41 11.29
4/28/2022 6:15:00 AM 7.11 44.798 0.099 7.43 4.57 11.31
4/28/2022 6:30:00 AM 7.07 44.726 0.099 7.43 4.56 11.35
4/28/2022 6:45:00 AM 7.04 44.672 0.099 7.43 4.18 11.39
4/28/2022 7:00:00 AM 7.01 44.618 0.099 7.45 4.56 11.47
4/28/2022 7:15:00 AM 6.98 44.564 0.099 7.47 4.62 11.6
4/28/2022 7:30:00 AM 6.97 44.546 0.099 7.49 4.63 11.68
4/28/2022 7:45:00 AM 6.91 44.438 0.099 7.54 4.23 11.86
4/28/2022 8:00:00 AM 6.87 44.366 0.099 7.55 4.35 11.91
4/28/2022 8:15:00 AM 6.83 44.294 0.099 7.57 4.33 11.96
4/28/2022 8:30:00 AM 6.82 44.276 0.099 7.6 4.05 12.03
4/28/2022 8:45:00 AM 6.83 44.294 0.099 7.62 4.33 12.12
4/28/2022 9:00:00 AM 6.89 44.402 0.099 7.65 3.93 12.19
4/28/2022 9:15:00 AM 6.95 44.51 0.099 7.67 4.27 12.31
4/28/2022 9:30:00 AM 7.04 44.672 0.099 7.74 4.32 12.37
4/28/2022 9:45:00 AM 7.15 44.87 0.099 7.76 4.14 12.4
4/28/2022 10:00:00 AM 7.26 45.068 0.099 7.81 3.87 12.43
4/28/2022 10:15:00 AM 7.37 45.266 0.099 7.85 3.92 12.46
4/28/2022 10:30:00 AM 7.51 45.518 0.099 7.87 4.3 12.49
4/28/2022 10:45:00 AM 7.67 45.806 0.099 7.89 4.08 12.52
4/28/2022 11:00:00 AM 7.84 46.112 0.099 7.95 4.21 12.52
4/28/2022 11:15:00 AM 8.02 46.436 0.099 8.01 4.12 12.52
4/28/2022 11:30:00 AM 8.26 46.868 0.099 8.05 4.12 12.52
4/28/2022 11:45:00 AM 8.45 47.21 0.099 8.11 3.98 12.5
4/28/2022 12:00:00 PM 8.67 47.606 0.099 8.13 4.08 12.51
4/28/2022 12:15:00 PM 8.88 47.984 0.099 8.19 4.2 12.49
4/28/2022 12:30:00 PM 9.04 48.272 0.099 8.22 4.59 12.46
4/28/2022 12:45:00 PM 9.2 48.56 0.098 8.26 4.43 12.44
4/28/2022 1:00:00 PM 9.33 48.794 0.099 8.26 4.4 12.44
4/28/2022 1:15:00 PM 9.51 49.118 0.099 8.33 4.84 12.42
4/28/2022 1:30:00 PM 9.6 49.28 0.099 8.36 5 12.4
4/28/2022 1:45:00 PM 9.72 49.496 0.099 8.38 5.4 12.38
4/28/2022 2:00:00 PM 9.79 49.622 0.099 8.37 5 12.36
4/28/2022 2:15:00 PM 9.84 49.712 0.099 8.4 4.77 12.34
4/28/2022 2:30:00 PM 9.86 49.748 0.099 8.4 4.67 12.32
4/28/2022 2:45:00 PM 9.89 49.802 0.099 8.41 4.64 12.3
4/28/2022 3:00:00 PM 9.89 49.802 0.099 8.41 4.44 12.27
4/28/2022 3:15:00 PM 9.88 49.784 0.099 8.4 4.13 12.25
4/28/2022 3:30:00 PM 9.85 49.73 0.099 8.37 3.64 12.22
4/28/2022 3:45:00 PM 9.84 49.712 0.1 8.37 4.14 12.18
4/28/2022 4:00:00 PM 9.81 49.658 0.1 8.35 4.21 12.15
4/28/2022 4:15:00 PM 9.76 49.568 0.1 8.32 4.1 12.1
4/28/2022 4:30:00 PM 9.73 49.514 0.1 8.28 4.13 12.07
4/28/2022 4:45:00 PM 9.66 49.388 0.1 8.27 4.07 12.03
4/28/2022 5:00:00 PM 9.62 49.316 0.1 8.22 4.07 11.98
4/28/2022 5:15:00 PM 9.58 49.244 0.1 8.19 3.64 11.94
4/28/2022 5:30:00 PM 9.53 49.154 0.1 8.15 4.04 11.88
4/28/2022 5:45:00 PM 9.48 49.064 0.1 8.1 3.82 11.83
4/28/2022 6:00:00 PM 9.42 48.956 0.1 8.06 3.75 11.76
4/28/2022 6:15:00 PM 9.38 48.884 0.1 8 3.93 11.69
4/28/2022 6:30:00 PM 9.35 48.83 0.1 7.97 3.77 11.63
4/28/2022 6:45:00 PM 9.31 48.758 0.1 7.91 4.34 11.54
4/28/2022 7:00:00 PM 9.27 48.686 0.101 7.86 3.81 11.45
4/28/2022 7:15:00 PM 9.24 48.632 0.101 7.82 3.8 11.38
4/28/2022 7:30:00 PM 9.2 48.56 0.101 7.78 4.16 11.28
4/28/2022 7:45:00 PM 9.17 48.506 0.101 7.73 3.75 11.19
4/28/2022 8:00:00 PM 9.14 48.452 0.101 7.69 4.11 11.1
4/28/2022 8:15:00 PM 9.12 48.416 0.101 7.64 3.86 11.03
4/28/2022 8:30:00 PM 9.1 48.38 0.101 7.63 4.35 10.98
4/28/2022 8:45:00 PM 9.09 48.362 0.101 7.61 4.1 10.94
4/28/2022 9:00:00 PM 9.07 48.326 0.101 7.59 4.09 10.91
4/28/2022 9:15:00 PM 9.06 48.308 0.101 7.55 4.25 10.88
4/28/2022 9:30:00 PM 9.05 48.29 0.101 7.56 4.23 10.88
4/28/2022 9:45:00 PM 9.03 48.254 0.101 7.55 4.02 10.86
4/28/2022 10:00:00 PM 9.02 48.236 0.101 7.54 4.42 10.86
4/28/2022 10:15:00 PM 9 48.2 0.101 7.53 4.46 10.84
4/28/2022 10:30:00 PM 8.99 48.182 0.101 7.53 4.3 10.84
4/28/2022 10:45:00 PM 8.97 48.146 0.101 7.52 4.16 10.84
4/28/2022 11:00:00 PM 8.95 48.11 0.101 7.52 4.11 10.85
4/28/2022 11:15:00 PM 8.91 48.038 0.101 7.52 4.1 10.81
4/28/2022 11:30:00 PM 8.88 47.984 0.101 7.51 4.43 10.84
4/28/2022 11:45:00 PM 8.84 47.912 0.101 7.51 4.28 10.83
4/29/2022 12:00:00 AM 8.81 47.858 0.101 7.5 4.52 10.82
4/29/2022 12:15:00 AM 8.77 47.786 0.101 7.5 4.19 10.83
4/29/2022 12:30:00 AM 8.73 47.714 0.101 7.49 4.25 10.83
4/29/2022 12:45:00 AM 8.7 47.66 0.101 7.49 4.41 10.87
4/29/2022 1:00:00 AM 8.66 47.588 0.101 7.49 4.46 10.85
4/29/2022 1:15:00 AM 8.62 47.516 0.101 7.49 4.17 10.84
4/29/2022 1:30:00 AM 8.58 47.444 0.101 7.48 3.91 10.85
4/29/2022 1:45:00 AM 8.55 47.39 0.101 7.47 4.32 10.87
4/29/2022 2:00:00 AM 8.5 47.3 0.101 7.46 4.58 10.87
4/29/2022 2:15:00 AM 8.46 47.228 0.101 7.48 4.73 10.88
4/29/2022 2:30:00 AM 8.42 47.156 0.101 7.47 4.57 10.89
4/29/2022 2:45:00 AM 8.38 47.084 0.101 7.46 4.01 10.88
4/29/2022 3:00:00 AM 8.33 46.994 0.101 7.47 4.52 10.88
4/29/2022 3:15:00 AM 8.28 46.904 0.101 7.46 4.28 10.93
4/29/2022 3:30:00 AM 8.24 46.832 0.101 7.45 4.33 10.93
4/29/2022 3:45:00 AM 8.2 46.76 0.101 7.44 4.17 10.93
4/29/2022 4:00:00 AM 8.16 46.688 0.101 7.45 4.07 10.93
4/29/2022 4:15:00 AM 8.09 46.562 0.101 7.42 4.33 10.95
4/29/2022 4:30:00 AM 8.06 46.508 0.101 7.45 4.16 10.94
4/29/2022 4:45:00 AM 7.99 46.382 0.101 7.44 4.03 10.98
4/29/2022 5:00:00 AM 7.93 46.274 0.101 7.43 4.3 10.98
4/29/2022 5:15:00 AM 7.88 46.184 0.101 7.45 4.43 10.99
4/29/2022 5:30:00 AM 7.81 46.058 0.101 7.43 4.31 11.02
4/29/2022 5:45:00 AM 7.74 45.932 0.101 7.42 4.3 11.05
4/29/2022 6:00:00 AM 7.69 45.842 0.101 7.43 4.04 11.05
4/29/2022 6:15:00 AM 7.61 45.698 0.101 7.44 4.23 11.08
4/29/2022 6:30:00 AM 7.55 45.59 0.099 7.43 4.44 11.14
4/29/2022 6:45:00 AM 7.47 45.446 0.099 7.49 4.9 11.21
4/29/2022 7:00:00 AM 7.43 45.374 0.101 7.46 3.91 11.23
4/29/2022 7:15:00 AM 7.37 45.266 0.101 7.47 4.27 11.33
4/29/2022 7:30:00 AM 7.33 45.194 0.101 7.49 4.1 11.44
4/29/2022 7:45:00 AM 7.28 45.104 0.101 7.51 3.99 11.48
4/29/2022 8:00:00 AM 7.24 45.032 0.101 7.5 4 11.59
4/29/2022 8:15:00 AM 7.22 44.996 0.101 7.55 3.92 11.68
4/29/2022 8:30:00 AM 7.23 45.014 0.101 7.57 3.8 11.82
4/29/2022 8:45:00 AM 7.27 45.086 0.1 7.59 4.08 11.92
4/29/2022 9:00:00 AM 7.34 45.212 0.1 7.63 4.05 11.99
4/29/2022 9:15:00 AM 7.42 45.356 0.1 7.68 4.19 12.13
4/29/2022 9:30:00 AM 7.53 45.554 0.1 7.73 4.15 12.2
4/29/2022 9:45:00 AM 7.65 45.77 0.1 7.76 3.62 12.25
4/29/2022 10:00:00 AM 7.79 46.022 0.1 7.82 4.23 12.31
4/29/2022 10:15:00 AM 7.93 46.274 0.1 7.84 4.19 12.33
4/29/2022 10:30:00 AM 8.07 46.526 0.1 7.88 4.78 12.38
4/29/2022 10:45:00 AM 8.29 46.922 0.1 7.94 4.34 12.41
4/29/2022 11:00:00 AM 8.49 47.282 0.1 8 4.33 12.42
4/29/2022 11:15:00 AM 8.67 47.606 0.1 8.05 4.24 12.43
4/29/2022 11:30:00 AM 8.87 47.966 0.1 8.1 4.12 12.44
4/29/2022 11:45:00 AM 9.07 48.326 0.1 8.15 4.47 12.45
4/29/2022 12:00:00 PM 9.36 48.848 0.1 8.23 4.38 12.42
4/29/2022 12:15:00 PM 9.58 49.244 0.1 8.27 4.35 12.41
4/29/2022 12:30:00 PM 9.74 49.532 0.1 8.32 4.29 12.41
4/29/2022 12:45:00 PM 9.92 49.856 0.1 8.35 4.33 12.36
4/29/2022 1:00:00 PM 10.17 50.306 0.1 8.39 4.47 12.36
4/29/2022 1:15:00 PM 10.38 50.684 0.1 8.44 3.98 12.31
4/29/2022 1:30:00 PM 10.49 50.882 0.1 8.46 3.79 12.27
4/29/2022 1:45:00 PM 10.59 51.062 0.1 8.46 4.12 12.25
4/29/2022 2:00:00 PM 10.59 51.062 0.1 8.48 3.68 12.22
4/29/2022 2:15:00 PM 10.72 51.296 0.101 8.49 3.78 12.18
4/29/2022 2:30:00 PM 10.78 51.404 0.101 8.5 3.78 12.16
4/29/2022 2:45:00 PM 10.87 51.566 0.101 8.52 3.89 12.16
4/29/2022 3:00:00 PM 10.86 51.548 0.101 8.51 4.08 12.12
4/29/2022 3:15:00 PM 10.87 51.566 0.101 8.51 3.82 12.09
4/29/2022 3:30:00 PM 10.82 51.476 0.101 8.49 3.96 12.06
4/29/2022 3:45:00 PM 10.81 51.458 0.101 8.48 3.63 12.02
4/29/2022 4:00:00 PM 10.77 51.386 0.101 8.48 3.92 12.01
4/29/2022 4:15:00 PM 10.71 51.278 0.101 8.45 4.09 11.97
4/29/2022 4:30:00 PM 10.65 51.17 0.101 8.42 3.83 11.92
4/29/2022 4:45:00 PM 10.62 51.116 0.101 8.4 3.92 11.88
4/29/2022 5:00:00 PM 10.52 50.936 0.101 8.34 3.62 11.82
4/29/2022 5:15:00 PM 10.47 50.846 0.101 8.32 3.89 11.77
4/29/2022 5:30:00 PM 10.39 50.702 0.101 8.27 3.89 11.72
4/29/2022 5:45:00 PM 10.34 50.612 0.102 8.21 4.23 11.65
4/29/2022 6:00:00 PM 10.27 50.486 0.102 8.15 3.81 11.59
4/29/2022 6:15:00 PM 10.2 50.36 0.102 8.1 3.9 11.53
4/29/2022 6:30:00 PM 10.16 50.288 0.102 8.04 3.88 11.44
4/29/2022 6:45:00 PM 10.11 50.198 0.102 7.98 3.92 11.37
4/29/2022 7:00:00 PM 10.03 50.054 0.102 7.91 4 11.28
4/29/2022 7:15:00 PM 10 50 0.102 7.88 3.65 11.22
4/29/2022 7:30:00 PM 9.92 49.856 0.102 7.81 3.94 11.09
4/29/2022 7:45:00 PM 9.88 49.784 0.103 7.77 3.98 11.02
4/29/2022 8:00:00 PM 9.85 49.73 0.103 7.71 3.92 10.94
4/29/2022 8:15:00 PM 9.82 49.676 0.103 7.69 4.03 10.84
4/29/2022 8:30:00 PM 9.78 49.604 0.103 7.66 3.96 10.77
4/29/2022 8:45:00 PM 9.76 49.568 0.103 7.62 4.05 10.72
4/29/2022 9:00:00 PM 9.74 49.532 0.103 7.6 4.03 10.68
4/29/2022 9:15:00 PM 9.71 49.478 0.103 7.59 3.76 10.66
4/29/2022 9:30:00 PM 9.69 49.442 0.103 7.57 3.97 10.65
4/29/2022 9:45:00 PM 9.66 49.388 0.103 7.56 3.94 10.64
4/29/2022 10:00:00 PM 9.64 49.352 0.103 7.55 4.47 10.65
4/29/2022 10:15:00 PM 9.62 49.316 0.103 7.53 4.17 10.64
4/29/2022 10:30:00 PM 9.6 49.28 0.103 7.54 3.9 10.62
4/29/2022 10:45:00 PM 9.58 49.244 0.103 7.53 3.74 10.64
4/29/2022 11:00:00 PM 9.54 49.172 0.103 7.52 4.02 10.6
4/29/2022 11:15:00 PM 9.53 49.154 0.103 7.52 4.32 10.62
4/29/2022 11:30:00 PM 9.5 49.1 0.103 7.51 4.14 10.63
4/29/2022 11:45:00 PM 9.47 49.046 0.103 7.51 3.93 10.62
4/30/2022 12:00:00 AM 9.43 48.974 0.103 7.51 3.83 10.62
4/30/2022 12:15:00 AM 9.4 48.92 0.103 7.48 4.07 10.62
4/30/2022 12:30:00 AM 9.36 48.848 0.103 7.5 3.86 10.62
4/30/2022 12:45:00 AM 9.31 48.758 0.103 7.48 3.88 10.61
4/30/2022 1:00:00 AM 9.28 48.704 0.103 7.49 4.13 10.63
4/30/2022 1:15:00 AM 9.23 48.614 0.103 7.48 4.01 10.62
4/30/2022 1:30:00 AM 9.19 48.542 0.103 7.48 4.34 10.66
4/30/2022 1:45:00 AM 9.15 48.47 0.103 7.48 4.68 10.65
4/30/2022 2:00:00 AM 9.1 48.38 0.103 7.48 4.19 10.67
4/30/2022 2:15:00 AM 9.06 48.308 0.103 7.47 4.41 10.65
4/30/2022 2:30:00 AM 9.01 48.218 0.103 7.47 3.96 10.63
4/30/2022 2:45:00 AM 8.96 48.128 0.103 7.44 3.89 10.67
4/30/2022 3:00:00 AM 8.92 48.056 0.103 7.47 3.98 10.67
4/30/2022 3:15:00 AM 8.87 47.966 0.103 7.47 3.78 10.7
4/30/2022 3:30:00 AM 8.83 47.894 0.103 7.46 3.89 10.7
4/30/2022 3:45:00 AM 8.78 47.804 0.103 7.44 4.06 10.7
4/30/2022 4:00:00 AM 8.73 47.714 0.103 7.45 3.68 10.67
4/30/2022 4:15:00 AM 8.68 47.624 0.103 7.46 4.08 10.71
4/30/2022 4:30:00 AM 8.63 47.534 0.103 7.45 3.79 10.73
4/30/2022 4:45:00 AM 8.58 47.444 0.103 7.45 3.89 10.72
4/30/2022 5:00:00 AM 8.53 47.354 0.103 7.44 4.15 10.73
4/30/2022 5:15:00 AM 8.48 47.264 0.103 7.44 3.93 10.77
4/30/2022 5:30:00 AM 8.42 47.156 0.103 7.44 4.22 10.77
4/30/2022 5:45:00 AM 8.36 47.048 0.103 7.44 3.97 10.78
4/30/2022 6:00:00 AM 8.29 46.922 0.103 7.43 4.31 10.8
4/30/2022 6:15:00 AM 8.24 46.832 0.103 7.44 4.34 10.8
4/30/2022 6:30:00 AM 8.17 46.706 0.103 7.44 3.85 10.86
4/30/2022 6:45:00 AM 8.1 46.58 0.102 7.45 3.87 11
4/30/2022 7:00:00 AM 8.05 46.49 0.102 7.45 3.82 11.03
4/30/2022 7:15:00 AM 8.02 46.436 0.102 7.47 3.81 11.07
4/30/2022 7:30:00 AM 7.95 46.31 0.102 7.47 3.94 11.21
4/30/2022 7:45:00 AM 7.91 46.238 0.102 7.5 4.01 11.26
4/30/2022 8:00:00 AM 7.86 46.148 0.102 7.52 3.85 11.42
4/30/2022 8:15:00 AM 7.85 46.13 0.102 7.55 3.95 11.46
4/30/2022 8:30:00 AM 7.86 46.148 0.102 7.57 3.85 11.6
4/30/2022 8:45:00 AM 7.92 46.256 0.102 7.61 3.76 11.74
4/30/2022 9:00:00 AM 8 46.4 0.102 7.63 4.03 11.81
4/30/2022 9:15:00 AM 8.1 46.58 0.102 7.69 3.84 11.96
4/30/2022 9:30:00 AM 8.22 46.796 0.102 7.71 3.69 12.06
4/30/2022 9:45:00 AM 8.35 47.03 0.102 7.79 3.93 12.11
4/30/2022 10:00:00 AM 8.49 47.282 0.102 7.84 3.84 12.16
4/30/2022 10:15:00 AM 8.68 47.624 0.102 7.91 3.73 12.22
4/30/2022 10:30:00 AM 8.84 47.912 0.102 7.96 4.18 12.25
4/30/2022 10:45:00 AM 9.03 48.254 0.101 8.02 3.66 12.29
4/30/2022 11:00:00 AM 9.21 48.578 0.101 8.08 3.72 12.28
4/30/2022 11:15:00 AM 9.49 49.082 0.101 8.18 3.78 12.32
4/30/2022 11:30:00 AM 9.68 49.424 0.101 8.22 3.74 12.33
4/30/2022 11:45:00 AM 9.95 49.91 0.101 8.3 3.51 12.36
4/30/2022 12:00:00 PM 10.17 50.306 0.101 8.34 3.75 12.31
4/30/2022 12:15:00 PM 10.41 50.738 0.101 8.42 3.74 12.3
4/30/2022 12:30:00 PM 10.61 51.098 0.102 8.45 4 12.3
4/30/2022 12:45:00 PM 10.87 51.566 0.102 8.53 3.56 12.26
4/30/2022 1:00:00 PM 11.09 51.962 0.102 8.56 4.14 12.23
4/30/2022 1:15:00 PM 11.26 52.268 0.102 8.59 3.95 12.24
4/30/2022 1:30:00 PM 11.4 52.52 0.102 8.61 3.7 12.17
4/30/2022 1:45:00 PM 11.67 53.006 0.102 8.67 3.7 12.15
4/30/2022 2:00:00 PM 11.73 53.114 0.102 8.66 3.73 12.11
4/30/2022 2:15:00 PM 11.85 53.33 0.102 8.69 3.72 12.09
4/30/2022 2:30:00 PM 11.9 53.42 0.102 8.67 3.65 12.06
4/30/2022 2:45:00 PM 11.91 53.438 0.102 8.69 3.56 12.04
4/30/2022 3:00:00 PM 11.98 53.564 0.102 8.69 3.62 12.02
4/30/2022 3:15:00 PM 12 53.6 0.102 8.7 3.65 11.98
4/30/2022 3:30:00 PM 11.99 53.582 0.102 8.66 3.55 11.95
4/30/2022 3:45:00 PM 11.95 53.51 0.103 8.67 3.73 11.92
4/30/2022 4:00:00 PM 11.87 53.366 0.103 8.65 3.82 11.88
4/30/2022 4:15:00 PM 11.82 53.276 0.103 8.63 4.04 11.85
4/30/2022 4:30:00 PM 11.72 53.096 0.103 8.6 3.63 11.79
4/30/2022 4:45:00 PM 11.69 53.042 0.103 8.58 3.8 11.75
4/30/2022 5:00:00 PM 11.52 52.736 0.103 8.54 3.68 11.69
4/30/2022 5:15:00 PM 11.48 52.664 0.103 8.49 3.68 11.65
4/30/2022 5:30:00 PM 11.39 52.502 0.103 8.45 3.93 11.61
4/30/2022 5:45:00 PM 11.33 52.394 0.103 8.41 4.02 11.58
4/30/2022 6:00:00 PM 11.32 52.376 0.103 8.39 3.58 11.54
4/30/2022 6:15:00 PM 11.23 52.214 0.103 8.31 3.79 11.46
4/30/2022 6:30:00 PM 11.18 52.124 0.103 8.26 3.72 11.37
4/30/2022 6:45:00 PM 11.11 51.998 0.103 8.16 3.55 11.24
4/30/2022 7:00:00 PM 11.08 51.944 0.104 8.08 3.54 11.12
4/30/2022 7:15:00 PM 11.02 51.836 0.104 7.99 3.87 11.02
4/30/2022 7:30:00 PM 11 51.8 0.104 7.94 3.44 10.95
4/30/2022 7:45:00 PM 10.94 51.692 0.104 7.86 3.67 10.81
4/30/2022 8:00:00 PM 10.9 51.62 0.104 7.8 3.87 10.7
4/30/2022 8:15:00 PM 10.86 51.548 0.104 7.76 4.09 10.62
4/30/2022 8:30:00 PM 10.8 51.44 0.105 7.69 4.26 10.49
4/30/2022 8:45:00 PM 10.73 51.314 0.105 7.65 3.6 10.44
4/30/2022 9:00:00 PM 10.67 51.206 0.105 7.62 3.76 10.4
4/30/2022 9:15:00 PM 10.63 51.134 0.105 7.6 3.87 10.38
4/30/2022 9:30:00 PM 10.56 51.008 0.105 7.56 4.02 10.37
4/30/2022 9:45:00 PM 10.53 50.954 0.105 7.57 3.67 10.35
4/30/2022 10:00:00 PM 10.48 50.864 0.105 7.56 3.71 10.36
4/30/2022 10:15:00 PM 10.44 50.792 0.105 7.55 3.93 10.33
4/30/2022 10:30:00 PM 10.4 50.72 0.105 7.53 3.68 10.35
4/30/2022 10:45:00 PM 10.37 50.666 0.105 7.53 3.74 10.32
4/30/2022 11:00:00 PM 10.34 50.612 0.105 7.52 3.89 10.34
4/30/2022 11:15:00 PM 10.32 50.576 0.105 7.52 3.74 10.32
4/30/2022 11:30:00 PM 10.29 50.522 0.105 7.51 3.84 10.29
4/30/2022 11:45:00 PM 10.29 50.522 0.105 7.51 3.9 10.34
5/1/2022 12:00:00 AM 10.26 50.468 0.105 7.5 4.34 10.32
5/1/2022 12:15:00 AM 10.23 50.414 0.105 7.5 3.7 10.3
5/1/2022 12:30:00 AM 10.22 50.396 0.105 7.49 3.96 10.33
5/1/2022 12:45:00 AM 10.19 50.342 0.105 7.49 3.79 10.32
5/1/2022 1:00:00 AM 10.15 50.27 0.105 7.49 3.68 10.31
5/1/2022 1:15:00 AM 10.13 50.234 0.105 7.49 4.27 10.32
5/1/2022 1:30:00 AM 10.1 50.18 0.105 7.46 4.13 10.33
5/1/2022 1:45:00 AM 10.06 50.108 0.105 7.48 3.86 10.34
5/1/2022 2:00:00 AM 10.02 50.036 0.105 7.47 3.91 10.33
5/1/2022 2:15:00 AM 9.98 49.964 0.105 7.47 3.9 10.3
5/1/2022 2:30:00 AM 9.96 49.928 0.105 7.46 4.28 10.34
5/1/2022 2:45:00 AM 9.91 49.838 0.105 7.46 3.87 10.38
5/1/2022 3:00:00 AM 9.87 49.766 0.105 7.46 4.26 10.35
5/1/2022 3:15:00 AM 9.84 49.712 0.105 7.46 3.75 10.38
5/1/2022 3:30:00 AM 9.79 49.622 0.105 7.46 3.75 10.37
5/1/2022 3:45:00 AM 9.74 49.532 0.105 7.44 3.81 10.35
5/1/2022 4:00:00 AM 9.71 49.478 0.105 7.45 4.1 10.38
5/1/2022 4:15:00 AM 9.67 49.406 0.105 7.45 3.96 10.36
5/1/2022 4:30:00 AM 9.64 49.352 0.105 7.45 3.89 10.36
5/1/2022 4:45:00 AM 9.62 49.316 0.105 7.44 3.89 10.4
5/1/2022 5:00:00 AM 9.57 49.226 0.105 7.44 3.87 10.36
5/1/2022 5:15:00 AM 9.54 49.172 0.105 7.44 3.93 10.38
5/1/2022 5:30:00 AM 9.51 49.118 0.105 7.44 3.95 10.38
5/1/2022 5:45:00 AM 9.48 49.064 0.105 7.44 3.93 10.39
5/1/2022 6:00:00 AM 9.43 48.974 0.105 7.44 4.22 10.4
5/1/2022 6:15:00 AM 9.4 48.92 0.105 7.42 3.89 10.41
5/1/2022 6:30:00 AM 9.35 48.83 0.105 7.45 3.72 10.52
5/1/2022 6:45:00 AM 9.3 48.74 0.105 7.44 3.7 10.51
5/1/2022 7:00:00 AM 9.28 48.704 0.105 7.47 3.64 10.64
5/1/2022 7:15:00 AM 9.25 48.65 0.105 7.48 3.74 10.7
5/1/2022 7:30:00 AM 9.23 48.614 0.105 7.5 3.89 10.84
5/1/2022 7:45:00 AM 9.21 48.578 0.105 7.52 4.41 10.96
5/1/2022 8:00:00 AM 9.2 48.56 0.105 7.55 3.93 11.07
5/1/2022 8:15:00 AM 9.19 48.542 0.105 7.57 3.8 11.13
5/1/2022 8:30:00 AM 9.23 48.614 0.105 7.62 3.81 11.33
5/1/2022 8:45:00 AM 9.29 48.722 0.105 7.67 3.78 11.46
5/1/2022 9:00:00 AM 9.37 48.866 0.105 7.72 3.56 11.58
5/1/2022 9:15:00 AM 9.45 49.01 0.105 7.78 3.56 11.67
5/1/2022 9:30:00 AM 9.56 49.208 0.105 7.81 3.73 11.73
5/1/2022 9:45:00 AM 9.7 49.46 0.105 7.85 3.52 11.76
5/1/2022 10:00:00 AM 9.88 49.784 0.104 7.94 3.51 11.86
5/1/2022 10:15:00 AM 10.03 50.054 0.104 7.96 3.42 11.88
5/1/2022 10:30:00 AM 10.23 50.414 0.104 8.06 3.54 11.96
5/1/2022 10:45:00 AM 10.39 50.702 0.104 8.11 3.45 11.97
5/1/2022 11:00:00 AM 10.57 51.026 0.104 8.18 3.55 12
5/1/2022 11:15:00 AM 10.92 51.656 0.104 8.27 3.45 12.05
5/1/2022 11:30:00 AM 11.1 51.98 0.104 8.35 3.65 12.07
5/1/2022 11:45:00 AM 11.35 52.43 0.104 8.47 3.73 12.1
5/1/2022 12:00:00 PM 11.47 52.646 0.104 8.48 3.59 12.12
5/1/2022 12:15:00 PM 11.72 53.096 0.104 8.6 3.58 12.11
5/1/2022 12:30:00 PM 11.96 53.528 0.104 8.64 3.51 12.12
5/1/2022 12:45:00 PM 12.15 53.87 0.104 8.7 3.67 12.12
5/1/2022 1:00:00 PM 12.45 54.41 0.104 8.76 3.66 12.1
5/1/2022 1:15:00 PM 12.56 54.608 0.104 8.78 3.87 12.07
5/1/2022 1:30:00 PM 12.68 54.824 0.104 8.82 3.98 12.05
5/1/2022 1:45:00 PM 12.89 55.202 0.104 8.87 3.85 12.05
5/1/2022 2:00:00 PM 12.84 55.112 0.104 8.88 3.97 11.99
5/1/2022 2:15:00 PM 12.86 55.148 0.104 8.89 3.92 11.99
5/1/2022 2:30:00 PM 12.8 55.04 0.104 8.89 3.82 11.96
5/1/2022 2:45:00 PM 12.73 54.914 0.104 8.9 3.66 11.93
5/1/2022 3:00:00 PM 12.65 54.77 0.105 8.89 3.5 11.91
5/1/2022 3:15:00 PM 12.58 54.644 0.105 8.9 3.59 11.88
5/1/2022 3:30:00 PM 12.51 54.518 0.105 8.87 3.62 11.79
5/1/2022 3:45:00 PM 12.38 54.284 0.105 8.81 3.9 11.63
5/1/2022 4:00:00 PM 12.31 54.158 0.105 8.76 3.55 11.57
5/1/2022 4:15:00 PM 12.21 53.978 0.105 8.71 3.74 11.5
5/1/2022 4:30:00 PM 12.06 53.708 0.106 8.59 3.68 11.37
5/1/2022 4:45:00 PM 11.94 53.492 0.106 8.5 3.58 11.26
5/1/2022 5:00:00 PM 11.86 53.348 0.106 8.4 3.67 11.18
5/1/2022 5:15:00 PM 11.73 53.114 0.106 8.27 3.68 11.04
5/1/2022 5:30:00 PM 11.65 52.97 0.106 8.16 3.5 10.95
5/1/2022 5:45:00 PM 11.55 52.79 0.106 8.08 3.81 10.91
5/1/2022 6:00:00 PM 11.48 52.664 0.107 8 3.51 10.85
5/1/2022 6:15:00 PM 11.4 52.52 0.107 7.95 3.62 10.81
5/1/2022 6:30:00 PM 11.34 52.412 0.107 7.91 3.76 10.79
5/1/2022 6:45:00 PM 11.32 52.376 0.107 7.89 3.92 10.8
5/1/2022 7:00:00 PM 11.26 52.268 0.107 7.86 3.58 10.78
5/1/2022 7:15:00 PM 11.22 52.196 0.107 7.84 3.81 10.72
5/1/2022 7:30:00 PM 11.19 52.142 0.107 7.79 3.7 10.62
5/1/2022 7:45:00 PM 11.15 52.07 0.108 7.74 3.71 10.48
5/1/2022 8:00:00 PM 11.12 52.016 0.108 7.69 3.69 10.37
5/1/2022 8:15:00 PM 11.1 51.98 0.108 7.66 3.62 10.29
5/1/2022 8:30:00 PM 11.1 51.98 0.108 7.62 3.8 10.21
5/1/2022 8:45:00 PM 11.1 51.98 0.108 7.6 4.14 10.16
5/1/2022 9:00:00 PM 11.1 51.98 0.108 7.57 3.82 10.13
5/1/2022 9:15:00 PM 11.11 51.998 0.108 7.57 4.14 10.13
5/1/2022 9:30:00 PM 11.12 52.016 0.108 7.55 4.33 10.09
5/1/2022 9:45:00 PM 11.14 52.052 0.108 7.54 3.88 10.08
5/1/2022 10:00:00 PM 11.15 52.07 0.108 7.53 3.83 10.08
5/1/2022 10:15:00 PM 11.16 52.088 0.108 7.53 4.04 10.05
5/1/2022 10:30:00 PM 11.17 52.106 0.108 7.51 3.99 10.05
5/1/2022 10:45:00 PM 11.18 52.124 0.108 7.52 3.71 10.04
5/1/2022 11:00:00 PM 11.2 52.16 0.108 7.51 3.87 10.05
5/1/2022 11:15:00 PM 11.2 52.16 0.108 7.51 3.75 10.02
5/1/2022 11:30:00 PM 11.21 52.178 0.108 7.49 4.07 10
5/1/2022 11:45:00 PM 11.23 52.214 0.108 7.5 3.64 10.02
5/2/2022 12:00:00 AM 11.23 52.214 0.108 7.48 3.66 9.98
5/2/2022 12:15:00 AM 11.24 52.232 0.108 7.49 3.72 9.99
5/2/2022 12:30:00 AM 11.25 52.25 0.108 7.48 3.56 10
5/2/2022 12:45:00 AM 11.25 52.25 0.108 7.48 3.79 9.98
5/2/2022 1:00:00 AM 11.26 52.268 0.108 7.48 3.93 9.96
5/2/2022 1:15:00 AM 11.27 52.286 0.108 7.48 3.92 9.96
5/2/2022 1:30:00 AM 11.27 52.286 0.108 7.46 3.81 9.95
5/2/2022 1:45:00 AM 11.28 52.304 0.108 7.47 3.62 9.97
5/2/2022 2:00:00 AM 11.28 52.304 0.108 7.47 3.96 9.97
5/2/2022 2:15:00 AM 11.28 52.304 0.108 7.46 3.93 9.94
5/2/2022 2:30:00 AM 11.29 52.322 0.107 7.47 3.79 9.96
5/2/2022 2:45:00 AM 11.29 52.322 0.107 7.45 4.17 9.93
5/2/2022 3:00:00 AM 11.29 52.322 0.107 7.46 4.42 9.94
5/2/2022 3:15:00 AM 11.3 52.34 0.107 7.46 4.8 9.95
5/2/2022 3:30:00 AM 11.31 52.358 0.107 7.46 4.49 9.93
5/2/2022 3:45:00 AM 11.33 52.394 0.107 7.45 4.6 9.91
5/2/2022 4:00:00 AM 11.34 52.412 0.107 7.44 4.22 9.92
5/2/2022 4:15:00 AM 11.36 52.448 0.107 7.45 4.86 9.93
5/2/2022 4:30:00 AM 11.36 52.448 0.107 7.43 5.05 9.89
5/2/2022 4:45:00 AM 11.37 52.466 0.107 7.44 5.08 9.89
5/2/2022 5:00:00 AM 11.38 52.484 0.107 7.44 5.45 9.9
5/2/2022 5:15:00 AM 11.4 52.52 0.107 7.44 5.08 9.92
5/2/2022 5:30:00 AM 11.4 52.52 0.107 7.44 5.37 9.88
5/2/2022 5:45:00 AM 11.41 52.538 0.107 7.44 6.11 9.88
5/2/2022 6:00:00 AM 11.42 52.556 0.107 7.44 5.45 9.89
5/2/2022 6:15:00 AM 11.43 52.574 0.107 7.43 5.09 9.89
5/2/2022 6:30:00 AM 11.44 52.592 0.107 7.44 4.82 9.92
5/2/2022 6:45:00 AM 11.44 52.592 0.108 7.44 4.92 9.93
5/2/2022 7:00:00 AM 11.44 52.592 0.108 7.45 4.83 9.96
5/2/2022 7:15:00 AM 11.44 52.592 0.108 7.45 4.55 10.04
5/2/2022 7:30:00 AM 11.44 52.592 0.108 7.47 4.09 10.09
5/2/2022 7:45:00 AM 11.44 52.592 0.108 7.48 4.34 10.17
5/2/2022 8:00:00 AM 11.44 52.592 0.108 7.5 4.08 10.19
5/2/2022 8:15:00 AM 11.44 52.592 0.108 7.52 3.79 10.34
5/2/2022 8:30:00 AM 11.45 52.61 0.108 7.56 4.07 10.44
5/2/2022 8:45:00 AM 11.47 52.646 0.108 7.6 4.22 10.61
5/2/2022 9:00:00 AM 11.48 52.664 0.108 7.63 3.74 10.66
5/2/2022 9:15:00 AM 11.51 52.718 0.108 7.69 3.97 10.8
5/2/2022 9:30:00 AM 11.54 52.772 0.107 7.74 4.1 10.93
5/2/2022 9:45:00 AM 11.58 52.844 0.107 7.77 3.91 10.98
5/2/2022 10:00:00 AM 11.64 52.952 0.107 7.86 4.08 11.14
5/2/2022 10:15:00 AM 11.67 53.006 0.107 7.92 3.91 11.2
5/2/2022 10:30:00 AM 11.71 53.078 0.108 7.98 3.65 11.27
5/2/2022 10:45:00 AM 11.73 53.114 0.108 8.03 3.74 11.28
5/2/2022 11:00:00 AM 11.79 53.222 0.108 8.11 4.19 11.36
5/2/2022 11:15:00 AM 11.8 53.24 0.108 8.11 4.1 11.32
5/2/2022 11:30:00 AM 11.8 53.24 0.108 8.13 4.4 11.3
5/2/2022 11:45:00 AM 11.81 53.258 0.108 8.14 4.06 11.3
5/2/2022 12:00:00 PM 11.81 53.258 0.108 8.13 4.17 11.25
5/2/2022 12:15:00 PM 11.8 53.24 0.108 8.1 4.33 11.18
5/2/2022 12:30:00 PM 11.84 53.312 0.108 8.13 4.2 11.24
5/2/2022 12:45:00 PM 11.85 53.33 0.108 8.14 4.1 11.27
5/2/2022 1:00:00 PM 11.88 53.384 0.108 8.18 4.23 11.28
5/2/2022 1:15:00 PM 11.95 53.51 0.108 8.23 4.16 11.37
5/2/2022 1:30:00 PM 12.08 53.744 0.108 8.31 4.35 11.45
5/2/2022 1:45:00 PM 12.48 54.464 0.107 8.42 4.23 11.59
5/2/2022 2:00:00 PM 12.72 54.896 0.107 8.5 4.05 11.62
5/2/2022 2:15:00 PM 12.8 55.04 0.107 8.53 3.97 11.54
5/2/2022 2:30:00 PM 12.79 55.022 0.107 8.53 4.08 11.45
5/2/2022 2:45:00 PM 12.73 54.914 0.107 8.48 3.68 11.32
5/2/2022 3:00:00 PM 12.64 54.752 0.108 8.42 3.98 11.2
5/2/2022 3:15:00 PM 12.6 54.68 0.108 8.31 3.96 11.08
5/2/2022 3:30:00 PM 12.53 54.554 0.108 8.2 3.9 10.91
5/2/2022 3:45:00 PM 12.54 54.572 0.108 8.12 3.97 10.86
5/2/2022 4:00:00 PM 12.67 54.806 0.108 8.15 3.83 10.96
5/2/2022 4:15:00 PM 12.72 54.896 0.108 8.1 3.97 10.84
5/2/2022 4:30:00 PM 12.73 54.914 0.108 8.03 3.83 10.76
5/2/2022 4:45:00 PM 12.74 54.932 0.108 8.04 3.85 10.77
5/2/2022 5:00:00 PM 12.76 54.968 0.108 8.06 3.79 10.84
5/2/2022 5:15:00 PM 12.74 54.932 0.108 8.06 3.85 10.82
5/2/2022 5:30:00 PM 12.72 54.896 0.108 8.09 3.88 10.88
5/2/2022 5:45:00 PM 12.69 54.842 0.108 8.07 3.99 10.78
5/2/2022 6:00:00 PM 12.65 54.77 0.109 7.98 3.97 10.61
5/2/2022 6:15:00 PM 12.65 54.77 0.109 7.93 4.05 10.58
5/2/2022 6:30:00 PM 12.64 54.752 0.109 7.9 3.78 10.54
5/2/2022 6:45:00 PM 12.63 54.734 0.109 7.86 4.3 10.48
5/2/2022 7:00:00 PM 12.61 54.698 0.109 7.82 4.57 10.36
5/2/2022 7:15:00 PM 12.58 54.644 0.109 7.77 4.3 10.24
5/2/2022 7:30:00 PM 12.57 54.626 0.109 7.73 4.16 10.16
5/2/2022 7:45:00 PM 12.53 54.554 0.109 7.67 4.18 10.09
5/2/2022 8:00:00 PM 12.5 54.5 0.109 7.66 4.19 10.03
5/2/2022 8:15:00 PM 12.47 54.446 0.109 7.63 4.04 9.97
5/2/2022 8:30:00 PM 12.45 54.41 0.109 7.59 4.13 9.91
5/2/2022 8:45:00 PM 12.44 54.392 0.109 7.58 4.16 9.9
5/2/2022 9:00:00 PM 12.43 54.374 0.109 7.56 3.92 9.87
5/2/2022 9:15:00 PM 12.42 54.356 0.109 7.56 4.11 9.85
5/2/2022 9:30:00 PM 12.41 54.338 0.109 7.54 4.27 9.85
5/2/2022 9:45:00 PM 12.4 54.32 0.109 7.54 4.05 9.81
5/2/2022 10:00:00 PM 12.39 54.302 0.109 7.53 4.03 9.82
5/2/2022 10:15:00 PM 12.39 54.302 0.109 7.52 3.98 9.83
5/2/2022 10:30:00 PM 12.39 54.302 0.109 7.51 4.32 9.83
5/2/2022 10:45:00 PM 12.38 54.284 0.109 7.51 3.91 9.81
5/2/2022 11:00:00 PM 12.35 54.23 0.109 7.5 3.89 9.82
5/2/2022 11:15:00 PM 12.3 54.14 0.109 7.5 4.29 9.82
5/2/2022 11:30:00 PM 12.27 54.086 0.109 7.48 4.24 9.82
5/2/2022 11:45:00 PM 12.23 54.014 0.109 7.49 4.02 9.83
5/3/2022 12:00:00 AM 12.19 53.942 0.109 7.49 3.84 9.82
5/3/2022 12:15:00 AM 12.15 53.87 0.109 7.47 4.14 9.84
5/3/2022 12:30:00 AM 12.12 53.816 0.109 7.46 4.15 9.83
5/3/2022 12:45:00 AM 12.1 53.78 0.109 7.48 4.29 9.85
5/3/2022 1:00:00 AM 12.09 53.762 0.109 7.47 4.43 9.85
5/3/2022 1:15:00 AM 12.08 53.744 0.109 7.47 4.15 9.82
5/3/2022 1:30:00 AM 12.06 53.708 0.109 7.47 4.24 9.84
5/3/2022 1:45:00 AM 12.05 53.69 0.108 7.47 3.84 9.86
5/3/2022 2:00:00 AM 12.04 53.672 0.108 7.46 4.08 9.86
5/3/2022 2:15:00 AM 12.02 53.636 0.108 7.47 4 9.84
5/3/2022 2:30:00 AM 11.99 53.582 0.108 7.46 4.27 9.81
5/3/2022 2:45:00 AM 11.98 53.564 0.108 7.46 4.81 9.83
5/3/2022 3:00:00 AM 11.97 53.546 0.108 7.46 4.14 9.84
5/3/2022 3:15:00 AM 11.97 53.546 0.108 7.45 4.13 9.84
5/3/2022 3:30:00 AM 11.96 53.528 0.108 7.45 4.01 9.8
5/3/2022 3:45:00 AM 11.97 53.546 0.108 7.45 3.9 9.84
5/3/2022 4:00:00 AM 11.96 53.528 0.108 7.45 3.94 9.82
5/3/2022 4:15:00 AM 11.95 53.51 0.108 7.45 4.16 9.85
5/3/2022 4:30:00 AM 11.94 53.492 0.108 7.45 4.08 9.82
5/3/2022 4:45:00 AM 11.92 53.456 0.108 7.45 4.23 9.81
5/3/2022 5:00:00 AM 11.9 53.42 0.108 7.43 4.11 9.79
5/3/2022 5:15:00 AM 11.88 53.384 0.108 7.43 4.23 9.82
5/3/2022 5:30:00 AM 11.85 53.33 0.108 7.43 4.43 9.82
5/3/2022 5:45:00 AM 11.83 53.294 0.108 7.43 4.21 9.82
5/3/2022 6:00:00 AM 11.79 53.222 0.108 7.43 4.07 9.82
5/3/2022 6:15:00 AM 11.76 53.168 0.108 7.43 3.97 9.85
5/3/2022 6:30:00 AM 11.71 53.078 0.108 7.43 4.1 9.85
5/3/2022 6:45:00 AM 11.66 52.988 0.108 7.44 4.16 10
5/3/2022 7:00:00 AM 11.64 52.952 0.108 7.46 3.84 10.01
5/3/2022 7:15:00 AM 11.61 52.898 0.108 7.48 3.89 10.11
5/3/2022 7:30:00 AM 11.6 52.88 0.108 7.5 3.7 10.25
5/3/2022 7:45:00 AM 11.58 52.844 0.108 7.54 4.03 10.4
5/3/2022 8:00:00 AM 11.58 52.844 0.108 7.55 4.02 10.44
5/3/2022 8:15:00 AM 11.58 52.844 0.108 7.59 3.73 10.55
5/3/2022 8:30:00 AM 11.62 52.916 0.108 7.62 4.25 10.65
5/3/2022 8:45:00 AM 11.7 53.06 0.108 7.67 4.32 10.81
5/3/2022 9:00:00 AM 11.79 53.222 0.108 7.72 3.54 10.93
5/3/2022 9:15:00 AM 11.88 53.384 0.108 7.78 4.09 11.06
5/3/2022 9:30:00 AM 12.01 53.618 0.107 7.86 3.65 11.17
5/3/2022 9:45:00 AM 12.13 53.834 0.107 7.9 3.66 11.21
5/3/2022 10:00:00 AM 12.3 54.14 0.107 7.99 3.66 11.3
5/3/2022 10:15:00 AM 12.45 54.41 0.107 8.07 3.61 11.35
5/3/2022 10:30:00 AM 12.59 54.662 0.107 8.14 3.55 11.38
5/3/2022 10:45:00 AM 12.82 55.076 0.107 8.25 3.43 11.47
5/3/2022 11:00:00 AM 12.98 55.364 0.107 8.33 3.47 11.51
5/3/2022 11:15:00 AM 13.13 55.634 0.107 8.4 3.71 11.53
5/3/2022 11:30:00 AM 13.42 56.156 0.107 8.5 3.58 11.61
5/3/2022 11:45:00 AM 13.53 56.354 0.107 8.54 3.53 11.56
5/3/2022 12:00:00 PM 13.77 56.786 0.107 8.63 3.63 11.63
5/3/2022 12:15:00 PM 13.91 57.038 0.107 8.66 3.77 11.57
5/3/2022 12:30:00 PM 14.2 57.56 0.107 8.73 3.83 11.59
5/3/2022 12:45:00 PM 14.29 57.722 0.107 8.74 3.63 11.58
5/3/2022 1:00:00 PM 14.5 58.1 0.107 8.78 3.92 11.53
5/3/2022 1:15:00 PM 14.56 58.208 0.107 8.8 4.1 11.52
5/3/2022 1:30:00 PM 14.69 58.442 0.107 8.83 3.9 11.5
5/3/2022 1:45:00 PM 14.76 58.568 0.107 8.85 3.77 11.48
5/3/2022 2:00:00 PM 14.76 58.568 0.107 8.85 3.78 11.43
5/3/2022 2:15:00 PM 14.73 58.514 0.107 8.84 3.92 11.37
5/3/2022 2:30:00 PM 14.72 58.496 0.107 8.84 3.96 11.34
5/3/2022 2:45:00 PM 14.69 58.442 0.107 8.82 3.64 11.31
5/3/2022 3:00:00 PM 14.63 58.334 0.107 8.8 3.74 11.27
5/3/2022 3:15:00 PM 14.67 58.406 0.107 8.8 3.7 11.24
5/3/2022 3:30:00 PM 14.68 58.424 0.108 8.79 3.71 11.21
5/3/2022 3:45:00 PM 14.65 58.37 0.108 8.77 3.73 11.16
5/3/2022 4:00:00 PM 14.6 58.28 0.108 8.74 3.66 11.08
5/3/2022 4:15:00 PM 14.54 58.172 0.108 8.68 3.33 10.98
5/3/2022 4:30:00 PM 14.49 58.082 0.108 8.62 3.68 10.89
5/3/2022 4:45:00 PM 14.41 57.938 0.108 8.56 3.67 10.82
5/3/2022 5:00:00 PM 14.32 57.776 0.108 8.48 9.58 10.74
5/3/2022 5:15:00 PM 14.3 57.74 0.108 8.43 3.81 10.68
5/3/2022 5:30:00 PM 14.26 57.668 0.108 8.36 3.73 10.63
5/3/2022 5:45:00 PM 14.24 57.632 0.108 8.32 4.09 10.57
5/3/2022 6:00:00 PM 14.22 57.596 0.108 8.25 3.68 10.51
5/3/2022 6:15:00 PM 14.22 57.596 0.108 8.21 3.87 10.5
5/3/2022 6:30:00 PM 14.2 57.56 0.109 8.16 3.63 10.45
5/3/2022 6:45:00 PM 14.17 57.506 0.109 8.1 3.71 10.35
5/3/2022 7:00:00 PM 14.16 57.488 0.109 8.04 3.79 10.25
5/3/2022 7:15:00 PM 14.11 57.398 0.109 7.91 4.06 10.07
5/3/2022 7:30:00 PM 14.09 57.362 0.109 7.87 4.21 9.94
5/3/2022 7:45:00 PM 14.05 57.29 0.109 7.8 3.58 9.8
5/3/2022 8:00:00 PM 14.03 57.254 0.11 7.74 3.67 9.68
5/3/2022 8:15:00 PM 14.02 57.236 0.11 7.71 4.18 9.61
5/3/2022 8:30:00 PM 13.99 57.182 0.11 7.65 3.89 9.5
5/3/2022 8:45:00 PM 13.99 57.182 0.11 7.63 3.74 9.46
5/3/2022 9:00:00 PM 13.98 57.164 0.11 7.61 3.79 9.4
5/3/2022 9:15:00 PM 13.98 57.164 0.11 7.59 4.12 9.36
5/3/2022 9:30:00 PM 13.98 57.164 0.11 7.58 3.87 9.33
5/3/2022 9:45:00 PM 13.98 57.164 0.11 7.56 3.98 9.32
5/3/2022 10:00:00 PM 13.97 57.146 0.11 7.55 4.2 9.3
5/3/2022 10:15:00 PM 13.98 57.164 0.11 7.54 3.71 9.29
5/3/2022 10:30:00 PM 13.98 57.164 0.11 7.53 4.03 9.26
5/3/2022 10:45:00 PM 14 57.2 0.11 7.52 3.82 9.28
5/3/2022 11:00:00 PM 13.99 57.182 0.11 7.49 3.96 9.27
5/3/2022 11:15:00 PM 14 57.2 0.11 7.51 4.28 9.26
5/3/2022 11:30:00 PM 13.99 57.182 0.11 7.49 3.89 9.26
5/3/2022 11:45:00 PM 13.99 57.182 0.11 7.5 3.77 9.26
5/4/2022 12:00:00 AM 13.97 57.146 0.11 7.47 3.91 9.2
5/4/2022 12:15:00 AM 13.97 57.146 0.11 7.49 3.78 9.24
5/4/2022 12:30:00 AM 13.97 57.146 0.11 7.47 3.79 9.24
5/4/2022 12:45:00 AM 13.96 57.128 0.11 7.48 3.7 9.24
5/4/2022 1:00:00 AM 13.93 57.074 0.11 7.48 4.1 9.22
5/4/2022 1:15:00 AM 13.92 57.056 0.11 7.48 3.74 9.22
5/4/2022 1:30:00 AM 13.9 57.02 0.11 7.47 3.73 9.21
5/4/2022 1:45:00 AM 13.89 57.002 0.109 7.47 3.91 9.22
5/4/2022 2:00:00 AM 13.88 56.984 0.109 7.47 3.77 9.22
5/4/2022 2:15:00 AM 13.87 56.966 0.109 7.47 4.2 9.21
5/4/2022 2:30:00 AM 13.86 56.948 0.109 7.46 3.81 9.22
5/4/2022 2:45:00 AM 13.85 56.93 0.109 7.47 4.11 9.22
5/4/2022 3:00:00 AM 13.84 56.912 0.109 7.46 4.21 9.21
5/4/2022 3:15:00 AM 13.82 56.876 0.109 7.46 3.99 9.17
5/4/2022 3:30:00 AM 13.81 56.858 0.109 7.45 4.19 9.18
5/4/2022 3:45:00 AM 13.8 56.84 0.109 7.46 3.92 9.22
5/4/2022 4:00:00 AM 13.78 56.804 0.109 7.46 4.06 9.19
5/4/2022 4:15:00 AM 13.77 56.786 0.109 7.45 4.16 9.2
5/4/2022 4:30:00 AM 13.75 56.75 0.109 7.45 3.94 9.18
5/4/2022 4:45:00 AM 13.74 56.732 0.109 7.46 4.02 9.2
5/4/2022 5:00:00 AM 13.73 56.714 0.109 7.44 3.98 9.19
5/4/2022 5:15:00 AM 13.73 56.714 0.109 7.46 4.16 9.22
5/4/2022 5:30:00 AM 13.72 56.696 0.11 7.44 4.26 9.17
5/4/2022 5:45:00 AM 13.72 56.696 0.11 7.44 42.76 9.14
5/4/2022 6:00:00 AM 13.72 56.696 0.11 7.44 4.1 9.15
5/4/2022 6:15:00 AM 13.71 56.678 0.11 7.44 4.69 9.16
5/4/2022 6:30:00 AM 13.7 56.66 0.11 7.44 3.89 9.18
5/4/2022 6:45:00 AM 13.7 56.66 0.11 7.45 3.7 9.21
5/4/2022 7:00:00 AM 13.69 56.642 0.11 7.45 4.08 9.23
5/4/2022 7:15:00 AM 13.68 56.624 0.11 7.46 4.95 9.28
5/4/2022 7:30:00 AM 13.67 56.606 0.11 7.47 3.95 9.32
5/4/2022 7:45:00 AM 13.67 56.606 0.11 7.48 3.71 9.35
5/4/2022 8:00:00 AM 13.66 56.588 0.11 7.49 3.94 9.39
5/4/2022 8:15:00 AM 13.66 56.588 0.11 7.49 3.87 9.43
5/4/2022 8:30:00 AM 13.66 56.588 0.11 7.52 4.08 9.53
5/4/2022 8:45:00 AM 13.68 56.624 0.11 7.55 3.74 9.7
5/4/2022 9:00:00 AM 13.7 56.66 0.11 7.59 3.75 9.85
5/4/2022 9:15:00 AM 13.71 56.678 0.11 7.62 3.84 9.95
5/4/2022 9:30:00 AM 13.72 56.696 0.11 7.65 3.79 10.01
5/4/2022 9:45:00 AM 13.73 56.714 0.11 7.68 3.81 10.06
5/4/2022 10:00:00 AM 13.75 56.75 0.11 7.71 4.08 10.14
5/4/2022 10:15:00 AM 13.76 56.768 0.11 7.75 3.87 10.21
5/4/2022 10:30:00 AM 13.78 56.804 0.11 7.76 3.89 10.2
5/4/2022 10:45:00 AM 13.85 56.93 0.11 7.84 3.92 10.41
5/4/2022 11:00:00 AM 13.88 56.984 0.11 7.84 3.89 10.42
5/4/2022 11:15:00 AM 13.94 57.092 0.11 7.92 3.59 10.49
5/4/2022 11:30:00 AM 14.02 57.236 0.11 8.05 4.05 10.67
5/4/2022 11:45:00 AM 14.02 57.236 0.11 8.07 4.05 10.67
5/4/2022 12:00:00 PM 14.07 57.326 0.11 8.16 4.27 10.74
5/4/2022 12:15:00 PM 14.11 57.398 0.11 8.22 4.2 10.78
5/4/2022 12:30:00 PM 14.13 57.434 0.11 8.24 4.1 10.77
5/4/2022 12:45:00 PM 14.13 57.434 0.11 8.25 4.33 10.78
5/4/2022 1:00:00 PM 14.1 57.38 0.11 8.21 3.94 10.68
5/4/2022 1:15:00 PM 14.1 57.38 0.111 8.25 4.08 10.73
5/4/2022 1:30:00 PM 14.12 57.416 0.111 8.23 4.78 10.7
5/4/2022 1:45:00 PM 14.16 57.488 0.111 8.29 4.2 10.78
5/4/2022 2:00:00 PM 14.27 57.686 0.111 8.38 4.13 10.93
5/4/2022 2:15:00 PM 14.44 57.992 0.11 8.4 4.05 10.93
5/4/2022 2:30:00 PM 14.68 58.424 0.11 8.47 4.11 10.95
5/4/2022 2:45:00 PM 14.75 58.55 0.11 8.5 4.03 10.97
5/4/2022 3:00:00 PM 14.78 58.604 0.11 8.51 3.93 10.89
5/4/2022 3:15:00 PM 14.9 58.82 0.11 8.52 4.27 10.9
5/4/2022 3:30:00 PM 15.01 59.018 0.11 8.53 3.84 10.84
5/4/2022 3:45:00 PM 15 59 0.111 8.45 4.07 10.62
5/4/2022 4:00:00 PM 14.87 58.766 0.111 8.29 3.81 10.41
5/4/2022 4:15:00 PM 14.83 58.694 0.111 8.21 4.06 10.25
5/4/2022 4:30:00 PM 14.77 58.586 0.111 8.06 4.11 10.06
5/4/2022 4:45:00 PM 14.69 58.442 0.111 7.97 4.56 10.01
5/4/2022 5:00:00 PM 14.69 58.442 0.111 7.96 3.79 10.03
5/4/2022 5:15:00 PM 14.66 58.388 0.112 7.93 4.28 9.99
5/4/2022 5:30:00 PM 14.64 58.352 0.112 7.92 4.3 9.99
5/4/2022 5:45:00 PM 14.59 58.262 0.112 7.89 4.02 9.9
5/4/2022 6:00:00 PM 14.51 58.118 0.112 7.81 4.21 9.82
5/4/2022 6:15:00 PM 14.45 58.01 0.112 7.78 4.15 9.7
5/4/2022 6:30:00 PM 14.35 57.83 0.112 7.73 3.9 9.66
5/4/2022 6:45:00 PM 14.27 57.686 0.113 7.68 4.34 9.61
5/4/2022 7:00:00 PM 14.21 57.578 0.113 7.68 3.83 9.56
5/4/2022 7:15:00 PM 14.14 57.452 0.113 7.66 4.41 9.54
5/4/2022 7:30:00 PM 14.07 57.326 0.113 7.64 3.92 9.56
5/4/2022 7:45:00 PM 14.02 57.236 0.113 7.62 4.17 9.51
5/4/2022 8:00:00 PM 13.98 57.164 0.113 7.6 4.41 9.44
5/4/2022 8:15:00 PM 13.92 57.056 0.113 7.58 4.18 9.38
5/4/2022 8:30:00 PM 13.88 56.984 0.113 7.57 4.6 9.38
5/4/2022 8:45:00 PM 13.82 56.876 0.113 7.56 4.53 9.38
5/4/2022 9:00:00 PM 13.78 56.804 0.113 7.55 4.5 9.36
5/4/2022 9:15:00 PM 13.74 56.732 0.113 7.53 4.3 9.38
5/4/2022 9:30:00 PM 13.7 56.66 0.113 7.53 4.09 9.39
5/4/2022 9:45:00 PM 13.67 56.606 0.113 7.52 4.4 9.42
5/4/2022 10:00:00 PM 13.67 56.606 0.113 7.52 4.33 9.37
5/4/2022 10:15:00 PM 13.65 56.57 0.113 7.51 4 9.36
5/4/2022 10:30:00 PM 13.63 56.534 0.113 7.52 4.02 9.4
5/4/2022 10:45:00 PM 13.62 56.516 0.113 7.51 3.88 9.4
5/4/2022 11:00:00 PM 13.61 56.498 0.113 7.51 4.34 9.39
5/4/2022 11:15:00 PM 13.61 56.498 0.113 7.5 4.08 9.39
5/4/2022 11:30:00 PM 13.61 56.498 0.113 7.47 4.44 9.37
5/4/2022 11:45:00 PM 13.62 56.516 0.112 7.5 4.04 9.42
5/5/2022 12:00:00 AM 13.62 56.516 0.112 7.5 4.32 9.41
5/5/2022 12:15:00 AM 13.61 56.498 0.113 7.48 4 9.4
5/5/2022 12:30:00 AM 13.61 56.498 0.113 7.48 4.01 9.35
5/5/2022 12:45:00 AM 13.6 56.48 0.112 7.49 4.46 9.38
5/5/2022 1:00:00 AM 13.58 56.444 0.113 7.48 4.34 9.39
5/5/2022 1:15:00 AM 13.56 56.408 0.112 7.48 4.5 9.44
5/5/2022 1:30:00 AM 13.54 56.372 0.112 7.48 4.89 9.39
5/5/2022 1:45:00 AM 13.52 56.336 0.112 7.48 4.14 9.41
5/5/2022 2:00:00 AM 13.49 56.282 0.112 7.48 5.05 9.42
5/5/2022 2:15:00 AM 13.47 56.246 0.112 7.48 4.21 9.39
5/5/2022 2:30:00 AM 13.44 56.192 0.112 7.48 4.68 9.43
5/5/2022 2:45:00 AM 13.42 56.156 0.112 7.45 4.19 9.41
5/5/2022 3:00:00 AM 13.38 56.084 0.112 7.47 4.56 9.45
5/5/2022 3:15:00 AM 13.34 56.012 0.112 7.48 4.63 9.46
5/5/2022 3:30:00 AM 13.32 55.976 0.112 7.47 4.36 9.41
5/5/2022 3:45:00 AM 13.26 55.868 0.112 7.47 4.18 9.41
5/5/2022 4:00:00 AM 13.2 55.76 0.112 7.47 4.12 9.47
5/5/2022 4:15:00 AM 13.18 55.724 0.112 7.47 4.33 9.46
5/5/2022 4:30:00 AM 13.16 55.688 0.112 7.47 4.07 9.48
5/5/2022 4:45:00 AM 13.14 55.652 0.112 7.47 3.99 9.48
5/5/2022 5:00:00 AM 13.13 55.634 0.112 7.46 4.24 9.45
5/5/2022 5:15:00 AM 13.1 55.58 0.112 7.47 4.28 9.5
5/5/2022 5:30:00 AM 13.07 55.526 0.112 7.46 4.19 9.48
5/5/2022 5:45:00 AM 13.01 55.418 0.112 7.47 4.36 9.48
5/5/2022 6:00:00 AM 12.94 55.292 0.112 7.47 3.92 9.52
5/5/2022 6:15:00 AM 12.9 55.22 0.112 7.47 4.27 9.52
5/5/2022 6:30:00 AM 12.86 55.148 0.113 7.44 4.15 9.51
5/5/2022 6:45:00 AM 12.79 55.022 0.113 7.48 5.15 9.61
5/5/2022 7:00:00 AM 12.75 54.95 0.113 7.49 4.29 9.65
5/5/2022 7:15:00 AM 12.71 54.878 0.113 7.5 3.88 9.72
5/5/2022 7:30:00 AM 12.68 54.824 0.113 7.51 3.98 9.78
5/5/2022 7:45:00 AM 12.66 54.788 0.113 7.52 4.23 9.87
5/5/2022 8:00:00 AM 12.64 54.752 0.113 7.56 4.52 9.98
5/5/2022 8:15:00 AM 12.64 54.752 0.113 7.58 4.13 10.11
5/5/2022 8:30:00 AM 12.67 54.806 0.113 7.59 3.89 10.17
5/5/2022 8:45:00 AM 12.71 54.878 0.113 7.64 3.99 10.28
5/5/2022 9:00:00 AM 12.76 54.968 0.113 7.7 3.79 10.48
5/5/2022 9:15:00 AM 12.87 55.166 0.113 7.72 3.73 10.54
5/5/2022 9:30:00 AM 12.97 55.346 0.113 7.76 3.89 10.61
5/5/2022 9:45:00 AM 13.07 55.526 0.113 7.8 3.79 10.7
5/5/2022 10:00:00 AM 13.19 55.742 0.113 7.84 3.67 10.75
5/5/2022 10:15:00 AM 13.33 55.994 0.112 7.91 3.67 10.85
5/5/2022 10:30:00 AM 13.49 56.282 0.112 7.97 3.68 10.91
5/5/2022 10:45:00 AM 13.63 56.534 0.112 7.99 3.64 10.95
5/5/2022 11:00:00 AM 13.79 56.822 0.112 8.07 3.92 10.99
5/5/2022 11:15:00 AM 14.04 57.272 0.112 8.18 3.64 11.07
5/5/2022 11:30:00 AM 14.25 57.65 0.112 8.25 3.78 11.09
5/5/2022 11:45:00 AM 14.44 57.992 0.112 8.28 4.14 11.11
5/5/2022 12:00:00 PM 14.68 58.424 0.112 8.39 3.78 11.11
5/5/2022 12:15:00 PM 14.85 58.73 0.112 8.42 4.01 11.13
5/5/2022 12:30:00 PM 15.07 59.126 0.112 8.5 3.85 11.15
5/5/2022 12:45:00 PM 15.26 59.468 0.112 8.52 4.18 11.11
5/5/2022 1:00:00 PM 15.35 59.63 0.112 8.56 4.13 11.12
5/5/2022 1:15:00 PM 15.43 59.774 0.112 8.59 3.85 11.09
5/5/2022 1:30:00 PM 15.54 59.972 0.112 8.62 4.05 11.1
5/5/2022 1:45:00 PM 15.61 60.098 0.112 8.64 4.29 11.07
5/5/2022 2:00:00 PM 15.68 60.224 0.112 8.67 4.29 11.05
5/5/2022 2:15:00 PM 15.74 60.332 0.112 8.67 3.96 11.02
5/5/2022 2:30:00 PM 15.76 60.368 0.112 8.7 4 11
5/5/2022 2:45:00 PM 15.73 60.314 0.112 8.7 4.13 10.95
5/5/2022 3:00:00 PM 15.73 60.314 0.112 8.7 4.15 10.94
5/5/2022 3:15:00 PM 15.77 60.386 0.112 8.69 4.17 10.92
5/5/2022 3:30:00 PM 15.83 60.494 0.112 8.69 4.11 10.89
5/5/2022 3:45:00 PM 15.84 60.512 0.112 8.69 4.09 10.85
5/5/2022 4:00:00 PM 15.84 60.512 0.112 8.68 3.85 10.85
5/5/2022 4:15:00 PM 15.77 60.386 0.112 8.64 5.25 10.76
5/5/2022 4:30:00 PM 15.75 60.35 0.112 8.62 3.85 10.71
5/5/2022 4:45:00 PM 15.62 60.116 0.112 8.57 3.81 10.64
5/5/2022 5:00:00 PM 15.6 60.08 0.112 8.53 4.04 10.61
5/5/2022 5:15:00 PM 15.57 60.026 0.112 8.52 3.73 10.58
5/5/2022 5:30:00 PM 15.5 59.9 0.113 8.46 3.73 10.49
5/5/2022 5:45:00 PM 15.44 59.792 0.113 8.4 3.75 10.4
5/5/2022 6:00:00 PM 15.37 59.666 0.113 8.36 3.86 10.35
5/5/2022 6:15:00 PM 15.28 59.504 0.113 8.26 3.67 10.21
5/5/2022 6:30:00 PM 15.23 59.414 0.113 8.18 4.04 10.13
5/5/2022 6:45:00 PM 15.18 59.324 0.113 8.08 3.67 10
5/5/2022 7:00:00 PM 15.16 59.288 0.113 8.02 3.95 9.91
5/5/2022 7:15:00 PM 15.12 59.216 0.113 7.94 3.97 9.79
5/5/2022 7:30:00 PM 15.09 59.162 0.113 7.88 3.57 9.7
5/5/2022 7:45:00 PM 15.06 59.108 0.114 7.83 3.91 9.59
5/5/2022 8:00:00 PM 15.03 59.054 0.114 7.77 4.12 9.47
5/5/2022 8:15:00 PM 14.99 58.982 0.114 7.72 4.44 9.35
5/5/2022 8:30:00 PM 14.93 58.874 0.114 7.67 3.79 9.26
5/5/2022 8:45:00 PM 14.89 58.802 0.114 7.64 3.72 9.2
5/5/2022 9:00:00 PM 14.84 58.712 0.114 7.61 3.64 9.15
5/5/2022 9:15:00 PM 14.8 58.64 0.114 7.59 3.78 9.11
5/5/2022 9:30:00 PM 14.76 58.568 0.115 7.57 3.76 9.1
5/5/2022 9:45:00 PM 14.72 58.496 0.115 7.56 3.72 9.1
5/5/2022 10:00:00 PM 14.68 58.424 0.115 7.54 3.73 9.09
5/5/2022 10:15:00 PM 14.64 58.352 0.115 7.53 4.64 9.09
5/5/2022 10:30:00 PM 14.61 58.298 0.115 7.53 4.26 9.09
5/5/2022 10:45:00 PM 14.59 58.262 0.115 7.52 4.26 9.08
5/5/2022 11:00:00 PM 14.56 58.208 0.115 7.52 4.28 9.09
5/5/2022 11:15:00 PM 14.54 58.172 0.114 7.51 4.41 9.09
5/5/2022 11:30:00 PM 14.52 58.136 0.114 7.5 3.91 9.09
5/5/2022 11:45:00 PM 14.5 58.1 0.114 7.5 3.73 9.08
5/6/2022 12:00:00 AM 14.48 58.064 0.114 7.49 3.74 9.08
5/6/2022 12:15:00 AM 14.46 58.028 0.114 7.48 4.03 9.09
5/6/2022 12:30:00 AM 14.43 57.974 0.114 7.48 3.88 9.06
5/6/2022 12:45:00 AM 14.41 57.938 0.114 7.48 3.61 9.07
5/6/2022 1:00:00 AM 14.39 57.902 0.114 7.48 4.24 9.06
5/6/2022 1:15:00 AM 14.38 57.884 0.114 7.47 3.86 9.05
5/6/2022 1:30:00 AM 14.36 57.848 0.114 7.47 3.95 9.08
5/6/2022 1:45:00 AM 14.35 57.83 0.114 7.46 4.28 9.07
5/6/2022 2:00:00 AM 14.33 57.794 0.114 7.47 3.95 9.06
5/6/2022 2:15:00 AM 14.32 57.776 0.114 7.47 3.77 9.08
5/6/2022 2:30:00 AM 14.31 57.758 0.114 7.46 3.92 9.04
5/6/2022 2:45:00 AM 14.29 57.722 0.114 7.45 3.96 9.05
5/6/2022 3:00:00 AM 14.28 57.704 0.114 7.45 4.01 9.05
5/6/2022 3:15:00 AM 14.27 57.686 0.114 7.45 3.79 9.05
5/6/2022 3:30:00 AM 14.25 57.65 0.114 7.45 4.44 9.04
5/6/2022 3:45:00 AM 14.23 57.614 0.114 7.45 3.91 9.03
5/6/2022 4:00:00 AM 14.22 57.596 0.114 7.45 4.19 9.04
5/6/2022 4:15:00 AM 14.2 57.56 0.114 7.43 4.13 9.02
5/6/2022 4:30:00 AM 14.19 57.542 0.114 7.44 4.01 9.05
5/6/2022 4:45:00 AM 14.16 57.488 0.114 7.44 3.86 9.05
5/6/2022 5:00:00 AM 14.15 57.47 0.114 7.45 3.92 9.05
5/6/2022 5:15:00 AM 14.13 57.434 0.114 7.44 4.06 9.06
5/6/2022 5:30:00 AM 14.11 57.398 0.114 7.44 4.05 9.04
5/6/2022 5:45:00 AM 14.09 57.362 0.114 7.44 4.18 9.08
5/6/2022 6:00:00 AM 14.06 57.308 0.114 7.42 4.14 9.06
5/6/2022 6:15:00 AM 14.05 57.29 0.114 7.44 4.18 9.04
5/6/2022 6:30:00 AM 14.03 57.254 0.114 7.42 3.97 9.05
5/6/2022 6:45:00 AM 14.01 57.218 0.114 7.45 4.06 9.1
5/6/2022 7:00:00 AM 14 57.2 0.114 7.45 3.94 9.12
5/6/2022 7:15:00 AM 13.98 57.164 0.114 7.46 4.13 9.17
5/6/2022 7:30:00 AM 13.97 57.146 0.114 7.47 3.81 9.21
5/6/2022 7:45:00 AM 13.96 57.128 0.113 7.45 4.04 9.27
5/6/2022 8:00:00 AM 13.95 57.11 0.113 7.49 4.85 9.25
5/6/2022 8:15:00 AM 13.93 57.074 0.113 7.5 3.67 9.34
5/6/2022 8:30:00 AM 13.92 57.056 0.113 7.52 3.66 9.44
5/6/2022 8:45:00 AM 13.93 57.074 0.113 7.55 3.71 9.58
5/6/2022 9:00:00 AM 13.93 57.074 0.113 7.55 3.62 9.62
5/6/2022 9:15:00 AM 13.93 57.074 0.113 7.6 3.98 9.77
5/6/2022 9:30:00 AM 13.93 57.074 0.113 7.6 3.92 9.79
5/6/2022 9:45:00 AM 13.92 57.056 0.113 7.63 3.81 9.84
5/6/2022 10:00:00 AM 13.91 57.038 0.112 7.65 3.91 9.94
5/6/2022 10:15:00 AM 13.9 57.02 0.112 7.7 3.81 9.98
5/6/2022 10:30:00 AM 13.88 56.984 0.112 7.72 3.85 10.07
5/6/2022 10:45:00 AM 13.87 56.966 0.112 7.73 4.51 10.08
5/6/2022 11:00:00 AM 13.87 56.966 0.112 7.76 4.01 10.15
5/6/2022 11:15:00 AM 13.86 56.948 0.111 7.8 9.35 10.23
5/6/2022 11:30:00 AM 13.86 56.948 0.112 7.82 4.64 10.27
5/6/2022 11:45:00 AM 13.86 56.948 0.112 7.83 5.38 10.31
5/6/2022 12:00:00 PM 13.86 56.948 0.112 7.87 5.44 10.38
5/6/2022 12:15:00 PM 13.86 56.948 0.112 7.9 6.23 10.39
5/6/2022 12:30:00 PM 13.85 56.93 0.112 7.89 6.59 10.35
5/6/2022 12:45:00 PM 13.83 56.894 0.112 7.92 6.87 10.39
5/6/2022 1:00:00 PM 13.8 56.84 0.112 7.92 7.37 10.37
5/6/2022 1:15:00 PM 13.8 56.84 0.112 7.93 8.26 10.36
5/6/2022 1:30:00 PM 13.78 56.804 0.112 7.92 11.42 10.37
5/6/2022 1:45:00 PM 13.76 56.768 0.112 7.91 9.12 10.32
5/6/2022 2:00:00 PM 13.72 56.696 0.112 7.88 7.61 10.27
5/6/2022 2:15:00 PM 13.68 56.624 0.112 7.85 7.21 10.17
5/6/2022 2:30:00 PM 13.63 56.534 0.112 7.8 8.61 10.09
5/6/2022 2:45:00 PM 13.56 56.408 0.112 7.77 8.33 10.05
5/6/2022 3:00:00 PM 13.55 56.39 0.112 7.78 8.29 10.13
5/6/2022 3:15:00 PM 13.54 56.372 0.112 7.79 9.18 10.13
5/6/2022 3:30:00 PM 13.5 56.3 0.112 7.77 9.11 10.12
5/6/2022 3:45:00 PM 13.44 56.192 0.112 7.78 9.24 10.17
5/6/2022 4:00:00 PM 13.39 56.102 0.112 7.76 10.37 10.11
5/6/2022 4:15:00 PM 13.35 56.03 0.112 7.75 9.94 10.11
5/6/2022 4:30:00 PM 13.3 55.94 0.112 7.74 9.79 10.08
5/6/2022 4:45:00 PM 13.25 55.85 0.112 7.72 10.37 10.05
5/6/2022 5:00:00 PM 13.21 55.778 0.112 7.7 11.33 10.02
5/6/2022 5:15:00 PM 13.18 55.724 0.112 7.68 12.09 10.01
5/6/2022 5:30:00 PM 13.14 55.652 0.112 7.67 14.17 10.01
5/6/2022 5:45:00 PM 13.11 55.598 0.112 7.66 12.63 9.98
5/6/2022 6:00:00 PM 13.07 55.526 0.112 7.63 14.76 9.96
5/6/2022 6:15:00 PM 13.02 55.436 0.112 7.62 14.78 9.95
5/6/2022 6:30:00 PM 12.99 55.382 0.112 7.6 18.07 9.95
5/6/2022 6:45:00 PM 12.95 55.31 0.112 7.6 15.73 9.95
5/6/2022 7:00:00 PM 12.9 55.22 0.112 7.58 12.99 9.95
5/6/2022 7:15:00 PM 12.84 55.112 0.112 7.57 14.82 9.94
5/6/2022 7:30:00 PM 12.79 55.022 0.112 7.55 17.46 9.94
5/6/2022 7:45:00 PM 12.74 54.932 0.113 7.55 21.12 9.95
5/6/2022 8:00:00 PM 12.7 54.86 0.113 7.54 18.76 9.96
5/6/2022 8:15:00 PM 12.65 54.77 0.113 7.53 15.66 9.96
5/6/2022 8:30:00 PM 12.59 54.662 0.112 7.53 21.6 9.97
5/6/2022 8:45:00 PM 12.53 54.554 0.112 7.52 19.89 9.98
5/6/2022 9:00:00 PM 12.47 54.446 0.111 7.52 23.65 9.99
5/6/2022 9:15:00 PM 12.39 54.302 0.111 7.52 25.76 9.99
5/6/2022 9:30:00 PM 12.32 54.176 0.111 7.51 24.98 10.01
5/6/2022 9:45:00 PM 12.26 54.068 0.11 7.51 27.18 10.02
5/6/2022 10:00:00 PM 12.21 53.978 0.109 7.51 26.5 10.03
5/6/2022 10:15:00 PM 12.16 53.888 0.108 7.5 23.95 10.03
5/6/2022 10:30:00 PM 12.12 53.816 0.107 7.49 28.53 10.04
5/6/2022 10:45:00 PM 12.1 53.78 0.106 7.48 30.02 10.04
5/6/2022 11:00:00 PM 12.07 53.726 0.105 7.46 28.3 10.04
5/6/2022 11:15:00 PM 12.05 53.69 0.104 7.47 32.1 10.04
5/6/2022 11:30:00 PM 12.02 53.636 0.103 7.47 30.42 10.04
5/6/2022 11:45:00 PM 11.99 53.582 0.103 7.46 30.45 10.05
5/7/2022 12:00:00 AM 11.96 53.528 0.102 7.45 27.62 10.05
5/7/2022 12:15:00 AM 11.93 53.474 0.101 7.45 33.07 10.06
5/7/2022 12:30:00 AM 11.9 53.42 0.101 7.44 30.71 10.06
5/7/2022 12:45:00 AM 11.87 53.366 0.1 7.45 33.24 10.07
5/7/2022 1:00:00 AM 11.85 53.33 0.099 7.43 32.68 10.07
5/7/2022 1:15:00 AM 11.82 53.276 0.098 7.43 33.36 10.08
5/7/2022 1:30:00 AM 11.79 53.222 0.098 7.42 33.98 10.08
5/7/2022 1:45:00 AM 11.77 53.186 0.097 7.42 32.95 10.09
5/7/2022 2:00:00 AM 11.74 53.132 0.097 7.43 36.63 10.09
5/7/2022 2:15:00 AM 11.72 53.096 0.097 7.42 34.24 10.09
5/7/2022 2:30:00 AM 11.69 53.042 0.097 7.41 32.98 10.1
5/7/2022 2:45:00 AM 11.66 52.988 0.097 7.4 33.93 10.1
5/7/2022 3:00:00 AM 11.64 52.952 0.096 7.4 34.83 10.11
5/7/2022 3:15:00 AM 11.6 52.88 0.096 7.4 34.32 10.12
5/7/2022 3:30:00 AM 11.57 52.826 0.096 7.39 33.82 10.12
5/7/2022 3:45:00 AM 11.54 52.772 0.095 7.4 32.46 10.13
5/7/2022 4:00:00 AM 11.51 52.718 0.095 7.39 31.09 10.14
5/7/2022 4:15:00 AM 11.48 52.664 0.095 7.39 31.96 10.15
5/7/2022 4:30:00 AM 11.46 52.628 0.095 7.38 33.3 10.16
5/7/2022 4:45:00 AM 11.43 52.574 0.095 7.4 34.09 10.16
5/7/2022 5:00:00 AM 11.4 52.52 0.094 7.39 33.56 10.16
5/7/2022 5:15:00 AM 11.37 52.466 0.094 7.39 31.07 10.17
5/7/2022 5:30:00 AM 11.35 52.43 0.094 7.4 31.21 10.17
5/7/2022 5:45:00 AM 11.32 52.376 0.094 7.4 30.22 10.18
5/7/2022 6:00:00 AM 11.29 52.322 0.094 7.39 29.9 10.18
5/7/2022 6:15:00 AM 11.27 52.286 0.094 7.38 29.8 10.19
5/7/2022 6:30:00 AM 11.24 52.232 0.094 7.4 29.06 10.21
5/7/2022 6:45:00 AM 11.22 52.196 0.094 7.4 24.02 10.21
5/7/2022 7:00:00 AM 11.19 52.142 0.094 7.4 27.42 10.23
5/7/2022 7:15:00 AM 11.17 52.106 0.094 7.4 26.36 10.24
5/7/2022 7:30:00 AM 11.14 52.052 0.094 7.41 25.75 10.26
5/7/2022 7:45:00 AM 11.12 52.016 0.094 7.4 23.62 10.27
5/7/2022 8:00:00 AM 11.1 51.98 0.094 7.39 24.63 10.28
5/7/2022 8:15:00 AM 11.09 51.962 0.094 7.41 23.74 10.3
5/7/2022 8:30:00 AM 11.07 51.926 0.094 7.42 23.41 10.31
5/7/2022 8:45:00 AM 11.07 51.926 0.094 7.42 23 10.34
5/7/2022 9:00:00 AM 11.06 51.908 0.094 7.43 22.88 10.35
5/7/2022 9:15:00 AM 11.05 51.89 0.094 7.43 21.46 10.35
5/7/2022 9:30:00 AM 11.03 51.854 0.094 7.42 19.97 10.36
5/7/2022 9:45:00 AM 11.02 51.836 0.094 7.43 20.18 10.37
5/7/2022 10:00:00 AM 11.02 51.836 0.094 7.43